<?xml version="1.0" encoding="UTF-8" standalone="no" ?>
<gpx xmlns="http://www.topografix.com/GPX/1/1" xmlns:xsi="http://www.w3.org/2001/XMLSchema-instance" xsi:schemaLocation="http://www.topografix.com/GPX/1/1 http://www.topografix.com/GPX/1/1/gpx.xsd" version="1.1" creator="VisuGPX - https://www.visugpx.com">
  <metadata>
    <name>beapat</name>
  </metadata>
  <trk>
    <name><![CDATA[beapat_1]]></name>
    <trkseg>
      <trkpt lat="45.05171" lon="5.52395">
        <ele>1271.3</ele>
        <time>2021-05-08T09:57:54Z</time>
      </trkpt>
      <trkpt lat="45.05147" lon="5.52381">
        <ele>1245.5</ele>
        <time>2021-05-08T09:58:21Z</time>
      </trkpt>
      <trkpt lat="45.05137" lon="5.52358">
        <ele>1244.7</ele>
        <time>2021-05-08T10:01:30Z</time>
      </trkpt>
      <trkpt lat="45.05138" lon="5.5233">
        <ele>1248.6</ele>
        <time>2021-05-08T10:01:40Z</time>
      </trkpt>
      <trkpt lat="45.05135" lon="5.52301">
        <ele>1249.7</ele>
        <time>2021-05-08T10:01:47Z</time>
      </trkpt>
      <trkpt lat="45.05133" lon="5.52274">
        <ele>1246.5</ele>
        <time>2021-05-08T10:01:53Z</time>
      </trkpt>
      <trkpt lat="45.05134" lon="5.52248">
        <ele>1245</ele>
        <time>2021-05-08T10:01:58Z</time>
      </trkpt>
      <trkpt lat="45.05131" lon="5.52218">
        <ele>1247.1</ele>
        <time>2021-05-08T10:02:03Z</time>
      </trkpt>
      <trkpt lat="45.05116" lon="5.52201">
        <ele>1246.3</ele>
        <time>2021-05-08T10:02:07Z</time>
      </trkpt>
      <trkpt lat="45.05097" lon="5.52187">
        <ele>1244.2</ele>
        <time>2021-05-08T10:02:12Z</time>
      </trkpt>
      <trkpt lat="45.0508" lon="5.52169">
        <ele>1243.9</ele>
        <time>2021-05-08T10:02:17Z</time>
      </trkpt>
      <trkpt lat="45.05061" lon="5.52166">
        <ele>1241.2</ele>
        <time>2021-05-08T10:02:22Z</time>
      </trkpt>
      <trkpt lat="45.05045" lon="5.52155">
        <ele>1242.7</ele>
        <time>2021-05-08T10:02:28Z</time>
      </trkpt>
      <trkpt lat="45.05027" lon="5.52141">
        <ele>1236.9</ele>
        <time>2021-05-08T10:02:35Z</time>
      </trkpt>
      <trkpt lat="45.05007" lon="5.52138">
        <ele>1240.9</ele>
        <time>2021-05-08T10:02:42Z</time>
      </trkpt>
      <trkpt lat="45.04986" lon="5.52134">
        <ele>1240.3</ele>
        <time>2021-05-08T10:02:47Z</time>
      </trkpt>
      <trkpt lat="45.04976" lon="5.52109">
        <ele>1239</ele>
        <time>2021-05-08T10:02:51Z</time>
      </trkpt>
      <trkpt lat="45.04974" lon="5.52079">
        <ele>1236.6</ele>
        <time>2021-05-08T10:02:58Z</time>
      </trkpt>
      <trkpt lat="45.04954" lon="5.52076">
        <ele>1235.8</ele>
        <time>2021-05-08T10:03:05Z</time>
      </trkpt>
      <trkpt lat="45.04935" lon="5.52083">
        <ele>1239.4</ele>
        <time>2021-05-08T10:03:12Z</time>
      </trkpt>
      <trkpt lat="45.04917" lon="5.52088">
        <ele>1241.2</ele>
        <time>2021-05-08T10:03:18Z</time>
      </trkpt>
      <trkpt lat="45.04898" lon="5.52098">
        <ele>1244.5</ele>
        <time>2021-05-08T10:03:25Z</time>
      </trkpt>
      <trkpt lat="45.04879" lon="5.52107">
        <ele>1245.2</ele>
        <time>2021-05-08T10:03:31Z</time>
      </trkpt>
      <trkpt lat="45.0486" lon="5.52116">
        <ele>1250.3</ele>
        <time>2021-05-08T10:03:39Z</time>
      </trkpt>
      <trkpt lat="45.04841" lon="5.52119">
        <ele>1248</ele>
        <time>2021-05-08T10:03:45Z</time>
      </trkpt>
      <trkpt lat="45.0482" lon="5.52115">
        <ele>1244.1</ele>
        <time>2021-05-08T10:03:53Z</time>
      </trkpt>
      <trkpt lat="45.04801" lon="5.52103">
        <ele>1239.5</ele>
        <time>2021-05-08T10:03:57Z</time>
      </trkpt>
      <trkpt lat="45.04782" lon="5.52106">
        <ele>1240.4</ele>
        <time>2021-05-08T10:04:00Z</time>
      </trkpt>
      <trkpt lat="45.04763" lon="5.52115">
        <ele>1242.6</ele>
        <time>2021-05-08T10:04:04Z</time>
      </trkpt>
      <trkpt lat="45.04744" lon="5.5212">
        <ele>1244.3</ele>
        <time>2021-05-08T10:04:10Z</time>
      </trkpt>
      <trkpt lat="45.04724" lon="5.52133">
        <ele>1243.1</ele>
        <time>2021-05-08T10:04:15Z</time>
      </trkpt>
      <trkpt lat="45.04705" lon="5.52144">
        <ele>1242.1</ele>
        <time>2021-05-08T10:04:18Z</time>
      </trkpt>
      <trkpt lat="45.04686" lon="5.52153">
        <ele>1238.1</ele>
        <time>2021-05-08T10:04:22Z</time>
      </trkpt>
      <trkpt lat="45.04669" lon="5.52162">
        <ele>1237.8</ele>
        <time>2021-05-08T10:04:46Z</time>
      </trkpt>
      <trkpt lat="45.04652" lon="5.52174">
        <ele>1237</ele>
        <time>2021-05-08T10:06:15Z</time>
      </trkpt>
      <trkpt lat="45.04633" lon="5.52168">
        <ele>1238.8</ele>
        <time>2021-05-08T10:06:28Z</time>
      </trkpt>
      <trkpt lat="45.04617" lon="5.5218">
        <ele>1239.2</ele>
        <time>2021-05-08T10:06:38Z</time>
      </trkpt>
      <trkpt lat="45.04599" lon="5.52185">
        <ele>1240.3</ele>
        <time>2021-05-08T10:06:50Z</time>
      </trkpt>
      <trkpt lat="45.04591" lon="5.52161">
        <ele>1245.4</ele>
        <time>2021-05-08T10:07:31Z</time>
      </trkpt>
      <trkpt lat="45.04591" lon="5.52134">
        <ele>1246.1</ele>
        <time>2021-05-08T10:07:42Z</time>
      </trkpt>
      <trkpt lat="45.04583" lon="5.5211">
        <ele>1242.9</ele>
        <time>2021-05-08T10:07:50Z</time>
      </trkpt>
      <trkpt lat="45.04596" lon="5.52092">
        <ele>1240.8</ele>
        <time>2021-05-08T10:07:57Z</time>
      </trkpt>
      <trkpt lat="45.04601" lon="5.52066">
        <ele>1241.5</ele>
        <time>2021-05-08T10:08:05Z</time>
      </trkpt>
      <trkpt lat="45.04605" lon="5.52041">
        <ele>1239.9</ele>
        <time>2021-05-08T10:08:12Z</time>
      </trkpt>
      <trkpt lat="45.04605" lon="5.52014">
        <ele>1239.2</ele>
        <time>2021-05-08T10:08:49Z</time>
      </trkpt>
      <trkpt lat="45.04603" lon="5.51988">
        <ele>1241.7</ele>
        <time>2021-05-08T10:09:00Z</time>
      </trkpt>
      <trkpt lat="45.04606" lon="5.51963">
        <ele>1239.7</ele>
        <time>2021-05-08T10:09:09Z</time>
      </trkpt>
      <trkpt lat="45.04605" lon="5.51936">
        <ele>1239</ele>
        <time>2021-05-08T10:09:21Z</time>
      </trkpt>
      <trkpt lat="45.04595" lon="5.51913">
        <ele>1237.2</ele>
        <time>2021-05-08T10:09:32Z</time>
      </trkpt>
      <trkpt lat="45.04584" lon="5.51891">
        <ele>1235.7</ele>
        <time>2021-05-08T10:09:40Z</time>
      </trkpt>
      <trkpt lat="45.0458" lon="5.51864">
        <ele>1236.5</ele>
        <time>2021-05-08T10:09:47Z</time>
      </trkpt>
      <trkpt lat="45.04594" lon="5.51834">
        <ele>1235.5</ele>
        <time>2021-05-08T10:09:53Z</time>
      </trkpt>
      <trkpt lat="45.04607" lon="5.51812">
        <ele>1233.8</ele>
        <time>2021-05-08T10:09:56Z</time>
      </trkpt>
      <trkpt lat="45.04616" lon="5.51789">
        <ele>1237.3</ele>
        <time>2021-05-08T10:10:02Z</time>
      </trkpt>
      <trkpt lat="45.04626" lon="5.51767">
        <ele>1238.9</ele>
        <time>2021-05-08T10:10:09Z</time>
      </trkpt>
      <trkpt lat="45.04633" lon="5.5174">
        <ele>1236.4</ele>
        <time>2021-05-08T10:10:16Z</time>
      </trkpt>
      <trkpt lat="45.0465" lon="5.51721">
        <ele>1236</ele>
        <time>2021-05-08T10:10:20Z</time>
      </trkpt>
      <trkpt lat="45.04661" lon="5.51698">
        <ele>1240.8</ele>
        <time>2021-05-08T10:10:28Z</time>
      </trkpt>
      <trkpt lat="45.04667" lon="5.51674">
        <ele>1237.4</ele>
        <time>2021-05-08T10:10:35Z</time>
      </trkpt>
      <trkpt lat="45.04672" lon="5.51646">
        <ele>1232.7</ele>
        <time>2021-05-08T10:10:46Z</time>
      </trkpt>
      <trkpt lat="45.04679" lon="5.51622">
        <ele>1236.5</ele>
        <time>2021-05-08T10:10:58Z</time>
      </trkpt>
      <trkpt lat="45.04683" lon="5.51597">
        <ele>1237.9</ele>
        <time>2021-05-08T10:11:09Z</time>
      </trkpt>
      <trkpt lat="45.04676" lon="5.51572">
        <ele>1237.5</ele>
        <time>2021-05-08T10:11:20Z</time>
      </trkpt>
      <trkpt lat="45.04666" lon="5.51547">
        <ele>1236.8</ele>
        <time>2021-05-08T10:11:29Z</time>
      </trkpt>
      <trkpt lat="45.04657" lon="5.51524">
        <ele>1238.1</ele>
        <time>2021-05-08T10:11:39Z</time>
      </trkpt>
      <trkpt lat="45.0465" lon="5.51497">
        <ele>1241.9</ele>
        <time>2021-05-08T10:11:48Z</time>
      </trkpt>
      <trkpt lat="45.04652" lon="5.5147">
        <ele>1241.3</ele>
        <time>2021-05-08T10:11:57Z</time>
      </trkpt>
      <trkpt lat="45.04658" lon="5.51443">
        <ele>1243.7</ele>
        <time>2021-05-08T10:12:08Z</time>
      </trkpt>
      <trkpt lat="45.04666" lon="5.51418">
        <ele>1243.8</ele>
        <time>2021-05-08T10:12:14Z</time>
      </trkpt>
      <trkpt lat="45.04669" lon="5.51391">
        <ele>1241.7</ele>
        <time>2021-05-08T10:12:20Z</time>
      </trkpt>
      <trkpt lat="45.0467" lon="5.51365">
        <ele>1239.7</ele>
        <time>2021-05-08T10:12:25Z</time>
      </trkpt>
      <trkpt lat="45.04671" lon="5.51339">
        <ele>1239.5</ele>
        <time>2021-05-08T10:12:33Z</time>
      </trkpt>
      <trkpt lat="45.04666" lon="5.51311">
        <ele>1239</ele>
        <time>2021-05-08T10:13:07Z</time>
      </trkpt>
      <trkpt lat="45.04653" lon="5.51294">
        <ele>1234</ele>
        <time>2021-05-08T10:13:14Z</time>
      </trkpt>
      <trkpt lat="45.04638" lon="5.51274">
        <ele>1233.9</ele>
        <time>2021-05-08T10:13:21Z</time>
      </trkpt>
      <trkpt lat="45.04626" lon="5.51254">
        <ele>1235.1</ele>
        <time>2021-05-08T10:13:29Z</time>
      </trkpt>
      <trkpt lat="45.0461" lon="5.51235">
        <ele>1239.1</ele>
        <time>2021-05-08T10:13:38Z</time>
      </trkpt>
      <trkpt lat="45.04594" lon="5.51221">
        <ele>1239.2</ele>
        <time>2021-05-08T10:13:48Z</time>
      </trkpt>
      <trkpt lat="45.04575" lon="5.51213">
        <ele>1244.9</ele>
        <time>2021-05-08T10:13:57Z</time>
      </trkpt>
      <trkpt lat="45.04558" lon="5.51204">
        <ele>1245.5</ele>
        <time>2021-05-08T10:14:04Z</time>
      </trkpt>
      <trkpt lat="45.04539" lon="5.51198">
        <ele>1245.9</ele>
        <time>2021-05-08T10:14:10Z</time>
      </trkpt>
      <trkpt lat="45.04521" lon="5.51191">
        <ele>1248</ele>
        <time>2021-05-08T10:14:16Z</time>
      </trkpt>
      <trkpt lat="45.04501" lon="5.51186">
        <ele>1248.1</ele>
        <time>2021-05-08T10:14:24Z</time>
      </trkpt>
      <trkpt lat="45.04483" lon="5.5118">
        <ele>1251.5</ele>
        <time>2021-05-08T10:14:31Z</time>
      </trkpt>
      <trkpt lat="45.04461" lon="5.51179">
        <ele>1256</ele>
        <time>2021-05-08T10:14:39Z</time>
      </trkpt>
      <trkpt lat="45.04445" lon="5.51164">
        <ele>1254.3</ele>
        <time>2021-05-08T10:14:47Z</time>
      </trkpt>
      <trkpt lat="45.04428" lon="5.51153">
        <ele>1259.7</ele>
        <time>2021-05-08T10:15:18Z</time>
      </trkpt>
      <trkpt lat="45.04414" lon="5.51137">
        <ele>1262.5</ele>
        <time>2021-05-08T10:15:29Z</time>
      </trkpt>
      <trkpt lat="45.04398" lon="5.51121">
        <ele>1258.1</ele>
        <time>2021-05-08T10:15:51Z</time>
      </trkpt>
      <trkpt lat="45.04383" lon="5.51104">
        <ele>1251.8</ele>
        <time>2021-05-08T10:16:02Z</time>
      </trkpt>
      <trkpt lat="45.04365" lon="5.51098">
        <ele>1252.7</ele>
        <time>2021-05-08T10:16:11Z</time>
      </trkpt>
      <trkpt lat="45.04349" lon="5.51087">
        <ele>1256.3</ele>
        <time>2021-05-08T10:16:20Z</time>
      </trkpt>
      <trkpt lat="45.0433" lon="5.5108">
        <ele>1257.6</ele>
        <time>2021-05-08T10:16:31Z</time>
      </trkpt>
      <trkpt lat="45.04313" lon="5.51068">
        <ele>1256.2</ele>
        <time>2021-05-08T10:16:38Z</time>
      </trkpt>
      <trkpt lat="45.04294" lon="5.51065">
        <ele>1258.5</ele>
        <time>2021-05-08T10:16:49Z</time>
      </trkpt>
      <trkpt lat="45.04275" lon="5.51064">
        <ele>1259.7</ele>
        <time>2021-05-08T10:17:00Z</time>
      </trkpt>
      <trkpt lat="45.04256" lon="5.51068">
        <ele>1262.2</ele>
        <time>2021-05-08T10:17:09Z</time>
      </trkpt>
      <trkpt lat="45.04237" lon="5.51063">
        <ele>1267</ele>
        <time>2021-05-08T10:17:17Z</time>
      </trkpt>
      <trkpt lat="45.04217" lon="5.51055">
        <ele>1273.6</ele>
        <time>2021-05-08T10:17:25Z</time>
      </trkpt>
      <trkpt lat="45.042" lon="5.51048">
        <ele>1269.8</ele>
        <time>2021-05-08T10:17:47Z</time>
      </trkpt>
      <trkpt lat="45.04182" lon="5.51041">
        <ele>1267.8</ele>
        <time>2021-05-08T10:19:40Z</time>
      </trkpt>
      <trkpt lat="45.04164" lon="5.51037">
        <ele>1271</ele>
        <time>2021-05-08T10:19:49Z</time>
      </trkpt>
      <trkpt lat="45.04145" lon="5.51028">
        <ele>1277.6</ele>
        <time>2021-05-08T10:19:58Z</time>
      </trkpt>
      <trkpt lat="45.04127" lon="5.51026">
        <ele>1275</ele>
        <time>2021-05-08T10:20:07Z</time>
      </trkpt>
      <trkpt lat="45.04107" lon="5.5102">
        <ele>1272</ele>
        <time>2021-05-08T10:20:14Z</time>
      </trkpt>
      <trkpt lat="45.04086" lon="5.5102">
        <ele>1276.2</ele>
        <time>2021-05-08T10:20:22Z</time>
      </trkpt>
      <trkpt lat="45.04067" lon="5.51018">
        <ele>1276.5</ele>
        <time>2021-05-08T10:20:30Z</time>
      </trkpt>
      <trkpt lat="45.04047" lon="5.5102">
        <ele>1273.4</ele>
        <time>2021-05-08T10:20:38Z</time>
      </trkpt>
      <trkpt lat="45.04029" lon="5.51015">
        <ele>1274</ele>
        <time>2021-05-08T10:20:44Z</time>
      </trkpt>
      <trkpt lat="45.04011" lon="5.51005">
        <ele>1274.8</ele>
        <time>2021-05-08T10:20:53Z</time>
      </trkpt>
      <trkpt lat="45.03993" lon="5.50999">
        <ele>1273.5</ele>
        <time>2021-05-08T10:21:00Z</time>
      </trkpt>
      <trkpt lat="45.03975" lon="5.50992">
        <ele>1277.6</ele>
        <time>2021-05-08T10:21:07Z</time>
      </trkpt>
      <trkpt lat="45.03957" lon="5.50989">
        <ele>1275.4</ele>
        <time>2021-05-08T10:21:13Z</time>
      </trkpt>
      <trkpt lat="45.03938" lon="5.50987">
        <ele>1275.1</ele>
        <time>2021-05-08T10:21:18Z</time>
      </trkpt>
      <trkpt lat="45.0392" lon="5.50982">
        <ele>1274.8</ele>
        <time>2021-05-08T10:21:23Z</time>
      </trkpt>
      <trkpt lat="45.03898" lon="5.50978">
        <ele>1274</ele>
        <time>2021-05-08T10:21:27Z</time>
      </trkpt>
      <trkpt lat="45.03876" lon="5.50976">
        <ele>1269.4</ele>
        <time>2021-05-08T10:21:32Z</time>
      </trkpt>
      <trkpt lat="45.03855" lon="5.50984">
        <ele>1269.4</ele>
        <time>2021-05-08T10:21:36Z</time>
      </trkpt>
      <trkpt lat="45.03839" lon="5.50997">
        <ele>1265.4</ele>
        <time>2021-05-08T10:21:41Z</time>
      </trkpt>
      <trkpt lat="45.0385" lon="5.50977">
        <ele>1262.6</ele>
        <time>2021-05-08T10:22:06Z</time>
      </trkpt>
      <trkpt lat="45.03869" lon="5.50974">
        <ele>1262.7</ele>
        <time>2021-05-08T10:22:13Z</time>
      </trkpt>
      <trkpt lat="45.03886" lon="5.50954">
        <ele>1258.2</ele>
        <time>2021-05-08T10:22:19Z</time>
      </trkpt>
      <trkpt lat="45.03892" lon="5.50928">
        <ele>1254.2</ele>
        <time>2021-05-08T10:22:24Z</time>
      </trkpt>
      <trkpt lat="45.03887" lon="5.50902">
        <ele>1249.6</ele>
        <time>2021-05-08T10:22:32Z</time>
      </trkpt>
      <trkpt lat="45.03869" lon="5.5089">
        <ele>1247.9</ele>
        <time>2021-05-08T10:22:39Z</time>
      </trkpt>
      <trkpt lat="45.03848" lon="5.50886">
        <ele>1244.9</ele>
        <time>2021-05-08T10:22:44Z</time>
      </trkpt>
      <trkpt lat="45.03831" lon="5.50897">
        <ele>1246.3</ele>
        <time>2021-05-08T10:22:50Z</time>
      </trkpt>
      <trkpt lat="45.03813" lon="5.50905">
        <ele>1245.1</ele>
        <time>2021-05-08T10:22:55Z</time>
      </trkpt>
      <trkpt lat="45.03794" lon="5.50905">
        <ele>1242.8</ele>
        <time>2021-05-08T10:22:58Z</time>
      </trkpt>
      <trkpt lat="45.03773" lon="5.50901">
        <ele>1239.8</ele>
        <time>2021-05-08T10:23:01Z</time>
      </trkpt>
      <trkpt lat="45.03756" lon="5.50884">
        <ele>1238.3</ele>
        <time>2021-05-08T10:23:04Z</time>
      </trkpt>
      <trkpt lat="45.03743" lon="5.50866">
        <ele>1236.1</ele>
        <time>2021-05-08T10:23:07Z</time>
      </trkpt>
      <trkpt lat="45.0373" lon="5.50844">
        <ele>1235.5</ele>
        <time>2021-05-08T10:23:12Z</time>
      </trkpt>
      <trkpt lat="45.03714" lon="5.50824">
        <ele>1236.6</ele>
        <time>2021-05-08T10:23:19Z</time>
      </trkpt>
      <trkpt lat="45.03698" lon="5.50807">
        <ele>1235.8</ele>
        <time>2021-05-08T10:23:25Z</time>
      </trkpt>
      <trkpt lat="45.03685" lon="5.50789">
        <ele>1235.5</ele>
        <time>2021-05-08T10:23:31Z</time>
      </trkpt>
      <trkpt lat="45.03681" lon="5.50763">
        <ele>1235.3</ele>
        <time>2021-05-08T10:23:37Z</time>
      </trkpt>
      <trkpt lat="45.03677" lon="5.50737">
        <ele>1237.3</ele>
        <time>2021-05-08T10:23:44Z</time>
      </trkpt>
      <trkpt lat="45.03675" lon="5.50709">
        <ele>1238.2</ele>
        <time>2021-05-08T10:23:52Z</time>
      </trkpt>
      <trkpt lat="45.03688" lon="5.50686">
        <ele>1245.2</ele>
        <time>2021-05-08T10:24:04Z</time>
      </trkpt>
      <trkpt lat="45.037" lon="5.50666">
        <ele>1248.7</ele>
        <time>2021-05-08T10:24:13Z</time>
      </trkpt>
      <trkpt lat="45.0371" lon="5.50643">
        <ele>1244.5</ele>
        <time>2021-05-08T10:24:20Z</time>
      </trkpt>
      <trkpt lat="45.03717" lon="5.50618">
        <ele>1245.6</ele>
        <time>2021-05-08T10:24:30Z</time>
      </trkpt>
      <trkpt lat="45.0372" lon="5.50592">
        <ele>1243.8</ele>
        <time>2021-05-08T10:24:38Z</time>
      </trkpt>
      <trkpt lat="45.03727" lon="5.50569">
        <ele>1244.4</ele>
        <time>2021-05-08T10:24:46Z</time>
      </trkpt>
      <trkpt lat="45.03737" lon="5.50546">
        <ele>1243.1</ele>
        <time>2021-05-08T10:24:53Z</time>
      </trkpt>
      <trkpt lat="45.03744" lon="5.50521">
        <ele>1249.6</ele>
        <time>2021-05-08T10:25:04Z</time>
      </trkpt>
      <trkpt lat="45.03755" lon="5.505">
        <ele>1252.4</ele>
        <time>2021-05-08T10:25:13Z</time>
      </trkpt>
      <trkpt lat="45.03766" lon="5.50479">
        <ele>1251.3</ele>
        <time>2021-05-08T10:25:22Z</time>
      </trkpt>
      <trkpt lat="45.0378" lon="5.50462">
        <ele>1249.4</ele>
        <time>2021-05-08T10:25:28Z</time>
      </trkpt>
      <trkpt lat="45.03793" lon="5.50443">
        <ele>1253.8</ele>
        <time>2021-05-08T10:25:42Z</time>
      </trkpt>
      <trkpt lat="45.03803" lon="5.50421">
        <ele>1261.7</ele>
        <time>2021-05-08T10:25:58Z</time>
      </trkpt>
      <trkpt lat="45.03812" lon="5.50398">
        <ele>1266.7</ele>
        <time>2021-05-08T10:26:12Z</time>
      </trkpt>
      <trkpt lat="45.03825" lon="5.5038">
        <ele>1272.9</ele>
        <time>2021-05-08T10:26:24Z</time>
      </trkpt>
      <trkpt lat="45.03836" lon="5.50359">
        <ele>1265.1</ele>
        <time>2021-05-08T10:26:55Z</time>
      </trkpt>
      <trkpt lat="45.03847" lon="5.50337">
        <ele>1257</ele>
        <time>2021-05-08T10:28:40Z</time>
      </trkpt>
      <trkpt lat="45.03861" lon="5.50319">
        <ele>1256.9</ele>
        <time>2021-05-08T10:28:51Z</time>
      </trkpt>
      <trkpt lat="45.03871" lon="5.50298">
        <ele>1258.9</ele>
        <time>2021-05-08T10:29:01Z</time>
      </trkpt>
      <trkpt lat="45.03888" lon="5.50284">
        <ele>1259.7</ele>
        <time>2021-05-08T10:29:10Z</time>
      </trkpt>
      <trkpt lat="45.03882" lon="5.50258">
        <ele>1265.7</ele>
        <time>2021-05-08T10:29:25Z</time>
      </trkpt>
      <trkpt lat="45.03897" lon="5.50243">
        <ele>1266.1</ele>
        <time>2021-05-08T10:29:40Z</time>
      </trkpt>
      <trkpt lat="45.03893" lon="5.50217">
        <ele>1267.9</ele>
        <time>2021-05-08T10:30:09Z</time>
      </trkpt>
      <trkpt lat="45.03896" lon="5.50192">
        <ele>1271.2</ele>
        <time>2021-05-08T10:30:31Z</time>
      </trkpt>
      <trkpt lat="45.03902" lon="5.50167">
        <ele>1274.7</ele>
        <time>2021-05-08T10:30:50Z</time>
      </trkpt>
      <trkpt lat="45.0391" lon="5.50144">
        <ele>1280.4</ele>
        <time>2021-05-08T10:31:15Z</time>
      </trkpt>
      <trkpt lat="45.03921" lon="5.50123">
        <ele>1287.9</ele>
        <time>2021-05-08T10:31:38Z</time>
      </trkpt>
      <trkpt lat="45.03938" lon="5.50112">
        <ele>1293.4</ele>
        <time>2021-05-08T10:32:20Z</time>
      </trkpt>
      <trkpt lat="45.03953" lon="5.50094">
        <ele>1294.2</ele>
        <time>2021-05-08T10:32:31Z</time>
      </trkpt>
      <trkpt lat="45.03974" lon="5.50085">
        <ele>1294</ele>
        <time>2021-05-08T10:32:39Z</time>
      </trkpt>
      <trkpt lat="45.03995" lon="5.50081">
        <ele>1292.7</ele>
        <time>2021-05-08T10:32:45Z</time>
      </trkpt>
      <trkpt lat="45.04015" lon="5.50078">
        <ele>1292.9</ele>
        <time>2021-05-08T10:32:50Z</time>
      </trkpt>
      <trkpt lat="45.04036" lon="5.50082">
        <ele>1290.3</ele>
        <time>2021-05-08T10:32:55Z</time>
      </trkpt>
      <trkpt lat="45.04057" lon="5.50083">
        <ele>1287.9</ele>
        <time>2021-05-08T10:32:59Z</time>
      </trkpt>
      <trkpt lat="45.04074" lon="5.50087">
        <ele>1287.7</ele>
        <time>2021-05-08T10:33:04Z</time>
      </trkpt>
      <trkpt lat="45.04096" lon="5.50087">
        <ele>1285.3</ele>
        <time>2021-05-08T10:33:08Z</time>
      </trkpt>
      <trkpt lat="45.04114" lon="5.50077">
        <ele>1285.5</ele>
        <time>2021-05-08T10:33:14Z</time>
      </trkpt>
      <trkpt lat="45.04133" lon="5.50066">
        <ele>1282.2</ele>
        <time>2021-05-08T10:33:52Z</time>
      </trkpt>
      <trkpt lat="45.04152" lon="5.50064">
        <ele>1280.4</ele>
        <time>2021-05-08T10:33:58Z</time>
      </trkpt>
      <trkpt lat="45.04174" lon="5.50064">
        <ele>1277.9</ele>
        <time>2021-05-08T10:34:03Z</time>
      </trkpt>
      <trkpt lat="45.04194" lon="5.50072">
        <ele>1275.9</ele>
        <time>2021-05-08T10:34:06Z</time>
      </trkpt>
      <trkpt lat="45.04214" lon="5.50066">
        <ele>1276.2</ele>
        <time>2021-05-08T10:34:11Z</time>
      </trkpt>
      <trkpt lat="45.04231" lon="5.50055">
        <ele>1280.5</ele>
        <time>2021-05-08T10:34:21Z</time>
      </trkpt>
      <trkpt lat="45.0425" lon="5.50052">
        <ele>1279.9</ele>
        <time>2021-05-08T10:34:29Z</time>
      </trkpt>
      <trkpt lat="45.04269" lon="5.50044">
        <ele>1281.2</ele>
        <time>2021-05-08T10:34:38Z</time>
      </trkpt>
      <trkpt lat="45.04285" lon="5.50023">
        <ele>1280</ele>
        <time>2021-05-08T10:34:44Z</time>
      </trkpt>
      <trkpt lat="45.04294" lon="5.49999">
        <ele>1278.6</ele>
        <time>2021-05-08T10:34:50Z</time>
      </trkpt>
      <trkpt lat="45.04284" lon="5.49979">
        <ele>1280.9</ele>
        <time>2021-05-08T10:35:03Z</time>
      </trkpt>
      <trkpt lat="45.04276" lon="5.49955">
        <ele>1281.8</ele>
        <time>2021-05-08T10:35:13Z</time>
      </trkpt>
      <trkpt lat="45.04269" lon="5.49928">
        <ele>1283.6</ele>
        <time>2021-05-08T10:35:25Z</time>
      </trkpt>
      <trkpt lat="45.04272" lon="5.49902">
        <ele>1282.7</ele>
        <time>2021-05-08T10:35:34Z</time>
      </trkpt>
      <trkpt lat="45.0428" lon="5.49879">
        <ele>1284.6</ele>
        <time>2021-05-08T10:35:43Z</time>
      </trkpt>
      <trkpt lat="45.04281" lon="5.49853">
        <ele>1285.1</ele>
        <time>2021-05-08T10:35:52Z</time>
      </trkpt>
      <trkpt lat="45.04272" lon="5.49831">
        <ele>1284.8</ele>
        <time>2021-05-08T10:36:02Z</time>
      </trkpt>
      <trkpt lat="45.04264" lon="5.49805">
        <ele>1283.5</ele>
        <time>2021-05-08T10:36:14Z</time>
      </trkpt>
      <trkpt lat="45.04258" lon="5.49781">
        <ele>1284.4</ele>
        <time>2021-05-08T10:36:25Z</time>
      </trkpt>
      <trkpt lat="45.04251" lon="5.49756">
        <ele>1287.8</ele>
        <time>2021-05-08T10:36:37Z</time>
      </trkpt>
      <trkpt lat="45.04238" lon="5.49739">
        <ele>1290.1</ele>
        <time>2021-05-08T10:36:50Z</time>
      </trkpt>
      <trkpt lat="45.04221" lon="5.49725">
        <ele>1288</ele>
        <time>2021-05-08T10:37:03Z</time>
      </trkpt>
      <trkpt lat="45.04204" lon="5.49715">
        <ele>1293.5</ele>
        <time>2021-05-08T10:37:17Z</time>
      </trkpt>
      <trkpt lat="45.04187" lon="5.49705">
        <ele>1298</ele>
        <time>2021-05-08T10:37:31Z</time>
      </trkpt>
      <trkpt lat="45.0417" lon="5.49695">
        <ele>1302.1</ele>
        <time>2021-05-08T10:37:46Z</time>
      </trkpt>
      <trkpt lat="45.04153" lon="5.4969">
        <ele>1307.3</ele>
        <time>2021-05-08T10:38:00Z</time>
      </trkpt>
      <trkpt lat="45.04134" lon="5.49687">
        <ele>1314.4</ele>
        <time>2021-05-08T10:38:14Z</time>
      </trkpt>
      <trkpt lat="45.04115" lon="5.49684">
        <ele>1318.3</ele>
        <time>2021-05-08T10:38:29Z</time>
      </trkpt>
      <trkpt lat="45.04098" lon="5.49676">
        <ele>1322.1</ele>
        <time>2021-05-08T10:38:44Z</time>
      </trkpt>
      <trkpt lat="45.04079" lon="5.49671">
        <ele>1324.4</ele>
        <time>2021-05-08T10:38:58Z</time>
      </trkpt>
      <trkpt lat="45.04062" lon="5.49661">
        <ele>1319</ele>
        <time>2021-05-08T10:39:09Z</time>
      </trkpt>
      <trkpt lat="45.04044" lon="5.4966">
        <ele>1327</ele>
        <time>2021-05-08T10:40:57Z</time>
      </trkpt>
      <trkpt lat="45.04027" lon="5.49649">
        <ele>1336.6</ele>
        <time>2021-05-08T10:41:13Z</time>
      </trkpt>
      <trkpt lat="45.0401" lon="5.49641">
        <ele>1336.1</ele>
        <time>2021-05-08T10:41:25Z</time>
      </trkpt>
      <trkpt lat="45.03991" lon="5.49632">
        <ele>1331</ele>
        <time>2021-05-08T10:41:36Z</time>
      </trkpt>
      <trkpt lat="45.03973" lon="5.49625">
        <ele>1327</ele>
        <time>2021-05-08T10:41:47Z</time>
      </trkpt>
      <trkpt lat="45.03955" lon="5.49617">
        <ele>1324.8</ele>
        <time>2021-05-08T10:42:00Z</time>
      </trkpt>
      <trkpt lat="45.03937" lon="5.49606">
        <ele>1323</ele>
        <time>2021-05-08T10:42:13Z</time>
      </trkpt>
      <trkpt lat="45.0392" lon="5.49596">
        <ele>1323.1</ele>
        <time>2021-05-08T10:42:26Z</time>
      </trkpt>
      <trkpt lat="45.03903" lon="5.49583">
        <ele>1336.2</ele>
        <time>2021-05-08T10:42:45Z</time>
      </trkpt>
      <trkpt lat="45.03887" lon="5.49572">
        <ele>1343.1</ele>
        <time>2021-05-08T10:43:01Z</time>
      </trkpt>
      <trkpt lat="45.0387" lon="5.49561">
        <ele>1349.3</ele>
        <time>2021-05-08T10:43:17Z</time>
      </trkpt>
      <trkpt lat="45.03853" lon="5.4955">
        <ele>1352.5</ele>
        <time>2021-05-08T10:43:31Z</time>
      </trkpt>
      <trkpt lat="45.03836" lon="5.49538">
        <ele>1355.7</ele>
        <time>2021-05-08T10:43:45Z</time>
      </trkpt>
      <trkpt lat="45.03825" lon="5.49515">
        <ele>1360.2</ele>
        <time>2021-05-08T10:44:01Z</time>
      </trkpt>
      <trkpt lat="45.0382" lon="5.4949">
        <ele>1363.6</ele>
        <time>2021-05-08T10:44:16Z</time>
      </trkpt>
      <trkpt lat="45.03815" lon="5.49464">
        <ele>1366.5</ele>
        <time>2021-05-08T10:44:31Z</time>
      </trkpt>
      <trkpt lat="45.038" lon="5.49448">
        <ele>1371.2</ele>
        <time>2021-05-08T10:45:41Z</time>
      </trkpt>
      <trkpt lat="45.03782" lon="5.4945">
        <ele>1375.6</ele>
        <time>2021-05-08T10:45:54Z</time>
      </trkpt>
      <trkpt lat="45.03763" lon="5.49453">
        <ele>1373.5</ele>
        <time>2021-05-08T10:46:05Z</time>
      </trkpt>
      <trkpt lat="45.03745" lon="5.49448">
        <ele>1374.5</ele>
        <time>2021-05-08T10:46:19Z</time>
      </trkpt>
      <trkpt lat="45.0373" lon="5.49434">
        <ele>1375.7</ele>
        <time>2021-05-08T10:46:31Z</time>
      </trkpt>
      <trkpt lat="45.03714" lon="5.4942">
        <ele>1377.3</ele>
        <time>2021-05-08T10:46:45Z</time>
      </trkpt>
      <trkpt lat="45.03697" lon="5.49411">
        <ele>1379.6</ele>
        <time>2021-05-08T10:46:59Z</time>
      </trkpt>
      <trkpt lat="45.0368" lon="5.49401">
        <ele>1381.1</ele>
        <time>2021-05-08T10:47:11Z</time>
      </trkpt>
      <trkpt lat="45.03668" lon="5.49381">
        <ele>1385.2</ele>
        <time>2021-05-08T10:47:24Z</time>
      </trkpt>
      <trkpt lat="45.03669" lon="5.49353">
        <ele>1385.7</ele>
        <time>2021-05-08T10:47:37Z</time>
      </trkpt>
      <trkpt lat="45.03681" lon="5.49333">
        <ele>1384.7</ele>
        <time>2021-05-08T10:47:51Z</time>
      </trkpt>
      <trkpt lat="45.037" lon="5.49326">
        <ele>1387</ele>
        <time>2021-05-08T10:48:05Z</time>
      </trkpt>
      <trkpt lat="45.03718" lon="5.49324">
        <ele>1392.1</ele>
        <time>2021-05-08T10:48:20Z</time>
      </trkpt>
      <trkpt lat="45.03735" lon="5.49314">
        <ele>1394.8</ele>
        <time>2021-05-08T10:48:35Z</time>
      </trkpt>
      <trkpt lat="45.03753" lon="5.49308">
        <ele>1396.3</ele>
        <time>2021-05-08T10:48:49Z</time>
      </trkpt>
      <trkpt lat="45.03764" lon="5.49288">
        <ele>1399</ele>
        <time>2021-05-08T10:49:26Z</time>
      </trkpt>
      <trkpt lat="45.0378" lon="5.49273">
        <ele>1399.4</ele>
        <time>2021-05-08T10:49:39Z</time>
      </trkpt>
      <trkpt lat="45.03791" lon="5.49254">
        <ele>1400.1</ele>
        <time>2021-05-08T10:49:51Z</time>
      </trkpt>
      <trkpt lat="45.03804" lon="5.49233">
        <ele>1402.7</ele>
        <time>2021-05-08T10:50:03Z</time>
      </trkpt>
      <trkpt lat="45.03813" lon="5.4921">
        <ele>1405.8</ele>
        <time>2021-05-08T10:50:16Z</time>
      </trkpt>
      <trkpt lat="45.03819" lon="5.49185">
        <ele>1406.3</ele>
        <time>2021-05-08T10:50:28Z</time>
      </trkpt>
      <trkpt lat="45.03814" lon="5.49158">
        <ele>1407.4</ele>
        <time>2021-05-08T10:50:35Z</time>
      </trkpt>
      <trkpt lat="45.03809" lon="5.49133">
        <ele>1405.3</ele>
        <time>2021-05-08T10:50:40Z</time>
      </trkpt>
      <trkpt lat="45.03802" lon="5.49109">
        <ele>1411.4</ele>
        <time>2021-05-08T10:50:49Z</time>
      </trkpt>
      <trkpt lat="45.03786" lon="5.49097">
        <ele>1412.1</ele>
        <time>2021-05-08T10:50:59Z</time>
      </trkpt>
      <trkpt lat="45.03769" lon="5.49084">
        <ele>1411.4</ele>
        <time>2021-05-08T10:51:10Z</time>
      </trkpt>
      <trkpt lat="45.03753" lon="5.49068">
        <ele>1414.8</ele>
        <time>2021-05-08T10:51:23Z</time>
      </trkpt>
      <trkpt lat="45.03739" lon="5.49049">
        <ele>1414.2</ele>
        <time>2021-05-08T10:51:33Z</time>
      </trkpt>
      <trkpt lat="45.03722" lon="5.49038">
        <ele>1414.5</ele>
        <time>2021-05-08T10:51:43Z</time>
      </trkpt>
      <trkpt lat="45.03704" lon="5.49033">
        <ele>1415.3</ele>
        <time>2021-05-08T10:51:52Z</time>
      </trkpt>
      <trkpt lat="45.03686" lon="5.49028">
        <ele>1420.9</ele>
        <time>2021-05-08T10:52:04Z</time>
      </trkpt>
      <trkpt lat="45.03669" lon="5.49018">
        <ele>1425.3</ele>
        <time>2021-05-08T10:52:17Z</time>
      </trkpt>
      <trkpt lat="45.0365" lon="5.4901">
        <ele>1425.8</ele>
        <time>2021-05-08T10:52:29Z</time>
      </trkpt>
      <trkpt lat="45.03633" lon="5.48998">
        <ele>1428.6</ele>
        <time>2021-05-08T10:52:41Z</time>
      </trkpt>
      <trkpt lat="45.03615" lon="5.48989">
        <ele>1426.6</ele>
        <time>2021-05-08T10:52:50Z</time>
      </trkpt>
      <trkpt lat="45.03597" lon="5.48978">
        <ele>1424.7</ele>
        <time>2021-05-08T10:53:01Z</time>
      </trkpt>
      <trkpt lat="45.03582" lon="5.48963">
        <ele>1429.3</ele>
        <time>2021-05-08T10:53:14Z</time>
      </trkpt>
      <trkpt lat="45.03563" lon="5.48971">
        <ele>1434.3</ele>
        <time>2021-05-08T10:53:24Z</time>
      </trkpt>
      <trkpt lat="45.03546" lon="5.48986">
        <ele>1436.2</ele>
        <time>2021-05-08T10:53:33Z</time>
      </trkpt>
      <trkpt lat="45.03528" lon="5.48991">
        <ele>1436.2</ele>
        <time>2021-05-08T10:53:42Z</time>
      </trkpt>
      <trkpt lat="45.03509" lon="5.48996">
        <ele>1431.9</ele>
        <time>2021-05-08T10:53:51Z</time>
      </trkpt>
      <trkpt lat="45.03491" lon="5.49004">
        <ele>1434.5</ele>
        <time>2021-05-08T10:55:19Z</time>
      </trkpt>
      <trkpt lat="45.03472" lon="5.49005">
        <ele>1436.3</ele>
        <time>2021-05-08T10:55:28Z</time>
      </trkpt>
      <trkpt lat="45.03453" lon="5.49007">
        <ele>1435.6</ele>
        <time>2021-05-08T10:55:39Z</time>
      </trkpt>
      <trkpt lat="45.03435" lon="5.49011">
        <ele>1436.3</ele>
        <time>2021-05-08T10:55:50Z</time>
      </trkpt>
      <trkpt lat="45.03417" lon="5.49016">
        <ele>1434.6</ele>
        <time>2021-05-08T10:56:03Z</time>
      </trkpt>
      <trkpt lat="45.03398" lon="5.49023">
        <ele>1436.7</ele>
        <time>2021-05-08T10:56:14Z</time>
      </trkpt>
      <trkpt lat="45.0338" lon="5.4903">
        <ele>1436.4</ele>
        <time>2021-05-08T10:56:23Z</time>
      </trkpt>
      <trkpt lat="45.03358" lon="5.49029">
        <ele>1435.2</ele>
        <time>2021-05-08T10:56:32Z</time>
      </trkpt>
      <trkpt lat="45.03337" lon="5.49026">
        <ele>1435.6</ele>
        <time>2021-05-08T10:56:38Z</time>
      </trkpt>
      <trkpt lat="45.03318" lon="5.49024">
        <ele>1437.5</ele>
        <time>2021-05-08T10:56:48Z</time>
      </trkpt>
      <trkpt lat="45.03298" lon="5.49023">
        <ele>1439.3</ele>
        <time>2021-05-08T10:56:58Z</time>
      </trkpt>
      <trkpt lat="45.0328" lon="5.49016">
        <ele>1437.2</ele>
        <time>2021-05-08T10:57:04Z</time>
      </trkpt>
      <trkpt lat="45.0326" lon="5.49011">
        <ele>1437.7</ele>
        <time>2021-05-08T10:57:11Z</time>
      </trkpt>
      <trkpt lat="45.0324" lon="5.49022">
        <ele>1431.2</ele>
        <time>2021-05-08T10:57:16Z</time>
      </trkpt>
      <trkpt lat="45.0322" lon="5.49034">
        <ele>1431.3</ele>
        <time>2021-05-08T10:57:21Z</time>
      </trkpt>
      <trkpt lat="45.03201" lon="5.4904">
        <ele>1433.2</ele>
        <time>2021-05-08T10:57:27Z</time>
      </trkpt>
      <trkpt lat="45.03183" lon="5.49049">
        <ele>1432.2</ele>
        <time>2021-05-08T10:57:34Z</time>
      </trkpt>
      <trkpt lat="45.03164" lon="5.49048">
        <ele>1429.3</ele>
        <time>2021-05-08T10:57:40Z</time>
      </trkpt>
      <trkpt lat="45.03145" lon="5.49048">
        <ele>1433.3</ele>
        <time>2021-05-08T10:57:49Z</time>
      </trkpt>
      <trkpt lat="45.03125" lon="5.4905">
        <ele>1429.3</ele>
        <time>2021-05-08T10:57:56Z</time>
      </trkpt>
      <trkpt lat="45.03072" lon="5.49072">
        <ele>1428</ele>
        <time>2021-05-08T10:57:59Z</time>
      </trkpt>
      <trkpt lat="45.03053" lon="5.49072">
        <ele>1426.2</ele>
        <time>2021-05-08T10:58:02Z</time>
      </trkpt>
      <trkpt lat="45.03033" lon="5.49061">
        <ele>1426.6</ele>
        <time>2021-05-08T10:58:05Z</time>
      </trkpt>
      <trkpt lat="45.03014" lon="5.49053">
        <ele>1432.1</ele>
        <time>2021-05-08T10:58:10Z</time>
      </trkpt>
      <trkpt lat="45.02996" lon="5.49048">
        <ele>1432.2</ele>
        <time>2021-05-08T10:58:17Z</time>
      </trkpt>
      <trkpt lat="45.02977" lon="5.49055">
        <ele>1430.8</ele>
        <time>2021-05-08T10:58:24Z</time>
      </trkpt>
      <trkpt lat="45.02957" lon="5.49064">
        <ele>1431.1</ele>
        <time>2021-05-08T10:58:31Z</time>
      </trkpt>
      <trkpt lat="45.02937" lon="5.49074">
        <ele>1432.5</ele>
        <time>2021-05-08T10:58:36Z</time>
      </trkpt>
      <trkpt lat="45.02914" lon="5.4908">
        <ele>1427</ele>
        <time>2021-05-08T10:58:39Z</time>
      </trkpt>
      <trkpt lat="45.0289" lon="5.49083">
        <ele>1423.5</ele>
        <time>2021-05-08T10:58:42Z</time>
      </trkpt>
      <trkpt lat="45.02866" lon="5.49086">
        <ele>1421.4</ele>
        <time>2021-05-08T10:58:45Z</time>
      </trkpt>
      <trkpt lat="45.02844" lon="5.49083">
        <ele>1418.8</ele>
        <time>2021-05-08T10:58:48Z</time>
      </trkpt>
      <trkpt lat="45.02825" lon="5.49076">
        <ele>1418.6</ele>
        <time>2021-05-08T10:58:51Z</time>
      </trkpt>
      <trkpt lat="45.02807" lon="5.49072">
        <ele>1424.4</ele>
        <time>2021-05-08T10:59:04Z</time>
      </trkpt>
      <trkpt lat="45.02793" lon="5.49056">
        <ele>1424.3</ele>
        <time>2021-05-08T10:59:17Z</time>
      </trkpt>
      <trkpt lat="45.02777" lon="5.49042">
        <ele>1424.5</ele>
        <time>2021-05-08T10:59:26Z</time>
      </trkpt>
      <trkpt lat="45.02761" lon="5.49031">
        <ele>1424.9</ele>
        <time>2021-05-08T10:59:34Z</time>
      </trkpt>
      <trkpt lat="45.02741" lon="5.49036">
        <ele>1417.2</ele>
        <time>2021-05-08T10:59:39Z</time>
      </trkpt>
      <trkpt lat="45.027" lon="5.49053">
        <ele>1415.8</ele>
        <time>2021-05-08T10:59:43Z</time>
      </trkpt>
      <trkpt lat="45.02681" lon="5.49062">
        <ele>1417</ele>
        <time>2021-05-08T10:59:47Z</time>
      </trkpt>
      <trkpt lat="45.02662" lon="5.49064">
        <ele>1418.1</ele>
        <time>2021-05-08T10:59:55Z</time>
      </trkpt>
      <trkpt lat="45.0264" lon="5.49067">
        <ele>1415</ele>
        <time>2021-05-08T11:00:00Z</time>
      </trkpt>
      <trkpt lat="45.02621" lon="5.49061">
        <ele>1413.3</ele>
        <time>2021-05-08T11:00:03Z</time>
      </trkpt>
      <trkpt lat="45.02609" lon="5.49039">
        <ele>1413.3</ele>
        <time>2021-05-08T11:00:07Z</time>
      </trkpt>
      <trkpt lat="45.02601" lon="5.49016">
        <ele>1412.8</ele>
        <time>2021-05-08T11:00:20Z</time>
      </trkpt>
      <trkpt lat="45.02599" lon="5.48986">
        <ele>1412.3</ele>
        <time>2021-05-08T11:06:43Z</time>
      </trkpt>
      <trkpt lat="45.02594" lon="5.4896">
        <ele>1414</ele>
        <time>2021-05-08T11:06:47Z</time>
      </trkpt>
      <trkpt lat="45.0258" lon="5.48943">
        <ele>1426.9</ele>
        <time>2021-05-08T11:07:01Z</time>
      </trkpt>
      <trkpt lat="45.02579" lon="5.48917">
        <ele>1428.5</ele>
        <time>2021-05-08T11:07:12Z</time>
      </trkpt>
      <trkpt lat="45.02577" lon="5.48891">
        <ele>1431.9</ele>
        <time>2021-05-08T11:07:29Z</time>
      </trkpt>
      <trkpt lat="45.02572" lon="5.48866">
        <ele>1440.7</ele>
        <time>2021-05-08T11:08:09Z</time>
      </trkpt>
      <trkpt lat="45.02569" lon="5.4884">
        <ele>1442.2</ele>
        <time>2021-05-08T11:08:34Z</time>
      </trkpt>
      <trkpt lat="45.02577" lon="5.48817">
        <ele>1448.5</ele>
        <time>2021-05-08T11:09:15Z</time>
      </trkpt>
      <trkpt lat="45.02577" lon="5.48791">
        <ele>1444.3</ele>
        <time>2021-05-08T11:09:27Z</time>
      </trkpt>
      <trkpt lat="45.02571" lon="5.48766">
        <ele>1448.6</ele>
        <time>2021-05-08T11:09:39Z</time>
      </trkpt>
      <trkpt lat="45.02569" lon="5.4874">
        <ele>1456.3</ele>
        <time>2021-05-08T11:09:54Z</time>
      </trkpt>
      <trkpt lat="45.02567" lon="5.48713">
        <ele>1459.7</ele>
        <time>2021-05-08T11:10:09Z</time>
      </trkpt>
      <trkpt lat="45.02568" lon="5.48685">
        <ele>1458.6</ele>
        <time>2021-05-08T11:10:23Z</time>
      </trkpt>
      <trkpt lat="45.02568" lon="5.4866">
        <ele>1456.9</ele>
        <time>2021-05-08T11:10:35Z</time>
      </trkpt>
      <trkpt lat="45.02569" lon="5.48632">
        <ele>1452.5</ele>
        <time>2021-05-08T11:10:46Z</time>
      </trkpt>
      <trkpt lat="45.02571" lon="5.48605">
        <ele>1455</ele>
        <time>2021-05-08T11:10:56Z</time>
      </trkpt>
      <trkpt lat="45.02577" lon="5.48579">
        <ele>1451.1</ele>
        <time>2021-05-08T11:11:10Z</time>
      </trkpt>
      <trkpt lat="45.02576" lon="5.48551">
        <ele>1446.2</ele>
        <time>2021-05-08T11:11:17Z</time>
      </trkpt>
      <trkpt lat="45.02577" lon="5.48526">
        <ele>1442.9</ele>
        <time>2021-05-08T11:11:22Z</time>
      </trkpt>
      <trkpt lat="45.02583" lon="5.48491">
        <ele>1440.4</ele>
        <time>2021-05-08T11:11:27Z</time>
      </trkpt>
      <trkpt lat="45.02587" lon="5.48462">
        <ele>1442.1</ele>
        <time>2021-05-08T11:11:30Z</time>
      </trkpt>
      <trkpt lat="45.02596" lon="5.48431">
        <ele>1440.3</ele>
        <time>2021-05-08T11:11:34Z</time>
      </trkpt>
      <trkpt lat="45.02607" lon="5.48409">
        <ele>1439.8</ele>
        <time>2021-05-08T11:11:37Z</time>
      </trkpt>
      <trkpt lat="45.02615" lon="5.48384">
        <ele>1438.9</ele>
        <time>2021-05-08T11:11:40Z</time>
      </trkpt>
      <trkpt lat="45.02609" lon="5.48353">
        <ele>1441.7</ele>
        <time>2021-05-08T11:11:45Z</time>
      </trkpt>
      <trkpt lat="45.02599" lon="5.48331">
        <ele>1443</ele>
        <time>2021-05-08T11:11:58Z</time>
      </trkpt>
      <trkpt lat="45.02586" lon="5.48313">
        <ele>1436.6</ele>
        <time>2021-05-08T11:12:25Z</time>
      </trkpt>
      <trkpt lat="45.02602" lon="5.48293">
        <ele>1433.5</ele>
        <time>2021-05-08T11:14:00Z</time>
      </trkpt>
      <trkpt lat="45.0262" lon="5.48282">
        <ele>1429.9</ele>
        <time>2021-05-08T11:14:04Z</time>
      </trkpt>
      <trkpt lat="45.02609" lon="5.4826">
        <ele>1427</ele>
        <time>2021-05-08T11:14:17Z</time>
      </trkpt>
      <trkpt lat="45.02593" lon="5.48249">
        <ele>1426</ele>
        <time>2021-05-08T11:14:25Z</time>
      </trkpt>
      <trkpt lat="45.0258" lon="5.48229">
        <ele>1422.8</ele>
        <time>2021-05-08T11:14:31Z</time>
      </trkpt>
      <trkpt lat="45.0257" lon="5.48206">
        <ele>1420.5</ele>
        <time>2021-05-08T11:14:37Z</time>
      </trkpt>
      <trkpt lat="45.02561" lon="5.48181">
        <ele>1414.2</ele>
        <time>2021-05-08T11:14:45Z</time>
      </trkpt>
      <trkpt lat="45.02545" lon="5.48164">
        <ele>1411.2</ele>
        <time>2021-05-08T11:14:52Z</time>
      </trkpt>
      <trkpt lat="45.02529" lon="5.48145">
        <ele>1408.2</ele>
        <time>2021-05-08T11:14:59Z</time>
      </trkpt>
      <trkpt lat="45.02515" lon="5.48121">
        <ele>1398.5</ele>
        <time>2021-05-08T11:15:06Z</time>
      </trkpt>
      <trkpt lat="45.02497" lon="5.48111">
        <ele>1397.3</ele>
        <time>2021-05-08T11:15:10Z</time>
      </trkpt>
      <trkpt lat="45.02482" lon="5.48094">
        <ele>1393.5</ele>
        <time>2021-05-08T11:15:15Z</time>
      </trkpt>
      <trkpt lat="45.02467" lon="5.4808">
        <ele>1389.8</ele>
        <time>2021-05-08T11:15:19Z</time>
      </trkpt>
      <trkpt lat="45.02453" lon="5.48062">
        <ele>1388.9</ele>
        <time>2021-05-08T11:15:23Z</time>
      </trkpt>
      <trkpt lat="45.02435" lon="5.48047">
        <ele>1386.2</ele>
        <time>2021-05-08T11:15:28Z</time>
      </trkpt>
      <trkpt lat="45.02418" lon="5.48033">
        <ele>1383.8</ele>
        <time>2021-05-08T11:15:35Z</time>
      </trkpt>
      <trkpt lat="45.024" lon="5.48022">
        <ele>1376.9</ele>
        <time>2021-05-08T11:15:53Z</time>
      </trkpt>
      <trkpt lat="45.02382" lon="5.48016">
        <ele>1375.2</ele>
        <time>2021-05-08T11:15:59Z</time>
      </trkpt>
      <trkpt lat="45.02365" lon="5.48006">
        <ele>1369.5</ele>
        <time>2021-05-08T11:16:06Z</time>
      </trkpt>
      <trkpt lat="45.02348" lon="5.47997">
        <ele>1371.7</ele>
        <time>2021-05-08T11:16:13Z</time>
      </trkpt>
      <trkpt lat="45.02332" lon="5.47983">
        <ele>1375.5</ele>
        <time>2021-05-08T11:16:21Z</time>
      </trkpt>
      <trkpt lat="45.02314" lon="5.47971">
        <ele>1379.2</ele>
        <time>2021-05-08T11:16:27Z</time>
      </trkpt>
      <trkpt lat="45.0229" lon="5.47957">
        <ele>1376.4</ele>
        <time>2021-05-08T11:16:32Z</time>
      </trkpt>
      <trkpt lat="45.0227" lon="5.47944">
        <ele>1374.3</ele>
        <time>2021-05-08T11:16:36Z</time>
      </trkpt>
      <trkpt lat="45.02253" lon="5.47928">
        <ele>1372.9</ele>
        <time>2021-05-08T11:16:41Z</time>
      </trkpt>
      <trkpt lat="45.02236" lon="5.47916">
        <ele>1371.3</ele>
        <time>2021-05-08T11:16:48Z</time>
      </trkpt>
      <trkpt lat="45.02217" lon="5.47902">
        <ele>1367.1</ele>
        <time>2021-05-08T11:16:53Z</time>
      </trkpt>
      <trkpt lat="45.02198" lon="5.47888">
        <ele>1360.5</ele>
        <time>2021-05-08T11:16:58Z</time>
      </trkpt>
      <trkpt lat="45.02183" lon="5.4787">
        <ele>1356.6</ele>
        <time>2021-05-08T11:17:03Z</time>
      </trkpt>
      <trkpt lat="45.0217" lon="5.47848">
        <ele>1358.6</ele>
        <time>2021-05-08T11:17:09Z</time>
      </trkpt>
      <trkpt lat="45.02159" lon="5.47826">
        <ele>1346.1</ele>
        <time>2021-05-08T11:17:20Z</time>
      </trkpt>
      <trkpt lat="45.02147" lon="5.47806">
        <ele>1343</ele>
        <time>2021-05-08T11:17:41Z</time>
      </trkpt>
      <trkpt lat="45.02132" lon="5.47789">
        <ele>1344.7</ele>
        <time>2021-05-08T11:17:48Z</time>
      </trkpt>
      <trkpt lat="45.02111" lon="5.47776">
        <ele>1343.3</ele>
        <time>2021-05-08T11:17:53Z</time>
      </trkpt>
      <trkpt lat="45.02096" lon="5.4776">
        <ele>1340.4</ele>
        <time>2021-05-08T11:17:58Z</time>
      </trkpt>
      <trkpt lat="45.02116" lon="5.47746">
        <ele>1331.7</ele>
        <time>2021-05-08T11:18:22Z</time>
      </trkpt>
      <trkpt lat="45.02136" lon="5.47746">
        <ele>1330.7</ele>
        <time>2021-05-08T11:18:25Z</time>
      </trkpt>
      <trkpt lat="45.02153" lon="5.4774">
        <ele>1325.3</ele>
        <time>2021-05-08T11:18:29Z</time>
      </trkpt>
      <trkpt lat="45.02172" lon="5.47733">
        <ele>1319.7</ele>
        <time>2021-05-08T11:18:38Z</time>
      </trkpt>
      <trkpt lat="45.02188" lon="5.4772">
        <ele>1314.2</ele>
        <time>2021-05-08T11:18:45Z</time>
      </trkpt>
      <trkpt lat="45.02202" lon="5.47704">
        <ele>1309.9</ele>
        <time>2021-05-08T11:18:51Z</time>
      </trkpt>
      <trkpt lat="45.02214" lon="5.47682">
        <ele>1303.8</ele>
        <time>2021-05-08T11:18:59Z</time>
      </trkpt>
      <trkpt lat="45.02214" lon="5.47656">
        <ele>1299.3</ele>
        <time>2021-05-08T11:19:07Z</time>
      </trkpt>
      <trkpt lat="45.02214" lon="5.47631">
        <ele>1304.4</ele>
        <time>2021-05-08T11:19:41Z</time>
      </trkpt>
      <trkpt lat="45.02197" lon="5.47614">
        <ele>1306.9</ele>
        <time>2021-05-08T11:19:46Z</time>
      </trkpt>
      <trkpt lat="45.0218" lon="5.476">
        <ele>1308.2</ele>
        <time>2021-05-08T11:19:52Z</time>
      </trkpt>
      <trkpt lat="45.02163" lon="5.47591">
        <ele>1303.1</ele>
        <time>2021-05-08T11:19:58Z</time>
      </trkpt>
      <trkpt lat="45.02144" lon="5.47591">
        <ele>1300.3</ele>
        <time>2021-05-08T11:20:04Z</time>
      </trkpt>
      <trkpt lat="45.02127" lon="5.4758">
        <ele>1297.8</ele>
        <time>2021-05-08T11:20:11Z</time>
      </trkpt>
      <trkpt lat="45.02108" lon="5.47572">
        <ele>1298.1</ele>
        <time>2021-05-08T11:20:18Z</time>
      </trkpt>
      <trkpt lat="45.0209" lon="5.47567">
        <ele>1304.7</ele>
        <time>2021-05-08T11:20:25Z</time>
      </trkpt>
      <trkpt lat="45.02068" lon="5.47564">
        <ele>1310.9</ele>
        <time>2021-05-08T11:20:33Z</time>
      </trkpt>
      <trkpt lat="45.02052" lon="5.47547">
        <ele>1309.7</ele>
        <time>2021-05-08T11:20:43Z</time>
      </trkpt>
      <trkpt lat="45.02042" lon="5.47525">
        <ele>1297</ele>
        <time>2021-05-08T11:21:51Z</time>
      </trkpt>
      <trkpt lat="45.02038" lon="5.47498">
        <ele>1296.3</ele>
        <time>2021-05-08T11:22:00Z</time>
      </trkpt>
      <trkpt lat="45.02038" lon="5.47471">
        <ele>1296.4</ele>
        <time>2021-05-08T11:22:09Z</time>
      </trkpt>
      <trkpt lat="45.02028" lon="5.47446">
        <ele>1295.5</ele>
        <time>2021-05-08T11:22:18Z</time>
      </trkpt>
      <trkpt lat="45.02018" lon="5.47424">
        <ele>1298.3</ele>
        <time>2021-05-08T11:22:26Z</time>
      </trkpt>
      <trkpt lat="45.02008" lon="5.474">
        <ele>1296.4</ele>
        <time>2021-05-08T11:22:35Z</time>
      </trkpt>
      <trkpt lat="45.01998" lon="5.47377">
        <ele>1296.1</ele>
        <time>2021-05-08T11:22:43Z</time>
      </trkpt>
      <trkpt lat="45.01986" lon="5.47357">
        <ele>1299.9</ele>
        <time>2021-05-08T11:22:49Z</time>
      </trkpt>
      <trkpt lat="45.0197" lon="5.47346">
        <ele>1301.1</ele>
        <time>2021-05-08T11:22:58Z</time>
      </trkpt>
      <trkpt lat="45.01952" lon="5.47336">
        <ele>1302.5</ele>
        <time>2021-05-08T11:24:59Z</time>
      </trkpt>
      <trkpt lat="45.01937" lon="5.4732">
        <ele>1304.8</ele>
        <time>2021-05-08T11:25:07Z</time>
      </trkpt>
      <trkpt lat="45.01918" lon="5.47313">
        <ele>1304.1</ele>
        <time>2021-05-08T11:25:15Z</time>
      </trkpt>
      <trkpt lat="45.01901" lon="5.47302">
        <ele>1298.2</ele>
        <time>2021-05-08T11:25:23Z</time>
      </trkpt>
      <trkpt lat="45.01883" lon="5.47291">
        <ele>1300</ele>
        <time>2021-05-08T11:25:30Z</time>
      </trkpt>
      <trkpt lat="45.01867" lon="5.47279">
        <ele>1301.2</ele>
        <time>2021-05-08T11:25:36Z</time>
      </trkpt>
      <trkpt lat="45.0185" lon="5.47268">
        <ele>1302.3</ele>
        <time>2021-05-08T11:25:44Z</time>
      </trkpt>
      <trkpt lat="45.0183" lon="5.47255">
        <ele>1303.4</ele>
        <time>2021-05-08T11:25:52Z</time>
      </trkpt>
      <trkpt lat="45.0181" lon="5.47249">
        <ele>1303.8</ele>
        <time>2021-05-08T11:25:58Z</time>
      </trkpt>
      <trkpt lat="45.0179" lon="5.47242">
        <ele>1299.5</ele>
        <time>2021-05-08T11:26:05Z</time>
      </trkpt>
      <trkpt lat="45.01772" lon="5.47239">
        <ele>1299.3</ele>
        <time>2021-05-08T11:26:11Z</time>
      </trkpt>
      <trkpt lat="45.01751" lon="5.47233">
        <ele>1300.4</ele>
        <time>2021-05-08T11:26:17Z</time>
      </trkpt>
      <trkpt lat="45.0173" lon="5.47228">
        <ele>1303.1</ele>
        <time>2021-05-08T11:26:23Z</time>
      </trkpt>
      <trkpt lat="45.01712" lon="5.47225">
        <ele>1305.7</ele>
        <time>2021-05-08T11:26:28Z</time>
      </trkpt>
      <trkpt lat="45.01692" lon="5.47227">
        <ele>1302.2</ele>
        <time>2021-05-08T11:26:33Z</time>
      </trkpt>
      <trkpt lat="45.01674" lon="5.47238">
        <ele>1295.8</ele>
        <time>2021-05-08T11:26:39Z</time>
      </trkpt>
      <trkpt lat="45.01655" lon="5.47246">
        <ele>1284.4</ele>
        <time>2021-05-08T11:26:45Z</time>
      </trkpt>
      <trkpt lat="45.01636" lon="5.47245">
        <ele>1287</ele>
        <time>2021-05-08T11:26:51Z</time>
      </trkpt>
      <trkpt lat="45.0162" lon="5.47231">
        <ele>1292.3</ele>
        <time>2021-05-08T11:27:04Z</time>
      </trkpt>
      <trkpt lat="45.01602" lon="5.47234">
        <ele>1298.8</ele>
        <time>2021-05-08T11:27:18Z</time>
      </trkpt>
      <trkpt lat="45.01588" lon="5.47251">
        <ele>1314.4</ele>
        <time>2021-05-08T11:27:30Z</time>
      </trkpt>
      <trkpt lat="45.01571" lon="5.47262">
        <ele>1315.5</ele>
        <time>2021-05-08T11:27:39Z</time>
      </trkpt>
      <trkpt lat="45.01551" lon="5.47263">
        <ele>1310.7</ele>
        <time>2021-05-08T11:27:48Z</time>
      </trkpt>
      <trkpt lat="45.01538" lon="5.47238">
        <ele>1309.1</ele>
        <time>2021-05-08T11:27:53Z</time>
      </trkpt>
      <trkpt lat="45.01529" lon="5.47215">
        <ele>1309.1</ele>
        <time>2021-05-08T11:27:59Z</time>
      </trkpt>
      <trkpt lat="45.0152" lon="5.47191">
        <ele>1306.8</ele>
        <time>2021-05-08T11:28:06Z</time>
      </trkpt>
      <trkpt lat="45.01505" lon="5.47177">
        <ele>1310.3</ele>
        <time>2021-05-08T11:28:15Z</time>
      </trkpt>
      <trkpt lat="45.01486" lon="5.47179">
        <ele>1316.8</ele>
        <time>2021-05-08T11:28:26Z</time>
      </trkpt>
      <trkpt lat="45.01468" lon="5.47171">
        <ele>1315</ele>
        <time>2021-05-08T11:28:33Z</time>
      </trkpt>
      <trkpt lat="45.01451" lon="5.47158">
        <ele>1316.3</ele>
        <time>2021-05-08T11:28:39Z</time>
      </trkpt>
      <trkpt lat="45.01439" lon="5.47139">
        <ele>1315.8</ele>
        <time>2021-05-08T11:28:46Z</time>
      </trkpt>
      <trkpt lat="45.01434" lon="5.4711">
        <ele>1315.6</ele>
        <time>2021-05-08T11:28:53Z</time>
      </trkpt>
      <trkpt lat="45.01437" lon="5.47077">
        <ele>1306.7</ele>
        <time>2021-05-08T11:28:55Z</time>
      </trkpt>
      <trkpt lat="45.01441" lon="5.47051">
        <ele>1300.5</ele>
        <time>2021-05-08T11:29:01Z</time>
      </trkpt>
      <trkpt lat="45.01441" lon="5.47024">
        <ele>1299.4</ele>
        <time>2021-05-08T11:29:06Z</time>
      </trkpt>
      <trkpt lat="45.01421" lon="5.47018">
        <ele>1297.1</ele>
        <time>2021-05-08T11:29:14Z</time>
      </trkpt>
      <trkpt lat="45.014" lon="5.47025">
        <ele>1296.6</ele>
        <time>2021-05-08T11:29:18Z</time>
      </trkpt>
      <trkpt lat="45.01388" lon="5.47048">
        <ele>1297</ele>
        <time>2021-05-08T11:29:22Z</time>
      </trkpt>
      <trkpt lat="45.0137" lon="5.47075">
        <ele>1293.2</ele>
        <time>2021-05-08T11:29:26Z</time>
      </trkpt>
      <trkpt lat="45.01356" lon="5.471">
        <ele>1289.2</ele>
        <time>2021-05-08T11:29:29Z</time>
      </trkpt>
      <trkpt lat="45.01345" lon="5.47121">
        <ele>1288.6</ele>
        <time>2021-05-08T11:29:33Z</time>
      </trkpt>
      <trkpt lat="45.01327" lon="5.47134">
        <ele>1288.2</ele>
        <time>2021-05-08T11:29:41Z</time>
      </trkpt>
      <trkpt lat="45.01314" lon="5.47152">
        <ele>1287.9</ele>
        <time>2021-05-08T11:29:51Z</time>
      </trkpt>
      <trkpt lat="45.01296" lon="5.47152">
        <ele>1288.8</ele>
        <time>2021-05-08T11:29:57Z</time>
      </trkpt>
      <trkpt lat="45.01281" lon="5.47169">
        <ele>1289.9</ele>
        <time>2021-05-08T11:30:05Z</time>
      </trkpt>
      <trkpt lat="45.01282" lon="5.47196">
        <ele>1290.8</ele>
        <time>2021-05-08T11:30:12Z</time>
      </trkpt>
      <trkpt lat="45.01289" lon="5.47224">
        <ele>1291.2</ele>
        <time>2021-05-08T11:30:19Z</time>
      </trkpt>
      <trkpt lat="45.01285" lon="5.47249">
        <ele>1291.8</ele>
        <time>2021-05-08T11:30:26Z</time>
      </trkpt>
      <trkpt lat="45.01268" lon="5.47266">
        <ele>1297.3</ele>
        <time>2021-05-08T11:30:33Z</time>
      </trkpt>
      <trkpt lat="45.01256" lon="5.47286">
        <ele>1299.6</ele>
        <time>2021-05-08T11:30:40Z</time>
      </trkpt>
      <trkpt lat="45.01245" lon="5.47311">
        <ele>1301.6</ele>
        <time>2021-05-08T11:30:47Z</time>
      </trkpt>
      <trkpt lat="45.0123" lon="5.47327">
        <ele>1304.6</ele>
        <time>2021-05-08T11:30:54Z</time>
      </trkpt>
      <trkpt lat="45.01213" lon="5.47335">
        <ele>1301.9</ele>
        <time>2021-05-08T11:31:02Z</time>
      </trkpt>
      <trkpt lat="45.01198" lon="5.47355">
        <ele>1303</ele>
        <time>2021-05-08T11:31:13Z</time>
      </trkpt>
      <trkpt lat="45.01186" lon="5.47377">
        <ele>1306.5</ele>
        <time>2021-05-08T11:31:22Z</time>
      </trkpt>
      <trkpt lat="45.01173" lon="5.47395">
        <ele>1309.9</ele>
        <time>2021-05-08T11:31:30Z</time>
      </trkpt>
      <trkpt lat="45.01159" lon="5.47415">
        <ele>1314.1</ele>
        <time>2021-05-08T11:31:39Z</time>
      </trkpt>
      <trkpt lat="45.01148" lon="5.47436">
        <ele>1313.4</ele>
        <time>2021-05-08T11:31:48Z</time>
      </trkpt>
      <trkpt lat="45.01133" lon="5.4745">
        <ele>1314.6</ele>
        <time>2021-05-08T11:31:55Z</time>
      </trkpt>
      <trkpt lat="45.01114" lon="5.47458">
        <ele>1313.2</ele>
        <time>2021-05-08T11:32:03Z</time>
      </trkpt>
      <trkpt lat="45.01096" lon="5.47465">
        <ele>1312.5</ele>
        <time>2021-05-08T11:32:11Z</time>
      </trkpt>
      <trkpt lat="45.01084" lon="5.47486">
        <ele>1312</ele>
        <time>2021-05-08T11:32:20Z</time>
      </trkpt>
      <trkpt lat="45.01077" lon="5.47513">
        <ele>1311.4</ele>
        <time>2021-05-08T11:32:29Z</time>
      </trkpt>
      <trkpt lat="45.01068" lon="5.47538">
        <ele>1311.3</ele>
        <time>2021-05-08T11:32:37Z</time>
      </trkpt>
      <trkpt lat="45.01064" lon="5.47563">
        <ele>1311.7</ele>
        <time>2021-05-08T11:32:45Z</time>
      </trkpt>
      <trkpt lat="45.0105" lon="5.47584">
        <ele>1309.4</ele>
        <time>2021-05-08T11:32:52Z</time>
      </trkpt>
      <trkpt lat="45.01034" lon="5.47597">
        <ele>1308.9</ele>
        <time>2021-05-08T11:32:58Z</time>
      </trkpt>
      <trkpt lat="45.01017" lon="5.47613">
        <ele>1309</ele>
        <time>2021-05-08T11:33:04Z</time>
      </trkpt>
      <trkpt lat="45.01004" lon="5.47633">
        <ele>1310.1</ele>
        <time>2021-05-08T11:33:10Z</time>
      </trkpt>
      <trkpt lat="45.0099" lon="5.47653">
        <ele>1310.5</ele>
        <time>2021-05-08T11:33:16Z</time>
      </trkpt>
      <trkpt lat="45.00976" lon="5.47672">
        <ele>1309.9</ele>
        <time>2021-05-08T11:33:22Z</time>
      </trkpt>
      <trkpt lat="45.00963" lon="5.47691">
        <ele>1311.3</ele>
        <time>2021-05-08T11:33:28Z</time>
      </trkpt>
      <trkpt lat="45.00948" lon="5.47709">
        <ele>1313.2</ele>
        <time>2021-05-08T11:33:34Z</time>
      </trkpt>
      <trkpt lat="45.00932" lon="5.47723">
        <ele>1316.4</ele>
        <time>2021-05-08T11:33:40Z</time>
      </trkpt>
      <trkpt lat="45.00913" lon="5.47732">
        <ele>1320</ele>
        <time>2021-05-08T11:33:46Z</time>
      </trkpt>
      <trkpt lat="45.00894" lon="5.47742">
        <ele>1314.4</ele>
        <time>2021-05-08T11:33:52Z</time>
      </trkpt>
      <trkpt lat="45.00876" lon="5.47748">
        <ele>1312.6</ele>
        <time>2021-05-08T11:33:57Z</time>
      </trkpt>
      <trkpt lat="45.00857" lon="5.47761">
        <ele>1310.4</ele>
        <time>2021-05-08T11:34:03Z</time>
      </trkpt>
      <trkpt lat="45.00841" lon="5.47779">
        <ele>1311.2</ele>
        <time>2021-05-08T11:34:09Z</time>
      </trkpt>
      <trkpt lat="45.00825" lon="5.47793">
        <ele>1312.6</ele>
        <time>2021-05-08T11:34:14Z</time>
      </trkpt>
      <trkpt lat="45.00807" lon="5.47802">
        <ele>1312.6</ele>
        <time>2021-05-08T11:34:19Z</time>
      </trkpt>
      <trkpt lat="45.00791" lon="5.47822">
        <ele>1310.7</ele>
        <time>2021-05-08T11:34:25Z</time>
      </trkpt>
      <trkpt lat="45.00775" lon="5.4784">
        <ele>1311.8</ele>
        <time>2021-05-08T11:34:30Z</time>
      </trkpt>
      <trkpt lat="45.00756" lon="5.47849">
        <ele>1311.9</ele>
        <time>2021-05-08T11:34:36Z</time>
      </trkpt>
      <trkpt lat="45.0074" lon="5.47862">
        <ele>1312.8</ele>
        <time>2021-05-08T11:34:42Z</time>
      </trkpt>
      <trkpt lat="45.00723" lon="5.47873">
        <ele>1313.9</ele>
        <time>2021-05-08T11:34:47Z</time>
      </trkpt>
      <trkpt lat="45.00705" lon="5.47878">
        <ele>1312.7</ele>
        <time>2021-05-08T11:34:51Z</time>
      </trkpt>
      <trkpt lat="45.00686" lon="5.47876">
        <ele>1311.4</ele>
        <time>2021-05-08T11:34:55Z</time>
      </trkpt>
      <trkpt lat="45.00664" lon="5.47872">
        <ele>1312.2</ele>
        <time>2021-05-08T11:35:00Z</time>
      </trkpt>
      <trkpt lat="45.00644" lon="5.4786">
        <ele>1309.4</ele>
        <time>2021-05-08T11:35:05Z</time>
      </trkpt>
      <trkpt lat="45.00624" lon="5.47862">
        <ele>1312.4</ele>
        <time>2021-05-08T11:35:09Z</time>
      </trkpt>
      <trkpt lat="45.00608" lon="5.47878">
        <ele>1313.7</ele>
        <time>2021-05-08T11:35:14Z</time>
      </trkpt>
      <trkpt lat="45.00593" lon="5.47897">
        <ele>1316.1</ele>
        <time>2021-05-08T11:35:19Z</time>
      </trkpt>
      <trkpt lat="45.00576" lon="5.47912">
        <ele>1316.7</ele>
        <time>2021-05-08T11:35:24Z</time>
      </trkpt>
      <trkpt lat="45.00558" lon="5.47921">
        <ele>1317</ele>
        <time>2021-05-08T11:35:29Z</time>
      </trkpt>
      <trkpt lat="45.0054" lon="5.47929">
        <ele>1321.1</ele>
        <time>2021-05-08T11:35:34Z</time>
      </trkpt>
      <trkpt lat="45.00524" lon="5.47943">
        <ele>1323.5</ele>
        <time>2021-05-08T11:35:39Z</time>
      </trkpt>
      <trkpt lat="45.00507" lon="5.47955">
        <ele>1324</ele>
        <time>2021-05-08T11:35:44Z</time>
      </trkpt>
      <trkpt lat="45.00487" lon="5.47954">
        <ele>1323.7</ele>
        <time>2021-05-08T11:35:49Z</time>
      </trkpt>
      <trkpt lat="45.00469" lon="5.47947">
        <ele>1322.3</ele>
        <time>2021-05-08T11:35:55Z</time>
      </trkpt>
      <trkpt lat="45.00455" lon="5.47927">
        <ele>1319.4</ele>
        <time>2021-05-08T11:35:59Z</time>
      </trkpt>
      <trkpt lat="45.00438" lon="5.4791">
        <ele>1317</ele>
        <time>2021-05-08T11:36:04Z</time>
      </trkpt>
      <trkpt lat="45.00419" lon="5.47914">
        <ele>1320.3</ele>
        <time>2021-05-08T11:36:09Z</time>
      </trkpt>
      <trkpt lat="45.00401" lon="5.47914">
        <ele>1318.4</ele>
        <time>2021-05-08T11:36:14Z</time>
      </trkpt>
      <trkpt lat="45.00383" lon="5.47929">
        <ele>1318.5</ele>
        <time>2021-05-08T11:36:19Z</time>
      </trkpt>
      <trkpt lat="45.00368" lon="5.47945">
        <ele>1318.7</ele>
        <time>2021-05-08T11:36:23Z</time>
      </trkpt>
      <trkpt lat="45.00352" lon="5.47963">
        <ele>1315.5</ele>
        <time>2021-05-08T11:36:28Z</time>
      </trkpt>
      <trkpt lat="45.00334" lon="5.47977">
        <ele>1314.5</ele>
        <time>2021-05-08T11:36:34Z</time>
      </trkpt>
      <trkpt lat="45.00313" lon="5.47982">
        <ele>1312.9</ele>
        <time>2021-05-08T11:36:38Z</time>
      </trkpt>
      <trkpt lat="45.00289" lon="5.47985">
        <ele>1312.3</ele>
        <time>2021-05-08T11:36:42Z</time>
      </trkpt>
      <trkpt lat="45.00269" lon="5.47994">
        <ele>1313.7</ele>
        <time>2021-05-08T11:36:46Z</time>
      </trkpt>
      <trkpt lat="45.00254" lon="5.48013">
        <ele>1315.6</ele>
        <time>2021-05-08T11:36:50Z</time>
      </trkpt>
      <trkpt lat="45.00242" lon="5.48034">
        <ele>1315.1</ele>
        <time>2021-05-08T11:36:54Z</time>
      </trkpt>
      <trkpt lat="45.00225" lon="5.4805">
        <ele>1313.8</ele>
        <time>2021-05-08T11:36:58Z</time>
      </trkpt>
      <trkpt lat="45.00205" lon="5.48052">
        <ele>1313.5</ele>
        <time>2021-05-08T11:37:02Z</time>
      </trkpt>
      <trkpt lat="45.00183" lon="5.48045">
        <ele>1312.8</ele>
        <time>2021-05-08T11:37:06Z</time>
      </trkpt>
      <trkpt lat="45.00163" lon="5.4805">
        <ele>1313.3</ele>
        <time>2021-05-08T11:37:10Z</time>
      </trkpt>
      <trkpt lat="45.00143" lon="5.48052">
        <ele>1313.1</ele>
        <time>2021-05-08T11:37:14Z</time>
      </trkpt>
      <trkpt lat="45.00122" lon="5.48043">
        <ele>1313.4</ele>
        <time>2021-05-08T11:37:18Z</time>
      </trkpt>
      <trkpt lat="45.00102" lon="5.48032">
        <ele>1312.2</ele>
        <time>2021-05-08T11:37:22Z</time>
      </trkpt>
      <trkpt lat="45.00083" lon="5.48025">
        <ele>1308.3</ele>
        <time>2021-05-08T11:37:26Z</time>
      </trkpt>
      <trkpt lat="45.00064" lon="5.48015">
        <ele>1305.6</ele>
        <time>2021-05-08T11:37:30Z</time>
      </trkpt>
      <trkpt lat="45.00048" lon="5.47998">
        <ele>1302.7</ele>
        <time>2021-05-08T11:37:34Z</time>
      </trkpt>
      <trkpt lat="45.00028" lon="5.47979">
        <ele>1302.3</ele>
        <time>2021-05-08T11:37:39Z</time>
      </trkpt>
      <trkpt lat="45.00012" lon="5.4796">
        <ele>1301.3</ele>
        <time>2021-05-08T11:37:43Z</time>
      </trkpt>
      <trkpt lat="44.99999" lon="5.47939">
        <ele>1301.3</ele>
        <time>2021-05-08T11:37:47Z</time>
      </trkpt>
      <trkpt lat="44.99988" lon="5.47914">
        <ele>1302</ele>
        <time>2021-05-08T11:37:51Z</time>
      </trkpt>
      <trkpt lat="44.9997" lon="5.47896">
        <ele>1300.9</ele>
        <time>2021-05-08T11:37:56Z</time>
      </trkpt>
      <trkpt lat="44.99952" lon="5.47889">
        <ele>1300.1</ele>
        <time>2021-05-08T11:38:00Z</time>
      </trkpt>
      <trkpt lat="44.99935" lon="5.47879">
        <ele>1300.5</ele>
        <time>2021-05-08T11:38:04Z</time>
      </trkpt>
      <trkpt lat="44.99923" lon="5.47859">
        <ele>1301.3</ele>
        <time>2021-05-08T11:38:08Z</time>
      </trkpt>
      <trkpt lat="44.99903" lon="5.4785">
        <ele>1301.9</ele>
        <time>2021-05-08T11:38:14Z</time>
      </trkpt>
      <trkpt lat="44.99884" lon="5.47843">
        <ele>1302.4</ele>
        <time>2021-05-08T11:38:19Z</time>
      </trkpt>
      <trkpt lat="44.99873" lon="5.47822">
        <ele>1302.4</ele>
        <time>2021-05-08T11:38:24Z</time>
      </trkpt>
      <trkpt lat="44.99867" lon="5.47797">
        <ele>1306.1</ele>
        <time>2021-05-08T11:38:29Z</time>
      </trkpt>
      <trkpt lat="44.99851" lon="5.4778">
        <ele>1306.1</ele>
        <time>2021-05-08T11:38:36Z</time>
      </trkpt>
      <trkpt lat="44.99833" lon="5.47774">
        <ele>1308.5</ele>
        <time>2021-05-08T11:38:43Z</time>
      </trkpt>
      <trkpt lat="44.99814" lon="5.47767">
        <ele>1306.9</ele>
        <time>2021-05-08T11:38:51Z</time>
      </trkpt>
      <trkpt lat="44.99795" lon="5.47766">
        <ele>1308.2</ele>
        <time>2021-05-08T11:39:00Z</time>
      </trkpt>
      <trkpt lat="44.99778" lon="5.47775">
        <ele>1320.9</ele>
        <time>2021-05-08T11:40:28Z</time>
      </trkpt>
      <trkpt lat="44.9976" lon="5.47777">
        <ele>1324.1</ele>
        <time>2021-05-08T11:42:32Z</time>
      </trkpt>
      <trkpt lat="44.9975" lon="5.47755">
        <ele>1325.3</ele>
        <time>2021-05-08T11:42:41Z</time>
      </trkpt>
      <trkpt lat="44.99742" lon="5.47732">
        <ele>1325.2</ele>
        <time>2021-05-08T11:42:50Z</time>
      </trkpt>
      <trkpt lat="44.99724" lon="5.47733">
        <ele>1327.1</ele>
        <time>2021-05-08T11:42:59Z</time>
      </trkpt>
      <trkpt lat="44.99704" lon="5.47738">
        <ele>1322.7</ele>
        <time>2021-05-08T11:43:07Z</time>
      </trkpt>
      <trkpt lat="44.99684" lon="5.47743">
        <ele>1322.5</ele>
        <time>2021-05-08T11:43:15Z</time>
      </trkpt>
      <trkpt lat="44.99665" lon="5.47748">
        <ele>1322.4</ele>
        <time>2021-05-08T11:43:23Z</time>
      </trkpt>
      <trkpt lat="44.99647" lon="5.47743">
        <ele>1322.7</ele>
        <time>2021-05-08T11:43:29Z</time>
      </trkpt>
      <trkpt lat="44.99628" lon="5.47733">
        <ele>1324.5</ele>
        <time>2021-05-08T11:43:35Z</time>
      </trkpt>
      <trkpt lat="44.99618" lon="5.47708">
        <ele>1321.6</ele>
        <time>2021-05-08T11:43:41Z</time>
      </trkpt>
      <trkpt lat="44.99613" lon="5.47681">
        <ele>1321.5</ele>
        <time>2021-05-08T11:43:47Z</time>
      </trkpt>
      <trkpt lat="44.99599" lon="5.47665">
        <ele>1318.9</ele>
        <time>2021-05-08T11:43:54Z</time>
      </trkpt>
      <trkpt lat="44.99581" lon="5.47663">
        <ele>1317</ele>
        <time>2021-05-08T11:44:01Z</time>
      </trkpt>
      <trkpt lat="44.99562" lon="5.47676">
        <ele>1320.4</ele>
        <time>2021-05-08T11:44:08Z</time>
      </trkpt>
      <trkpt lat="44.99549" lon="5.47695">
        <ele>1321.6</ele>
        <time>2021-05-08T11:44:14Z</time>
      </trkpt>
      <trkpt lat="44.99533" lon="5.47713">
        <ele>1322.2</ele>
        <time>2021-05-08T11:44:20Z</time>
      </trkpt>
      <trkpt lat="44.99517" lon="5.47725">
        <ele>1321.1</ele>
        <time>2021-05-08T11:44:26Z</time>
      </trkpt>
      <trkpt lat="44.99499" lon="5.47733">
        <ele>1322.9</ele>
        <time>2021-05-08T11:44:33Z</time>
      </trkpt>
      <trkpt lat="44.99482" lon="5.47742">
        <ele>1319.5</ele>
        <time>2021-05-08T11:44:40Z</time>
      </trkpt>
      <trkpt lat="44.99466" lon="5.47759">
        <ele>1318.2</ele>
        <time>2021-05-08T11:44:47Z</time>
      </trkpt>
      <trkpt lat="44.99451" lon="5.47777">
        <ele>1321.4</ele>
        <time>2021-05-08T11:44:56Z</time>
      </trkpt>
      <trkpt lat="44.99434" lon="5.47793">
        <ele>1309.7</ele>
        <time>2021-05-08T11:45:04Z</time>
      </trkpt>
      <trkpt lat="44.99418" lon="5.47805">
        <ele>1306.4</ele>
        <time>2021-05-08T11:45:11Z</time>
      </trkpt>
      <trkpt lat="44.99401" lon="5.47815">
        <ele>1301</ele>
        <time>2021-05-08T11:45:18Z</time>
      </trkpt>
      <trkpt lat="44.99381" lon="5.47825">
        <ele>1296.3</ele>
        <time>2021-05-08T11:45:26Z</time>
      </trkpt>
      <trkpt lat="44.99363" lon="5.47837">
        <ele>1299.2</ele>
        <time>2021-05-08T11:45:32Z</time>
      </trkpt>
      <trkpt lat="44.99347" lon="5.47849">
        <ele>1300.5</ele>
        <time>2021-05-08T11:45:37Z</time>
      </trkpt>
      <trkpt lat="44.9933" lon="5.4786">
        <ele>1301.1</ele>
        <time>2021-05-08T11:45:43Z</time>
      </trkpt>
      <trkpt lat="44.99315" lon="5.47872">
        <ele>1301.8</ele>
        <time>2021-05-08T11:45:49Z</time>
      </trkpt>
      <trkpt lat="44.99297" lon="5.47882">
        <ele>1304.9</ele>
        <time>2021-05-08T11:45:55Z</time>
      </trkpt>
      <trkpt lat="44.99279" lon="5.47873">
        <ele>1310.1</ele>
        <time>2021-05-08T11:46:03Z</time>
      </trkpt>
      <trkpt lat="44.99276" lon="5.47848">
        <ele>1321.9</ele>
        <time>2021-05-08T11:46:15Z</time>
      </trkpt>
      <trkpt lat="44.99288" lon="5.47827">
        <ele>1327.5</ele>
        <time>2021-05-08T11:46:27Z</time>
      </trkpt>
      <trkpt lat="44.99304" lon="5.47813">
        <ele>1337.7</ele>
        <time>2021-05-08T11:46:41Z</time>
      </trkpt>
      <trkpt lat="44.99311" lon="5.4779">
        <ele>1347.5</ele>
        <time>2021-05-08T11:46:55Z</time>
      </trkpt>
      <trkpt lat="44.99298" lon="5.47771">
        <ele>1344.4</ele>
        <time>2021-05-08T11:47:07Z</time>
      </trkpt>
      <trkpt lat="44.99283" lon="5.47753">
        <ele>1340.5</ele>
        <time>2021-05-08T11:47:17Z</time>
      </trkpt>
      <trkpt lat="44.99275" lon="5.47727">
        <ele>1342.2</ele>
        <time>2021-05-08T11:47:25Z</time>
      </trkpt>
      <trkpt lat="44.99278" lon="5.47699">
        <ele>1343.4</ele>
        <time>2021-05-08T11:47:34Z</time>
      </trkpt>
      <trkpt lat="44.99266" lon="5.47679">
        <ele>1344.8</ele>
        <time>2021-05-08T11:47:43Z</time>
      </trkpt>
      <trkpt lat="44.99246" lon="5.47673">
        <ele>1344</ele>
        <time>2021-05-08T11:47:52Z</time>
      </trkpt>
      <trkpt lat="44.99228" lon="5.47669">
        <ele>1341.4</ele>
        <time>2021-05-08T11:48:04Z</time>
      </trkpt>
      <trkpt lat="44.9921" lon="5.47661">
        <ele>1340</ele>
        <time>2021-05-08T11:48:13Z</time>
      </trkpt>
      <trkpt lat="44.99191" lon="5.47661">
        <ele>1339.2</ele>
        <time>2021-05-08T11:48:20Z</time>
      </trkpt>
      <trkpt lat="44.99173" lon="5.47654">
        <ele>1338.2</ele>
        <time>2021-05-08T11:48:24Z</time>
      </trkpt>
      <trkpt lat="44.99154" lon="5.47657">
        <ele>1337.4</ele>
        <time>2021-05-08T11:48:29Z</time>
      </trkpt>
      <trkpt lat="44.99135" lon="5.47663">
        <ele>1339.4</ele>
        <time>2021-05-08T11:48:34Z</time>
      </trkpt>
      <trkpt lat="44.99114" lon="5.47663">
        <ele>1337.9</ele>
        <time>2021-05-08T11:48:39Z</time>
      </trkpt>
      <trkpt lat="44.99096" lon="5.47654">
        <ele>1339.2</ele>
        <time>2021-05-08T11:48:44Z</time>
      </trkpt>
      <trkpt lat="44.99076" lon="5.47646">
        <ele>1340</ele>
        <time>2021-05-08T11:48:50Z</time>
      </trkpt>
      <trkpt lat="44.99058" lon="5.4764">
        <ele>1338.4</ele>
        <time>2021-05-08T11:48:58Z</time>
      </trkpt>
      <trkpt lat="44.99037" lon="5.47636">
        <ele>1341.7</ele>
        <time>2021-05-08T11:49:05Z</time>
      </trkpt>
      <trkpt lat="44.9902" lon="5.47624">
        <ele>1346.1</ele>
        <time>2021-05-08T11:49:13Z</time>
      </trkpt>
      <trkpt lat="44.99007" lon="5.47603">
        <ele>1344.5</ele>
        <time>2021-05-08T11:49:22Z</time>
      </trkpt>
      <trkpt lat="44.98993" lon="5.47587">
        <ele>1348.6</ele>
        <time>2021-05-08T11:49:55Z</time>
      </trkpt>
      <trkpt lat="44.98995" lon="5.47562">
        <ele>1350.9</ele>
        <time>2021-05-08T11:50:06Z</time>
      </trkpt>
      <trkpt lat="44.9898" lon="5.47547">
        <ele>1355</ele>
        <time>2021-05-08T11:50:35Z</time>
      </trkpt>
      <trkpt lat="44.98964" lon="5.47559">
        <ele>1352.7</ele>
        <time>2021-05-08T11:51:04Z</time>
      </trkpt>
      <trkpt lat="44.98949" lon="5.47577">
        <ele>1352.2</ele>
        <time>2021-05-08T11:51:12Z</time>
      </trkpt>
      <trkpt lat="44.98941" lon="5.47605">
        <ele>1354.2</ele>
        <time>2021-05-08T11:51:16Z</time>
      </trkpt>
      <trkpt lat="44.98937" lon="5.4763">
        <ele>1353.8</ele>
        <time>2021-05-08T11:51:21Z</time>
      </trkpt>
      <trkpt lat="44.98925" lon="5.47654">
        <ele>1351.5</ele>
        <time>2021-05-08T11:51:29Z</time>
      </trkpt>
      <trkpt lat="44.98916" lon="5.47676">
        <ele>1351.4</ele>
        <time>2021-05-08T11:51:36Z</time>
      </trkpt>
      <trkpt lat="44.98913" lon="5.47703">
        <ele>1355.9</ele>
        <time>2021-05-08T11:51:48Z</time>
      </trkpt>
      <trkpt lat="44.98911" lon="5.4773">
        <ele>1358.7</ele>
        <time>2021-05-08T11:52:00Z</time>
      </trkpt>
      <trkpt lat="44.98907" lon="5.47755">
        <ele>1354.3</ele>
        <time>2021-05-08T11:52:12Z</time>
      </trkpt>
      <trkpt lat="44.98897" lon="5.47778">
        <ele>1344.3</ele>
        <time>2021-05-08T11:52:23Z</time>
      </trkpt>
      <trkpt lat="44.98888" lon="5.478">
        <ele>1351.4</ele>
        <time>2021-05-08T11:52:33Z</time>
      </trkpt>
      <trkpt lat="44.98872" lon="5.47816">
        <ele>1355.2</ele>
        <time>2021-05-08T11:52:45Z</time>
      </trkpt>
      <trkpt lat="44.98868" lon="5.47846">
        <ele>1356.6</ele>
        <time>2021-05-08T11:53:22Z</time>
      </trkpt>
      <trkpt lat="44.98872" lon="5.47876">
        <ele>1352.7</ele>
        <time>2021-05-08T11:53:25Z</time>
      </trkpt>
      <trkpt lat="44.9888" lon="5.47902">
        <ele>1349.4</ele>
        <time>2021-05-08T11:53:28Z</time>
      </trkpt>
      <trkpt lat="44.98876" lon="5.4793">
        <ele>1346.8</ele>
        <time>2021-05-08T11:53:32Z</time>
      </trkpt>
      <trkpt lat="44.98857" lon="5.47945">
        <ele>1344</ele>
        <time>2021-05-08T11:53:35Z</time>
      </trkpt>
      <trkpt lat="44.98836" lon="5.47951">
        <ele>1342.2</ele>
        <time>2021-05-08T11:53:38Z</time>
      </trkpt>
      <trkpt lat="44.98817" lon="5.47957">
        <ele>1341.4</ele>
        <time>2021-05-08T11:53:42Z</time>
      </trkpt>
      <trkpt lat="44.98798" lon="5.47976">
        <ele>1338.4</ele>
        <time>2021-05-08T11:53:46Z</time>
      </trkpt>
      <trkpt lat="44.98783" lon="5.47998">
        <ele>1337.6</ele>
        <time>2021-05-08T11:53:49Z</time>
      </trkpt>
      <trkpt lat="44.98766" lon="5.48022">
        <ele>1336.3</ele>
        <time>2021-05-08T11:53:52Z</time>
      </trkpt>
      <trkpt lat="44.9875" lon="5.48044">
        <ele>1336</ele>
        <time>2021-05-08T11:53:55Z</time>
      </trkpt>
      <trkpt lat="44.98735" lon="5.4806">
        <ele>1340.2</ele>
        <time>2021-05-08T11:54:02Z</time>
      </trkpt>
      <trkpt lat="44.9872" lon="5.48078">
        <ele>1340.8</ele>
        <time>2021-05-08T11:54:11Z</time>
      </trkpt>
      <trkpt lat="44.98704" lon="5.48092">
        <ele>1343.3</ele>
        <time>2021-05-08T11:54:23Z</time>
      </trkpt>
      <trkpt lat="44.98689" lon="5.48111">
        <ele>1341.2</ele>
        <time>2021-05-08T11:54:31Z</time>
      </trkpt>
      <trkpt lat="44.98671" lon="5.4813">
        <ele>1339.1</ele>
        <time>2021-05-08T11:54:35Z</time>
      </trkpt>
      <trkpt lat="44.98653" lon="5.48145">
        <ele>1338.6</ele>
        <time>2021-05-08T11:54:39Z</time>
      </trkpt>
      <trkpt lat="44.98636" lon="5.48155">
        <ele>1339.5</ele>
        <time>2021-05-08T11:54:47Z</time>
      </trkpt>
      <trkpt lat="44.98622" lon="5.48174">
        <ele>1349.2</ele>
        <time>2021-05-08T11:55:11Z</time>
      </trkpt>
      <trkpt lat="44.98605" lon="5.48181">
        <ele>1350.1</ele>
        <time>2021-05-08T11:55:44Z</time>
      </trkpt>
      <trkpt lat="44.98586" lon="5.48194">
        <ele>1348.2</ele>
        <time>2021-05-08T11:55:52Z</time>
      </trkpt>
      <trkpt lat="44.98571" lon="5.48215">
        <ele>1343.2</ele>
        <time>2021-05-08T11:55:56Z</time>
      </trkpt>
      <trkpt lat="44.98565" lon="5.48247">
        <ele>1340.5</ele>
        <time>2021-05-08T11:56:00Z</time>
      </trkpt>
      <trkpt lat="44.98563" lon="5.48272">
        <ele>1337.7</ele>
        <time>2021-05-08T11:56:03Z</time>
      </trkpt>
      <trkpt lat="44.98561" lon="5.48299">
        <ele>1337.1</ele>
        <time>2021-05-08T11:56:06Z</time>
      </trkpt>
      <trkpt lat="44.98556" lon="5.48327">
        <ele>1337.2</ele>
        <time>2021-05-08T11:56:09Z</time>
      </trkpt>
      <trkpt lat="44.98562" lon="5.48353">
        <ele>1331.6</ele>
        <time>2021-05-08T11:56:14Z</time>
      </trkpt>
      <trkpt lat="44.98581" lon="5.48365">
        <ele>1331.3</ele>
        <time>2021-05-08T11:56:21Z</time>
      </trkpt>
      <trkpt lat="44.98601" lon="5.4838">
        <ele>1328.3</ele>
        <time>2021-05-08T11:56:30Z</time>
      </trkpt>
      <trkpt lat="44.98616" lon="5.48401">
        <ele>1326.9</ele>
        <time>2021-05-08T11:56:34Z</time>
      </trkpt>
      <trkpt lat="44.98629" lon="5.48421">
        <ele>1325.8</ele>
        <time>2021-05-08T11:56:38Z</time>
      </trkpt>
      <trkpt lat="44.98631" lon="5.48449">
        <ele>1325.5</ele>
        <time>2021-05-08T11:56:43Z</time>
      </trkpt>
      <trkpt lat="44.98632" lon="5.48476">
        <ele>1328.3</ele>
        <time>2021-05-08T11:56:50Z</time>
      </trkpt>
      <trkpt lat="44.98632" lon="5.48506">
        <ele>1328.6</ele>
        <time>2021-05-08T11:56:58Z</time>
      </trkpt>
      <trkpt lat="44.98639" lon="5.48532">
        <ele>1326.5</ele>
        <time>2021-05-08T11:57:02Z</time>
      </trkpt>
      <trkpt lat="44.98655" lon="5.48545">
        <ele>1326.6</ele>
        <time>2021-05-08T11:57:10Z</time>
      </trkpt>
      <trkpt lat="44.98674" lon="5.48556">
        <ele>1322.8</ele>
        <time>2021-05-08T11:57:18Z</time>
      </trkpt>
      <trkpt lat="44.9869" lon="5.48572">
        <ele>1320.7</ele>
        <time>2021-05-08T11:57:23Z</time>
      </trkpt>
      <trkpt lat="44.98708" lon="5.48575">
        <ele>1319.3</ele>
        <time>2021-05-08T11:57:28Z</time>
      </trkpt>
      <trkpt lat="44.98726" lon="5.48571">
        <ele>1319.1</ele>
        <time>2021-05-08T11:57:33Z</time>
      </trkpt>
      <trkpt lat="44.98748" lon="5.48572">
        <ele>1322.3</ele>
        <time>2021-05-08T11:57:38Z</time>
      </trkpt>
      <trkpt lat="44.9877" lon="5.48578">
        <ele>1321.9</ele>
        <time>2021-05-08T11:57:44Z</time>
      </trkpt>
      <trkpt lat="44.98788" lon="5.48575">
        <ele>1323.8</ele>
        <time>2021-05-08T11:57:50Z</time>
      </trkpt>
      <trkpt lat="44.98808" lon="5.48577">
        <ele>1328.4</ele>
        <time>2021-05-08T11:57:57Z</time>
      </trkpt>
      <trkpt lat="44.98827" lon="5.48582">
        <ele>1324.6</ele>
        <time>2021-05-08T11:58:03Z</time>
      </trkpt>
      <trkpt lat="44.98862" lon="5.48579">
        <ele>1324</ele>
        <time>2021-05-08T11:58:05Z</time>
      </trkpt>
      <trkpt lat="44.98883" lon="5.48578">
        <ele>1323.3</ele>
        <time>2021-05-08T11:58:08Z</time>
      </trkpt>
      <trkpt lat="44.98903" lon="5.4858">
        <ele>1321.1</ele>
        <time>2021-05-08T11:58:11Z</time>
      </trkpt>
      <trkpt lat="44.98922" lon="5.48576">
        <ele>1319.6</ele>
        <time>2021-05-08T11:58:14Z</time>
      </trkpt>
      <trkpt lat="44.9894" lon="5.48568">
        <ele>1320</ele>
        <time>2021-05-08T11:58:17Z</time>
      </trkpt>
      <trkpt lat="44.9896" lon="5.48562">
        <ele>1318.7</ele>
        <time>2021-05-08T11:58:20Z</time>
      </trkpt>
      <trkpt lat="44.98977" lon="5.48554">
        <ele>1318.5</ele>
        <time>2021-05-08T11:58:23Z</time>
      </trkpt>
      <trkpt lat="44.98995" lon="5.48546">
        <ele>1319.2</ele>
        <time>2021-05-08T11:58:27Z</time>
      </trkpt>
      <trkpt lat="44.99014" lon="5.48545">
        <ele>1320.1</ele>
        <time>2021-05-08T11:58:34Z</time>
      </trkpt>
      <trkpt lat="44.99033" lon="5.48551">
        <ele>1317.8</ele>
        <time>2021-05-08T11:58:40Z</time>
      </trkpt>
      <trkpt lat="44.99052" lon="5.48561">
        <ele>1316</ele>
        <time>2021-05-08T11:58:47Z</time>
      </trkpt>
      <trkpt lat="44.9907" lon="5.48576">
        <ele>1318.2</ele>
        <time>2021-05-08T11:58:53Z</time>
      </trkpt>
      <trkpt lat="44.99088" lon="5.48585">
        <ele>1315.7</ele>
        <time>2021-05-08T11:59:00Z</time>
      </trkpt>
      <trkpt lat="44.99102" lon="5.48604">
        <ele>1316.3</ele>
        <time>2021-05-08T11:59:07Z</time>
      </trkpt>
      <trkpt lat="44.99116" lon="5.4862">
        <ele>1317.5</ele>
        <time>2021-05-08T11:59:12Z</time>
      </trkpt>
      <trkpt lat="44.99131" lon="5.48637">
        <ele>1317.7</ele>
        <time>2021-05-08T11:59:20Z</time>
      </trkpt>
      <trkpt lat="44.99148" lon="5.48645">
        <ele>1317.9</ele>
        <time>2021-05-08T11:59:26Z</time>
      </trkpt>
      <trkpt lat="44.99162" lon="5.48665">
        <ele>1316.9</ele>
        <time>2021-05-08T11:59:33Z</time>
      </trkpt>
      <trkpt lat="44.99174" lon="5.48688">
        <ele>1315.9</ele>
        <time>2021-05-08T11:59:38Z</time>
      </trkpt>
      <trkpt lat="44.99185" lon="5.4871">
        <ele>1316.7</ele>
        <time>2021-05-08T11:59:43Z</time>
      </trkpt>
      <trkpt lat="44.99198" lon="5.48732">
        <ele>1316.2</ele>
        <time>2021-05-08T11:59:49Z</time>
      </trkpt>
      <trkpt lat="44.99208" lon="5.48754">
        <ele>1312.4</ele>
        <time>2021-05-08T11:59:54Z</time>
      </trkpt>
      <trkpt lat="44.99221" lon="5.48771">
        <ele>1308.2</ele>
        <time>2021-05-08T11:59:59Z</time>
      </trkpt>
      <trkpt lat="44.9924" lon="5.4878">
        <ele>1309.9</ele>
        <time>2021-05-08T12:00:05Z</time>
      </trkpt>
      <trkpt lat="44.99257" lon="5.48791">
        <ele>1312.5</ele>
        <time>2021-05-08T12:00:12Z</time>
      </trkpt>
      <trkpt lat="44.99268" lon="5.48814">
        <ele>1315.4</ele>
        <time>2021-05-08T12:00:18Z</time>
      </trkpt>
      <trkpt lat="44.99279" lon="5.48837">
        <ele>1315.6</ele>
        <time>2021-05-08T12:00:24Z</time>
      </trkpt>
      <trkpt lat="44.99295" lon="5.48851">
        <ele>1318.1</ele>
        <time>2021-05-08T12:00:32Z</time>
      </trkpt>
      <trkpt lat="44.99312" lon="5.48842">
        <ele>1316.6</ele>
        <time>2021-05-08T12:00:41Z</time>
      </trkpt>
      <trkpt lat="44.99332" lon="5.48842">
        <ele>1318.5</ele>
        <time>2021-05-08T12:00:50Z</time>
      </trkpt>
      <trkpt lat="44.99348" lon="5.48829">
        <ele>1319.5</ele>
        <time>2021-05-08T12:00:58Z</time>
      </trkpt>
      <trkpt lat="44.99366" lon="5.48819">
        <ele>1321</ele>
        <time>2021-05-08T12:01:07Z</time>
      </trkpt>
      <trkpt lat="44.99385" lon="5.48815">
        <ele>1326.2</ele>
        <time>2021-05-08T12:01:18Z</time>
      </trkpt>
      <trkpt lat="44.99404" lon="5.48817">
        <ele>1327</ele>
        <time>2021-05-08T12:01:29Z</time>
      </trkpt>
      <trkpt lat="44.99423" lon="5.48815">
        <ele>1331.4</ele>
        <time>2021-05-08T12:01:40Z</time>
      </trkpt>
      <trkpt lat="44.99442" lon="5.4882">
        <ele>1331.8</ele>
        <time>2021-05-08T12:01:51Z</time>
      </trkpt>
      <trkpt lat="44.99461" lon="5.4882">
        <ele>1330</ele>
        <time>2021-05-08T12:02:02Z</time>
      </trkpt>
      <trkpt lat="44.99481" lon="5.48818">
        <ele>1323.1</ele>
        <time>2021-05-08T12:03:58Z</time>
      </trkpt>
      <trkpt lat="44.995" lon="5.48817">
        <ele>1309.5</ele>
        <time>2021-05-08T12:04:09Z</time>
      </trkpt>
      <trkpt lat="44.99518" lon="5.48814">
        <ele>1299.9</ele>
        <time>2021-05-08T12:04:18Z</time>
      </trkpt>
      <trkpt lat="44.99537" lon="5.48812">
        <ele>1307.7</ele>
        <time>2021-05-08T12:04:29Z</time>
      </trkpt>
      <trkpt lat="44.99557" lon="5.48816">
        <ele>1312.7</ele>
        <time>2021-05-08T12:04:40Z</time>
      </trkpt>
      <trkpt lat="44.99574" lon="5.48834">
        <ele>1310.7</ele>
        <time>2021-05-08T12:04:47Z</time>
      </trkpt>
      <trkpt lat="44.99591" lon="5.48847">
        <ele>1313.3</ele>
        <time>2021-05-08T12:04:53Z</time>
      </trkpt>
      <trkpt lat="44.99609" lon="5.48852">
        <ele>1318.7</ele>
        <time>2021-05-08T12:04:59Z</time>
      </trkpt>
      <trkpt lat="44.99628" lon="5.48849">
        <ele>1323.7</ele>
        <time>2021-05-08T12:05:06Z</time>
      </trkpt>
      <trkpt lat="44.99648" lon="5.48848">
        <ele>1330.9</ele>
        <time>2021-05-08T12:05:33Z</time>
      </trkpt>
      <trkpt lat="44.99666" lon="5.48842">
        <ele>1342.3</ele>
        <time>2021-05-08T12:05:46Z</time>
      </trkpt>
      <trkpt lat="44.99683" lon="5.48836">
        <ele>1349.5</ele>
        <time>2021-05-08T12:06:07Z</time>
      </trkpt>
      <trkpt lat="44.99702" lon="5.48842">
        <ele>1353.9</ele>
        <time>2021-05-08T12:06:27Z</time>
      </trkpt>
      <trkpt lat="44.99718" lon="5.48856">
        <ele>1361.8</ele>
        <time>2021-05-08T12:06:38Z</time>
      </trkpt>
      <trkpt lat="44.99736" lon="5.48865">
        <ele>1366.9</ele>
        <time>2021-05-08T12:06:54Z</time>
      </trkpt>
      <trkpt lat="44.99755" lon="5.4887">
        <ele>1365.9</ele>
        <time>2021-05-08T12:07:10Z</time>
      </trkpt>
      <trkpt lat="44.99772" lon="5.48877">
        <ele>1366.6</ele>
        <time>2021-05-08T12:07:37Z</time>
      </trkpt>
      <trkpt lat="44.99791" lon="5.48876">
        <ele>1366.4</ele>
        <time>2021-05-08T12:08:28Z</time>
      </trkpt>
      <trkpt lat="44.99801" lon="5.48856">
        <ele>1375</ele>
        <time>2021-05-08T12:08:43Z</time>
      </trkpt>
      <trkpt lat="44.99818" lon="5.48842">
        <ele>1382</ele>
        <time>2021-05-08T12:08:56Z</time>
      </trkpt>
      <trkpt lat="44.99834" lon="5.48829">
        <ele>1382.1</ele>
        <time>2021-05-08T12:09:07Z</time>
      </trkpt>
      <trkpt lat="44.99847" lon="5.48811">
        <ele>1384.3</ele>
        <time>2021-05-08T12:09:21Z</time>
      </trkpt>
      <trkpt lat="44.99863" lon="5.48798">
        <ele>1390.1</ele>
        <time>2021-05-08T12:09:34Z</time>
      </trkpt>
      <trkpt lat="44.9988" lon="5.48784">
        <ele>1387.2</ele>
        <time>2021-05-08T12:09:46Z</time>
      </trkpt>
      <trkpt lat="44.99897" lon="5.48774">
        <ele>1392.7</ele>
        <time>2021-05-08T12:09:57Z</time>
      </trkpt>
      <trkpt lat="44.99913" lon="5.48763">
        <ele>1393.4</ele>
        <time>2021-05-08T12:10:09Z</time>
      </trkpt>
      <trkpt lat="44.99932" lon="5.48755">
        <ele>1395.2</ele>
        <time>2021-05-08T12:10:21Z</time>
      </trkpt>
      <trkpt lat="44.9995" lon="5.4875">
        <ele>1393</ele>
        <time>2021-05-08T12:10:31Z</time>
      </trkpt>
      <trkpt lat="44.99969" lon="5.48745">
        <ele>1391.3</ele>
        <time>2021-05-08T12:10:42Z</time>
      </trkpt>
      <trkpt lat="44.99987" lon="5.48735">
        <ele>1393.4</ele>
        <time>2021-05-08T12:10:52Z</time>
      </trkpt>
      <trkpt lat="45.00004" lon="5.48728">
        <ele>1388.9</ele>
        <time>2021-05-08T12:11:01Z</time>
      </trkpt>
      <trkpt lat="45.00019" lon="5.48712">
        <ele>1390.9</ele>
        <time>2021-05-08T12:11:09Z</time>
      </trkpt>
      <trkpt lat="45.00031" lon="5.48693">
        <ele>1389.5</ele>
        <time>2021-05-08T12:11:17Z</time>
      </trkpt>
      <trkpt lat="45.00045" lon="5.48675">
        <ele>1389.9</ele>
        <time>2021-05-08T12:11:26Z</time>
      </trkpt>
      <trkpt lat="45.00061" lon="5.48662">
        <ele>1394.1</ele>
        <time>2021-05-08T12:11:34Z</time>
      </trkpt>
      <trkpt lat="45.00075" lon="5.48644">
        <ele>1396.4</ele>
        <time>2021-05-08T12:11:44Z</time>
      </trkpt>
      <trkpt lat="45.00089" lon="5.48627">
        <ele>1396.3</ele>
        <time>2021-05-08T12:11:52Z</time>
      </trkpt>
      <trkpt lat="45.00104" lon="5.48608">
        <ele>1396.2</ele>
        <time>2021-05-08T12:12:01Z</time>
      </trkpt>
      <trkpt lat="45.00116" lon="5.48588">
        <ele>1399.8</ele>
        <time>2021-05-08T12:12:10Z</time>
      </trkpt>
      <trkpt lat="45.00133" lon="5.48576">
        <ele>1409.7</ele>
        <time>2021-05-08T12:12:20Z</time>
      </trkpt>
      <trkpt lat="45.00151" lon="5.48582">
        <ele>1410.7</ele>
        <time>2021-05-08T12:12:39Z</time>
      </trkpt>
      <trkpt lat="45.00167" lon="5.48569">
        <ele>1417.8</ele>
        <time>2021-05-08T12:14:28Z</time>
      </trkpt>
      <trkpt lat="45.00182" lon="5.48555">
        <ele>1419</ele>
        <time>2021-05-08T12:14:51Z</time>
      </trkpt>
      <trkpt lat="45.00195" lon="5.48537">
        <ele>1417.7</ele>
        <time>2021-05-08T12:15:17Z</time>
      </trkpt>
      <trkpt lat="45.00202" lon="5.48513">
        <ele>1418.2</ele>
        <time>2021-05-08T12:16:04Z</time>
      </trkpt>
      <trkpt lat="45.00215" lon="5.48494">
        <ele>1425.5</ele>
        <time>2021-05-08T12:16:21Z</time>
      </trkpt>
      <trkpt lat="45.00234" lon="5.48488">
        <ele>1428.5</ele>
        <time>2021-05-08T12:16:33Z</time>
      </trkpt>
      <trkpt lat="45.00247" lon="5.48506">
        <ele>1439.1</ele>
        <time>2021-05-08T12:16:50Z</time>
      </trkpt>
      <trkpt lat="45.00253" lon="5.4853">
        <ele>1435.4</ele>
        <time>2021-05-08T12:17:19Z</time>
      </trkpt>
      <trkpt lat="45.00259" lon="5.48554">
        <ele>1421.7</ele>
        <time>2021-05-08T12:17:53Z</time>
      </trkpt>
      <trkpt lat="45.00261" lon="5.4858">
        <ele>1418.6</ele>
        <time>2021-05-08T12:18:17Z</time>
      </trkpt>
      <trkpt lat="45.00252" lon="5.48604">
        <ele>1417.7</ele>
        <time>2021-05-08T12:18:53Z</time>
      </trkpt>
      <trkpt lat="45.00256" lon="5.48629">
        <ele>1420.3</ele>
        <time>2021-05-08T12:19:05Z</time>
      </trkpt>
      <trkpt lat="45.00268" lon="5.48651">
        <ele>1411.9</ele>
        <time>2021-05-08T12:19:13Z</time>
      </trkpt>
      <trkpt lat="45.00279" lon="5.48674">
        <ele>1415.7</ele>
        <time>2021-05-08T12:19:44Z</time>
      </trkpt>
      <trkpt lat="45.00284" lon="5.48699">
        <ele>1420.2</ele>
        <time>2021-05-08T12:20:00Z</time>
      </trkpt>
      <trkpt lat="45.00311" lon="5.48677">
        <ele>1429</ele>
        <time>2021-05-08T12:21:16Z</time>
      </trkpt>
      <trkpt lat="45.00326" lon="5.48661">
        <ele>1429</ele>
        <time>2021-05-08T12:21:19Z</time>
      </trkpt>
      <trkpt lat="45.00338" lon="5.4864">
        <ele>1427.1</ele>
        <time>2021-05-08T12:21:23Z</time>
      </trkpt>
      <trkpt lat="45.00351" lon="5.4862">
        <ele>1425.9</ele>
        <time>2021-05-08T12:21:30Z</time>
      </trkpt>
      <trkpt lat="45.00367" lon="5.48604">
        <ele>1429.5</ele>
        <time>2021-05-08T12:21:42Z</time>
      </trkpt>
      <trkpt lat="45.00385" lon="5.48595">
        <ele>1427.7</ele>
        <time>2021-05-08T12:21:48Z</time>
      </trkpt>
      <trkpt lat="45.00402" lon="5.48586">
        <ele>1424.4</ele>
        <time>2021-05-08T12:21:51Z</time>
      </trkpt>
      <trkpt lat="45.00418" lon="5.48573">
        <ele>1423.2</ele>
        <time>2021-05-08T12:21:54Z</time>
      </trkpt>
      <trkpt lat="45.00439" lon="5.48558">
        <ele>1422.3</ele>
        <time>2021-05-08T12:21:58Z</time>
      </trkpt>
      <trkpt lat="45.00458" lon="5.48547">
        <ele>1420.3</ele>
        <time>2021-05-08T12:22:01Z</time>
      </trkpt>
      <trkpt lat="45.0048" lon="5.48534">
        <ele>1420.7</ele>
        <time>2021-05-08T12:22:04Z</time>
      </trkpt>
      <trkpt lat="45.00501" lon="5.48535">
        <ele>1419.6</ele>
        <time>2021-05-08T12:22:07Z</time>
      </trkpt>
      <trkpt lat="45.00523" lon="5.48531">
        <ele>1420.7</ele>
        <time>2021-05-08T12:22:11Z</time>
      </trkpt>
      <trkpt lat="45.00541" lon="5.48526">
        <ele>1425.8</ele>
        <time>2021-05-08T12:22:16Z</time>
      </trkpt>
      <trkpt lat="45.00561" lon="5.48536">
        <ele>1417.6</ele>
        <time>2021-05-08T12:22:20Z</time>
      </trkpt>
      <trkpt lat="45.00576" lon="5.48555">
        <ele>1410</ele>
        <time>2021-05-08T12:22:27Z</time>
      </trkpt>
      <trkpt lat="45.00593" lon="5.48568">
        <ele>1405.5</ele>
        <time>2021-05-08T12:22:35Z</time>
      </trkpt>
      <trkpt lat="45.00611" lon="5.48578">
        <ele>1409.3</ele>
        <time>2021-05-08T12:22:44Z</time>
      </trkpt>
      <trkpt lat="45.00624" lon="5.48597">
        <ele>1406.8</ele>
        <time>2021-05-08T12:22:49Z</time>
      </trkpt>
      <trkpt lat="45.00639" lon="5.48616">
        <ele>1399.5</ele>
        <time>2021-05-08T12:22:53Z</time>
      </trkpt>
      <trkpt lat="45.00653" lon="5.48637">
        <ele>1399.2</ele>
        <time>2021-05-08T12:22:55Z</time>
      </trkpt>
      <trkpt lat="45.00672" lon="5.48658">
        <ele>1395.3</ele>
        <time>2021-05-08T12:22:58Z</time>
      </trkpt>
      <trkpt lat="45.00686" lon="5.48688">
        <ele>1393.3</ele>
        <time>2021-05-08T12:23:01Z</time>
      </trkpt>
      <trkpt lat="45.00692" lon="5.48713">
        <ele>1393.3</ele>
        <time>2021-05-08T12:23:04Z</time>
      </trkpt>
      <trkpt lat="45.00699" lon="5.48737">
        <ele>1393.1</ele>
        <time>2021-05-08T12:23:09Z</time>
      </trkpt>
      <trkpt lat="45.00708" lon="5.48767">
        <ele>1392</ele>
        <time>2021-05-08T12:23:13Z</time>
      </trkpt>
      <trkpt lat="45.00714" lon="5.48794">
        <ele>1392.3</ele>
        <time>2021-05-08T12:23:18Z</time>
      </trkpt>
      <trkpt lat="45.00717" lon="5.4882">
        <ele>1390.2</ele>
        <time>2021-05-08T12:23:25Z</time>
      </trkpt>
      <trkpt lat="45.00733" lon="5.48833">
        <ele>1389.8</ele>
        <time>2021-05-08T12:23:34Z</time>
      </trkpt>
      <trkpt lat="45.00748" lon="5.48817">
        <ele>1393.1</ele>
        <time>2021-05-08T12:23:46Z</time>
      </trkpt>
      <trkpt lat="45.00765" lon="5.48807">
        <ele>1394.8</ele>
        <time>2021-05-08T12:23:56Z</time>
      </trkpt>
      <trkpt lat="45.00782" lon="5.48798">
        <ele>1395.2</ele>
        <time>2021-05-08T12:24:06Z</time>
      </trkpt>
      <trkpt lat="45.008" lon="5.48794">
        <ele>1396.8</ele>
        <time>2021-05-08T12:24:15Z</time>
      </trkpt>
      <trkpt lat="45.00817" lon="5.48785">
        <ele>1400</ele>
        <time>2021-05-08T12:24:25Z</time>
      </trkpt>
      <trkpt lat="45.00835" lon="5.48775">
        <ele>1398.1</ele>
        <time>2021-05-08T12:24:35Z</time>
      </trkpt>
      <trkpt lat="45.00853" lon="5.48765">
        <ele>1402.5</ele>
        <time>2021-05-08T12:24:44Z</time>
      </trkpt>
      <trkpt lat="45.00871" lon="5.48756">
        <ele>1404.8</ele>
        <time>2021-05-08T12:24:52Z</time>
      </trkpt>
      <trkpt lat="45.00888" lon="5.48743">
        <ele>1406.8</ele>
        <time>2021-05-08T12:25:00Z</time>
      </trkpt>
      <trkpt lat="45.00905" lon="5.48735">
        <ele>1405.4</ele>
        <time>2021-05-08T12:25:08Z</time>
      </trkpt>
      <trkpt lat="45.00925" lon="5.48739">
        <ele>1407.9</ele>
        <time>2021-05-08T12:25:13Z</time>
      </trkpt>
      <trkpt lat="45.00946" lon="5.48747">
        <ele>1406.9</ele>
        <time>2021-05-08T12:25:18Z</time>
      </trkpt>
      <trkpt lat="45.00961" lon="5.48764">
        <ele>1400.4</ele>
        <time>2021-05-08T12:25:22Z</time>
      </trkpt>
      <trkpt lat="45.00976" lon="5.48779">
        <ele>1394.6</ele>
        <time>2021-05-08T12:25:28Z</time>
      </trkpt>
      <trkpt lat="45.00991" lon="5.48796">
        <ele>1389.3</ele>
        <time>2021-05-08T12:25:36Z</time>
      </trkpt>
      <trkpt lat="45.01002" lon="5.48817">
        <ele>1388.5</ele>
        <time>2021-05-08T12:25:43Z</time>
      </trkpt>
      <trkpt lat="45.0102" lon="5.48829">
        <ele>1392.1</ele>
        <time>2021-05-08T12:25:52Z</time>
      </trkpt>
      <trkpt lat="45.01038" lon="5.48821">
        <ele>1399.8</ele>
        <time>2021-05-08T12:26:01Z</time>
      </trkpt>
      <trkpt lat="45.01056" lon="5.48812">
        <ele>1406.8</ele>
        <time>2021-05-08T12:26:11Z</time>
      </trkpt>
      <trkpt lat="45.01075" lon="5.48806">
        <ele>1414.1</ele>
        <time>2021-05-08T12:26:22Z</time>
      </trkpt>
      <trkpt lat="45.01092" lon="5.48795">
        <ele>1414.2</ele>
        <time>2021-05-08T12:26:32Z</time>
      </trkpt>
      <trkpt lat="45.0111" lon="5.48784">
        <ele>1420.5</ele>
        <time>2021-05-08T12:26:41Z</time>
      </trkpt>
      <trkpt lat="45.01128" lon="5.48787">
        <ele>1419.6</ele>
        <time>2021-05-08T12:26:50Z</time>
      </trkpt>
      <trkpt lat="45.01144" lon="5.48801">
        <ele>1405.8</ele>
        <time>2021-05-08T12:26:59Z</time>
      </trkpt>
      <trkpt lat="45.01159" lon="5.48817">
        <ele>1402.6</ele>
        <time>2021-05-08T12:27:07Z</time>
      </trkpt>
      <trkpt lat="45.01174" lon="5.48834">
        <ele>1406.3</ele>
        <time>2021-05-08T12:27:15Z</time>
      </trkpt>
      <trkpt lat="45.01189" lon="5.4885">
        <ele>1407.9</ele>
        <time>2021-05-08T12:27:25Z</time>
      </trkpt>
      <trkpt lat="45.01208" lon="5.48856">
        <ele>1412.2</ele>
        <time>2021-05-08T12:27:37Z</time>
      </trkpt>
      <trkpt lat="45.01227" lon="5.48856">
        <ele>1413.6</ele>
        <time>2021-05-08T12:27:46Z</time>
      </trkpt>
      <trkpt lat="45.01246" lon="5.48861">
        <ele>1413.6</ele>
        <time>2021-05-08T12:28:17Z</time>
      </trkpt>
      <trkpt lat="45.01256" lon="5.48889">
        <ele>1410.7</ele>
        <time>2021-05-08T12:28:24Z</time>
      </trkpt>
      <trkpt lat="45.01263" lon="5.48921">
        <ele>1406.4</ele>
        <time>2021-05-08T12:28:27Z</time>
      </trkpt>
      <trkpt lat="45.01263" lon="5.4895">
        <ele>1403.9</ele>
        <time>2021-05-08T12:28:30Z</time>
      </trkpt>
      <trkpt lat="45.01262" lon="5.48977">
        <ele>1404.8</ele>
        <time>2021-05-08T12:28:35Z</time>
      </trkpt>
      <trkpt lat="45.01257" lon="5.49002">
        <ele>1404.9</ele>
        <time>2021-05-08T12:29:00Z</time>
      </trkpt>
      <trkpt lat="45.01262" lon="5.49028">
        <ele>1399.9</ele>
        <time>2021-05-08T12:29:33Z</time>
      </trkpt>
      <trkpt lat="45.01246" lon="5.49043">
        <ele>1405.4</ele>
        <time>2021-05-08T12:30:22Z</time>
      </trkpt>
      <trkpt lat="45.01229" lon="5.49052">
        <ele>1406.8</ele>
        <time>2021-05-08T12:30:39Z</time>
      </trkpt>
      <trkpt lat="45.01213" lon="5.49066">
        <ele>1419.4</ele>
        <time>2021-05-08T12:31:06Z</time>
      </trkpt>
      <trkpt lat="45.01194" lon="5.49066">
        <ele>1415.4</ele>
        <time>2021-05-08T12:31:16Z</time>
      </trkpt>
      <trkpt lat="45.01175" lon="5.49064">
        <ele>1416.2</ele>
        <time>2021-05-08T12:31:27Z</time>
      </trkpt>
      <trkpt lat="45.01156" lon="5.49069">
        <ele>1419.1</ele>
        <time>2021-05-08T12:31:39Z</time>
      </trkpt>
      <trkpt lat="45.0114" lon="5.49083">
        <ele>1415.3</ele>
        <time>2021-05-08T12:31:52Z</time>
      </trkpt>
      <trkpt lat="45.01127" lon="5.49106">
        <ele>1413.3</ele>
        <time>2021-05-08T12:32:06Z</time>
      </trkpt>
      <trkpt lat="45.01132" lon="5.49132">
        <ele>1411.8</ele>
        <time>2021-05-08T12:32:54Z</time>
      </trkpt>
      <trkpt lat="45.01124" lon="5.49157">
        <ele>1408</ele>
        <time>2021-05-08T12:33:03Z</time>
      </trkpt>
      <trkpt lat="45.0112" lon="5.49183">
        <ele>1407.1</ele>
        <time>2021-05-08T12:33:11Z</time>
      </trkpt>
      <trkpt lat="45.01116" lon="5.49212">
        <ele>1411.2</ele>
        <time>2021-05-08T12:33:15Z</time>
      </trkpt>
      <trkpt lat="45.0111" lon="5.49237">
        <ele>1410</ele>
        <time>2021-05-08T12:33:22Z</time>
      </trkpt>
      <trkpt lat="45.01099" lon="5.49262">
        <ele>1404.6</ele>
        <time>2021-05-08T12:33:27Z</time>
      </trkpt>
      <trkpt lat="45.01093" lon="5.49289">
        <ele>1404.6</ele>
        <time>2021-05-08T12:33:32Z</time>
      </trkpt>
      <trkpt lat="45.01084" lon="5.49314">
        <ele>1405.1</ele>
        <time>2021-05-08T12:33:35Z</time>
      </trkpt>
      <trkpt lat="45.01068" lon="5.49332">
        <ele>1401.3</ele>
        <time>2021-05-08T12:33:39Z</time>
      </trkpt>
      <trkpt lat="45.01051" lon="5.49351">
        <ele>1394.6</ele>
        <time>2021-05-08T12:33:43Z</time>
      </trkpt>
      <trkpt lat="45.0104" lon="5.49374">
        <ele>1391.6</ele>
        <time>2021-05-08T12:33:47Z</time>
      </trkpt>
      <trkpt lat="45.0102" lon="5.4939">
        <ele>1386.7</ele>
        <time>2021-05-08T12:33:50Z</time>
      </trkpt>
      <trkpt lat="45.01007" lon="5.49414">
        <ele>1382.7</ele>
        <time>2021-05-08T12:33:55Z</time>
      </trkpt>
      <trkpt lat="45.00997" lon="5.49436">
        <ele>1380.5</ele>
        <time>2021-05-08T12:33:58Z</time>
      </trkpt>
      <trkpt lat="45.00981" lon="5.49451">
        <ele>1377.5</ele>
        <time>2021-05-08T12:34:01Z</time>
      </trkpt>
      <trkpt lat="45.00978" lon="5.49478">
        <ele>1375.6</ele>
        <time>2021-05-08T12:34:05Z</time>
      </trkpt>
      <trkpt lat="45.00991" lon="5.49498">
        <ele>1374.6</ele>
        <time>2021-05-08T12:34:11Z</time>
      </trkpt>
      <trkpt lat="45.01002" lon="5.49524">
        <ele>1372.8</ele>
        <time>2021-05-08T12:34:19Z</time>
      </trkpt>
      <trkpt lat="45.00997" lon="5.49556">
        <ele>1370.5</ele>
        <time>2021-05-08T12:34:24Z</time>
      </trkpt>
      <trkpt lat="45.00986" lon="5.49577">
        <ele>1367.5</ele>
        <time>2021-05-08T12:34:28Z</time>
      </trkpt>
      <trkpt lat="45.00972" lon="5.49593">
        <ele>1363.4</ele>
        <time>2021-05-08T12:34:32Z</time>
      </trkpt>
      <trkpt lat="45.00959" lon="5.49611">
        <ele>1363</ele>
        <time>2021-05-08T12:34:37Z</time>
      </trkpt>
      <trkpt lat="45.00948" lon="5.49638">
        <ele>1361.1</ele>
        <time>2021-05-08T12:34:41Z</time>
      </trkpt>
      <trkpt lat="45.00934" lon="5.49658">
        <ele>1355.3</ele>
        <time>2021-05-08T12:34:47Z</time>
      </trkpt>
      <trkpt lat="45.00925" lon="5.49684">
        <ele>1353.3</ele>
        <time>2021-05-08T12:34:51Z</time>
      </trkpt>
      <trkpt lat="45.00943" lon="5.49672">
        <ele>1353.8</ele>
        <time>2021-05-08T12:35:23Z</time>
      </trkpt>
      <trkpt lat="45.00962" lon="5.49664">
        <ele>1352.9</ele>
        <time>2021-05-08T12:35:30Z</time>
      </trkpt>
      <trkpt lat="45.00982" lon="5.4966">
        <ele>1355.8</ele>
        <time>2021-05-08T12:35:37Z</time>
      </trkpt>
      <trkpt lat="45.01" lon="5.49662">
        <ele>1358.2</ele>
        <time>2021-05-08T12:35:43Z</time>
      </trkpt>
      <trkpt lat="45.01016" lon="5.49676">
        <ele>1353.8</ele>
        <time>2021-05-08T12:35:49Z</time>
      </trkpt>
      <trkpt lat="45.01035" lon="5.49685">
        <ele>1354.6</ele>
        <time>2021-05-08T12:35:54Z</time>
      </trkpt>
      <trkpt lat="45.01058" lon="5.49687">
        <ele>1353.2</ele>
        <time>2021-05-08T12:35:58Z</time>
      </trkpt>
      <trkpt lat="45.0108" lon="5.49691">
        <ele>1348.5</ele>
        <time>2021-05-08T12:36:01Z</time>
      </trkpt>
      <trkpt lat="45.01104" lon="5.49696">
        <ele>1348</ele>
        <time>2021-05-08T12:36:04Z</time>
      </trkpt>
      <trkpt lat="45.01129" lon="5.49706">
        <ele>1348</ele>
        <time>2021-05-08T12:36:07Z</time>
      </trkpt>
      <trkpt lat="45.01152" lon="5.49715">
        <ele>1346.1</ele>
        <time>2021-05-08T12:36:10Z</time>
      </trkpt>
      <trkpt lat="45.01167" lon="5.49731">
        <ele>1340.3</ele>
        <time>2021-05-08T12:36:13Z</time>
      </trkpt>
      <trkpt lat="45.0118" lon="5.49751">
        <ele>1336.7</ele>
        <time>2021-05-08T12:36:17Z</time>
      </trkpt>
      <trkpt lat="45.01188" lon="5.49775">
        <ele>1334.7</ele>
        <time>2021-05-08T12:36:23Z</time>
      </trkpt>
      <trkpt lat="45.01197" lon="5.49801">
        <ele>1333.7</ele>
        <time>2021-05-08T12:36:30Z</time>
      </trkpt>
      <trkpt lat="45.01203" lon="5.49826">
        <ele>1332.2</ele>
        <time>2021-05-08T12:36:38Z</time>
      </trkpt>
      <trkpt lat="45.01212" lon="5.49856">
        <ele>1330.7</ele>
        <time>2021-05-08T12:36:47Z</time>
      </trkpt>
      <trkpt lat="45.01233" lon="5.49862">
        <ele>1329.8</ele>
        <time>2021-05-08T12:36:53Z</time>
      </trkpt>
      <trkpt lat="45.01239" lon="5.49891">
        <ele>1328.3</ele>
        <time>2021-05-08T12:37:03Z</time>
      </trkpt>
      <trkpt lat="45.01229" lon="5.49916">
        <ele>1324.4</ele>
        <time>2021-05-08T12:37:08Z</time>
      </trkpt>
      <trkpt lat="45.01213" lon="5.49935">
        <ele>1319.5</ele>
        <time>2021-05-08T12:37:16Z</time>
      </trkpt>
      <trkpt lat="45.01198" lon="5.49952">
        <ele>1318.5</ele>
        <time>2021-05-08T12:37:20Z</time>
      </trkpt>
      <trkpt lat="45.01192" lon="5.49976">
        <ele>1317.2</ele>
        <time>2021-05-08T12:37:24Z</time>
      </trkpt>
      <trkpt lat="45.01204" lon="5.49997">
        <ele>1315.9</ele>
        <time>2021-05-08T12:37:29Z</time>
      </trkpt>
      <trkpt lat="45.01221" lon="5.50007">
        <ele>1315.6</ele>
        <time>2021-05-08T12:37:35Z</time>
      </trkpt>
      <trkpt lat="45.01239" lon="5.50013">
        <ele>1315.5</ele>
        <time>2021-05-08T12:37:39Z</time>
      </trkpt>
      <trkpt lat="45.01259" lon="5.50029">
        <ele>1318.2</ele>
        <time>2021-05-08T12:37:43Z</time>
      </trkpt>
      <trkpt lat="45.0128" lon="5.50036">
        <ele>1317.2</ele>
        <time>2021-05-08T12:37:48Z</time>
      </trkpt>
      <trkpt lat="45.013" lon="5.50047">
        <ele>1317</ele>
        <time>2021-05-08T12:37:52Z</time>
      </trkpt>
      <trkpt lat="45.01319" lon="5.50054">
        <ele>1314.9</ele>
        <time>2021-05-08T12:38:17Z</time>
      </trkpt>
      <trkpt lat="45.01337" lon="5.50062">
        <ele>1309.1</ele>
        <time>2021-05-08T12:38:33Z</time>
      </trkpt>
      <trkpt lat="45.01358" lon="5.5007">
        <ele>1307.7</ele>
        <time>2021-05-08T12:38:39Z</time>
      </trkpt>
      <trkpt lat="45.01379" lon="5.50087">
        <ele>1308.8</ele>
        <time>2021-05-08T12:38:42Z</time>
      </trkpt>
      <trkpt lat="45.01399" lon="5.50098">
        <ele>1307.4</ele>
        <time>2021-05-08T12:38:45Z</time>
      </trkpt>
      <trkpt lat="45.0142" lon="5.50104">
        <ele>1303</ele>
        <time>2021-05-08T12:38:49Z</time>
      </trkpt>
      <trkpt lat="45.01438" lon="5.50126">
        <ele>1300.9</ele>
        <time>2021-05-08T12:38:53Z</time>
      </trkpt>
      <trkpt lat="45.01449" lon="5.50146">
        <ele>1298.6</ele>
        <time>2021-05-08T12:38:57Z</time>
      </trkpt>
      <trkpt lat="45.01465" lon="5.5016">
        <ele>1298.4</ele>
        <time>2021-05-08T12:39:00Z</time>
      </trkpt>
      <trkpt lat="45.01487" lon="5.50164">
        <ele>1297.7</ele>
        <time>2021-05-08T12:39:09Z</time>
      </trkpt>
      <trkpt lat="45.01504" lon="5.50174">
        <ele>1295.9</ele>
        <time>2021-05-08T12:39:13Z</time>
      </trkpt>
      <trkpt lat="45.01522" lon="5.50188">
        <ele>1294.7</ele>
        <time>2021-05-08T12:39:16Z</time>
      </trkpt>
      <trkpt lat="45.0154" lon="5.50178">
        <ele>1291.7</ele>
        <time>2021-05-08T12:39:24Z</time>
      </trkpt>
      <trkpt lat="45.01558" lon="5.50178">
        <ele>1292.1</ele>
        <time>2021-05-08T12:39:32Z</time>
      </trkpt>
      <trkpt lat="45.01575" lon="5.50167">
        <ele>1291.1</ele>
        <time>2021-05-08T12:39:39Z</time>
      </trkpt>
      <trkpt lat="45.01593" lon="5.50153">
        <ele>1286.7</ele>
        <time>2021-05-08T12:39:48Z</time>
      </trkpt>
      <trkpt lat="45.0161" lon="5.5014">
        <ele>1285.6</ele>
        <time>2021-05-08T12:39:57Z</time>
      </trkpt>
      <trkpt lat="45.01625" lon="5.50123">
        <ele>1290</ele>
        <time>2021-05-08T12:40:07Z</time>
      </trkpt>
      <trkpt lat="45.0164" lon="5.50108">
        <ele>1290.5</ele>
        <time>2021-05-08T12:40:19Z</time>
      </trkpt>
      <trkpt lat="45.01657" lon="5.50098">
        <ele>1290.5</ele>
        <time>2021-05-08T12:40:56Z</time>
      </trkpt>
      <trkpt lat="45.01671" lon="5.50082">
        <ele>1300.6</ele>
        <time>2021-05-08T12:41:24Z</time>
      </trkpt>
      <trkpt lat="45.01685" lon="5.50063">
        <ele>1302.1</ele>
        <time>2021-05-08T12:41:45Z</time>
      </trkpt>
      <trkpt lat="45.017" lon="5.50048">
        <ele>1298.8</ele>
        <time>2021-05-08T12:44:32Z</time>
      </trkpt>
      <trkpt lat="45.01709" lon="5.50026">
        <ele>1302.5</ele>
        <time>2021-05-08T12:44:57Z</time>
      </trkpt>
      <trkpt lat="45.01713" lon="5.49999">
        <ele>1309.7</ele>
        <time>2021-05-08T12:45:30Z</time>
      </trkpt>
      <trkpt lat="45.01729" lon="5.49983">
        <ele>1313.4</ele>
        <time>2021-05-08T12:45:44Z</time>
      </trkpt>
      <trkpt lat="45.01747" lon="5.49982">
        <ele>1313.6</ele>
        <time>2021-05-08T12:45:54Z</time>
      </trkpt>
      <trkpt lat="45.01766" lon="5.49981">
        <ele>1314.2</ele>
        <time>2021-05-08T12:46:08Z</time>
      </trkpt>
      <trkpt lat="45.01784" lon="5.49985">
        <ele>1302.2</ele>
        <time>2021-05-08T12:46:20Z</time>
      </trkpt>
      <trkpt lat="45.01836" lon="5.50004">
        <ele>1308.1</ele>
        <time>2021-05-08T12:46:26Z</time>
      </trkpt>
      <trkpt lat="45.01854" lon="5.50013">
        <ele>1309.9</ele>
        <time>2021-05-08T12:46:29Z</time>
      </trkpt>
      <trkpt lat="45.01869" lon="5.50028">
        <ele>1308.3</ele>
        <time>2021-05-08T12:46:32Z</time>
      </trkpt>
      <trkpt lat="45.01886" lon="5.50036">
        <ele>1306.6</ele>
        <time>2021-05-08T12:46:36Z</time>
      </trkpt>
      <trkpt lat="45.01907" lon="5.50037">
        <ele>1304.4</ele>
        <time>2021-05-08T12:46:40Z</time>
      </trkpt>
      <trkpt lat="45.01925" lon="5.5004">
        <ele>1307.2</ele>
        <time>2021-05-08T12:46:45Z</time>
      </trkpt>
      <trkpt lat="45.01945" lon="5.50038">
        <ele>1310</ele>
        <time>2021-05-08T12:46:52Z</time>
      </trkpt>
      <trkpt lat="45.01964" lon="5.50045">
        <ele>1305.3</ele>
        <time>2021-05-08T12:46:57Z</time>
      </trkpt>
      <trkpt lat="45.01982" lon="5.50047">
        <ele>1306.9</ele>
        <time>2021-05-08T12:47:02Z</time>
      </trkpt>
      <trkpt lat="45.02001" lon="5.50043">
        <ele>1305.6</ele>
        <time>2021-05-08T12:47:08Z</time>
      </trkpt>
      <trkpt lat="45.02019" lon="5.50047">
        <ele>1302.5</ele>
        <time>2021-05-08T12:47:15Z</time>
      </trkpt>
      <trkpt lat="45.02037" lon="5.50052">
        <ele>1300.1</ele>
        <time>2021-05-08T12:47:22Z</time>
      </trkpt>
      <trkpt lat="45.02055" lon="5.50061">
        <ele>1297.2</ele>
        <time>2021-05-08T12:47:26Z</time>
      </trkpt>
      <trkpt lat="45.02076" lon="5.50068">
        <ele>1294.5</ele>
        <time>2021-05-08T12:47:29Z</time>
      </trkpt>
      <trkpt lat="45.021" lon="5.50076">
        <ele>1290.2</ele>
        <time>2021-05-08T12:47:33Z</time>
      </trkpt>
      <trkpt lat="45.02123" lon="5.50087">
        <ele>1290</ele>
        <time>2021-05-08T12:47:37Z</time>
      </trkpt>
      <trkpt lat="45.02142" lon="5.50102">
        <ele>1284.2</ele>
        <time>2021-05-08T12:47:40Z</time>
      </trkpt>
      <trkpt lat="45.02158" lon="5.50119">
        <ele>1280.7</ele>
        <time>2021-05-08T12:47:45Z</time>
      </trkpt>
      <trkpt lat="45.02172" lon="5.50137">
        <ele>1275.3</ele>
        <time>2021-05-08T12:47:50Z</time>
      </trkpt>
      <trkpt lat="45.0219" lon="5.50147">
        <ele>1269</ele>
        <time>2021-05-08T12:48:06Z</time>
      </trkpt>
      <trkpt lat="45.02203" lon="5.5017">
        <ele>1259.4</ele>
        <time>2021-05-08T12:48:14Z</time>
      </trkpt>
      <trkpt lat="45.02217" lon="5.50186">
        <ele>1258</ele>
        <time>2021-05-08T12:48:19Z</time>
      </trkpt>
      <trkpt lat="45.0223" lon="5.50211">
        <ele>1262.6</ele>
        <time>2021-05-08T12:48:23Z</time>
      </trkpt>
      <trkpt lat="45.02249" lon="5.50208">
        <ele>1255.5</ele>
        <time>2021-05-08T12:48:41Z</time>
      </trkpt>
      <trkpt lat="45.02265" lon="5.50193">
        <ele>1257.2</ele>
        <time>2021-05-08T12:48:51Z</time>
      </trkpt>
      <trkpt lat="45.02281" lon="5.5018">
        <ele>1260.7</ele>
        <time>2021-05-08T12:49:03Z</time>
      </trkpt>
      <trkpt lat="45.02298" lon="5.50169">
        <ele>1261</ele>
        <time>2021-05-08T12:49:36Z</time>
      </trkpt>
      <trkpt lat="45.0231" lon="5.5015">
        <ele>1261.7</ele>
        <time>2021-05-08T12:50:09Z</time>
      </trkpt>
      <trkpt lat="45.02325" lon="5.50134">
        <ele>1259.9</ele>
        <time>2021-05-08T12:50:36Z</time>
      </trkpt>
      <trkpt lat="45.02341" lon="5.5012">
        <ele>1269.9</ele>
        <time>2021-05-08T12:51:09Z</time>
      </trkpt>
      <trkpt lat="45.02358" lon="5.5011">
        <ele>1276.3</ele>
        <time>2021-05-08T12:51:42Z</time>
      </trkpt>
      <trkpt lat="45.02372" lon="5.50093">
        <ele>1282.8</ele>
        <time>2021-05-08T12:51:58Z</time>
      </trkpt>
      <trkpt lat="45.02385" lon="5.50076">
        <ele>1283.8</ele>
        <time>2021-05-08T12:52:11Z</time>
      </trkpt>
      <trkpt lat="45.024" lon="5.50061">
        <ele>1287.1</ele>
        <time>2021-05-08T12:52:56Z</time>
      </trkpt>
      <trkpt lat="45.02407" lon="5.50037">
        <ele>1283.1</ele>
        <time>2021-05-08T12:55:03Z</time>
      </trkpt>
      <trkpt lat="45.02417" lon="5.50015">
        <ele>1292.3</ele>
        <time>2021-05-08T12:55:50Z</time>
      </trkpt>
      <trkpt lat="45.0242" lon="5.4999">
        <ele>1306.8</ele>
        <time>2021-05-08T12:56:46Z</time>
      </trkpt>
      <trkpt lat="45.02431" lon="5.49969">
        <ele>1313.3</ele>
        <time>2021-05-08T12:59:26Z</time>
      </trkpt>
      <trkpt lat="45.02441" lon="5.49948">
        <ele>1318.2</ele>
        <time>2021-05-08T12:59:40Z</time>
      </trkpt>
      <trkpt lat="45.02446" lon="5.49919">
        <ele>1313.9</ele>
        <time>2021-05-08T12:59:52Z</time>
      </trkpt>
      <trkpt lat="45.02457" lon="5.49898">
        <ele>1315.3</ele>
        <time>2021-05-08T13:00:02Z</time>
      </trkpt>
      <trkpt lat="45.02462" lon="5.49873">
        <ele>1320</ele>
        <time>2021-05-08T13:00:14Z</time>
      </trkpt>
      <trkpt lat="45.02473" lon="5.49852">
        <ele>1320.3</ele>
        <time>2021-05-08T13:00:41Z</time>
      </trkpt>
      <trkpt lat="45.02488" lon="5.49836">
        <ele>1321.9</ele>
        <time>2021-05-08T13:00:59Z</time>
      </trkpt>
      <trkpt lat="45.02498" lon="5.49815">
        <ele>1326.2</ele>
        <time>2021-05-08T13:01:33Z</time>
      </trkpt>
      <trkpt lat="45.02496" lon="5.4979">
        <ele>1327.6</ele>
        <time>2021-05-08T13:02:02Z</time>
      </trkpt>
      <trkpt lat="45.0251" lon="5.49772">
        <ele>1326.9</ele>
        <time>2021-05-08T13:02:36Z</time>
      </trkpt>
      <trkpt lat="45.02525" lon="5.49757">
        <ele>1329.3</ele>
        <time>2021-05-08T13:02:46Z</time>
      </trkpt>
      <trkpt lat="45.0254" lon="5.49739">
        <ele>1325.4</ele>
        <time>2021-05-08T13:02:53Z</time>
      </trkpt>
      <trkpt lat="45.02554" lon="5.49719">
        <ele>1324.8</ele>
        <time>2021-05-08T13:02:59Z</time>
      </trkpt>
      <trkpt lat="45.02571" lon="5.49708">
        <ele>1322.4</ele>
        <time>2021-05-08T13:03:07Z</time>
      </trkpt>
      <trkpt lat="45.02593" lon="5.4971">
        <ele>1326.1</ele>
        <time>2021-05-08T13:03:15Z</time>
      </trkpt>
      <trkpt lat="45.02611" lon="5.497">
        <ele>1333.2</ele>
        <time>2021-05-08T13:03:18Z</time>
      </trkpt>
      <trkpt lat="45.02629" lon="5.4969">
        <ele>1336.2</ele>
        <time>2021-05-08T13:03:26Z</time>
      </trkpt>
      <trkpt lat="45.02646" lon="5.49674">
        <ele>1336.1</ele>
        <time>2021-05-08T13:03:35Z</time>
      </trkpt>
      <trkpt lat="45.02666" lon="5.49664">
        <ele>1333.4</ele>
        <time>2021-05-08T13:03:40Z</time>
      </trkpt>
      <trkpt lat="45.02687" lon="5.49654">
        <ele>1333.6</ele>
        <time>2021-05-08T13:03:45Z</time>
      </trkpt>
      <trkpt lat="45.02705" lon="5.49644">
        <ele>1332</ele>
        <time>2021-05-08T13:03:51Z</time>
      </trkpt>
      <trkpt lat="45.02723" lon="5.49641">
        <ele>1330.7</ele>
        <time>2021-05-08T13:03:55Z</time>
      </trkpt>
      <trkpt lat="45.02741" lon="5.4964">
        <ele>1332.2</ele>
        <time>2021-05-08T13:03:59Z</time>
      </trkpt>
      <trkpt lat="45.02761" lon="5.4964">
        <ele>1333.8</ele>
        <time>2021-05-08T13:04:03Z</time>
      </trkpt>
      <trkpt lat="45.02781" lon="5.49636">
        <ele>1336.5</ele>
        <time>2021-05-08T13:04:09Z</time>
      </trkpt>
      <trkpt lat="45.028" lon="5.49631">
        <ele>1337.2</ele>
        <time>2021-05-08T13:04:14Z</time>
      </trkpt>
      <trkpt lat="45.02818" lon="5.49623">
        <ele>1336.9</ele>
        <time>2021-05-08T13:04:23Z</time>
      </trkpt>
      <trkpt lat="45.02835" lon="5.4961">
        <ele>1331.7</ele>
        <time>2021-05-08T13:04:32Z</time>
      </trkpt>
      <trkpt lat="45.02848" lon="5.49592">
        <ele>1326.2</ele>
        <time>2021-05-08T13:04:43Z</time>
      </trkpt>
      <trkpt lat="45.02863" lon="5.49576">
        <ele>1319.6</ele>
        <time>2021-05-08T13:04:50Z</time>
      </trkpt>
      <trkpt lat="45.02881" lon="5.49562">
        <ele>1321.5</ele>
        <time>2021-05-08T13:04:56Z</time>
      </trkpt>
      <trkpt lat="45.02899" lon="5.49548">
        <ele>1320</ele>
        <time>2021-05-08T13:05:02Z</time>
      </trkpt>
      <trkpt lat="45.02918" lon="5.4954">
        <ele>1326.6</ele>
        <time>2021-05-08T13:05:10Z</time>
      </trkpt>
      <trkpt lat="45.02936" lon="5.49535">
        <ele>1329.5</ele>
        <time>2021-05-08T13:05:16Z</time>
      </trkpt>
      <trkpt lat="45.02957" lon="5.49535">
        <ele>1330.9</ele>
        <time>2021-05-08T13:05:22Z</time>
      </trkpt>
      <trkpt lat="45.02975" lon="5.49543">
        <ele>1338.4</ele>
        <time>2021-05-08T13:05:30Z</time>
      </trkpt>
      <trkpt lat="45.02991" lon="5.49555">
        <ele>1346.3</ele>
        <time>2021-05-08T13:05:39Z</time>
      </trkpt>
      <trkpt lat="45.02992" lon="5.49584">
        <ele>1340.4</ele>
        <time>2021-05-08T13:05:47Z</time>
      </trkpt>
      <trkpt lat="45.02993" lon="5.49611">
        <ele>1336.1</ele>
        <time>2021-05-08T13:05:53Z</time>
      </trkpt>
      <trkpt lat="45.0299" lon="5.49637">
        <ele>1337.5</ele>
        <time>2021-05-08T13:06:01Z</time>
      </trkpt>
      <trkpt lat="45.02987" lon="5.49665">
        <ele>1330.1</ele>
        <time>2021-05-08T13:06:09Z</time>
      </trkpt>
      <trkpt lat="45.02979" lon="5.49689">
        <ele>1325.3</ele>
        <time>2021-05-08T13:06:21Z</time>
      </trkpt>
      <trkpt lat="45.02967" lon="5.49707">
        <ele>1323.1</ele>
        <time>2021-05-08T13:06:44Z</time>
      </trkpt>
      <trkpt lat="45.02968" lon="5.49736">
        <ele>1322.7</ele>
        <time>2021-05-08T13:07:01Z</time>
      </trkpt>
      <trkpt lat="45.02968" lon="5.49764">
        <ele>1318.2</ele>
        <time>2021-05-08T13:07:07Z</time>
      </trkpt>
      <trkpt lat="45.02954" lon="5.49781">
        <ele>1317.7</ele>
        <time>2021-05-08T13:07:18Z</time>
      </trkpt>
      <trkpt lat="45.02936" lon="5.49791">
        <ele>1318.9</ele>
        <time>2021-05-08T13:07:29Z</time>
      </trkpt>
      <trkpt lat="45.02918" lon="5.498">
        <ele>1318.3</ele>
        <time>2021-05-08T13:07:38Z</time>
      </trkpt>
      <trkpt lat="45.02906" lon="5.49818">
        <ele>1321.4</ele>
        <time>2021-05-08T13:07:49Z</time>
      </trkpt>
      <trkpt lat="45.02888" lon="5.49827">
        <ele>1321.8</ele>
        <time>2021-05-08T13:07:54Z</time>
      </trkpt>
      <trkpt lat="45.02865" lon="5.49836">
        <ele>1319.5</ele>
        <time>2021-05-08T13:07:59Z</time>
      </trkpt>
      <trkpt lat="45.02847" lon="5.49843">
        <ele>1319.8</ele>
        <time>2021-05-08T13:08:02Z</time>
      </trkpt>
      <trkpt lat="45.02827" lon="5.49847">
        <ele>1316.4</ele>
        <time>2021-05-08T13:08:06Z</time>
      </trkpt>
      <trkpt lat="45.02808" lon="5.49856">
        <ele>1317.2</ele>
        <time>2021-05-08T13:08:14Z</time>
      </trkpt>
      <trkpt lat="45.0279" lon="5.49864">
        <ele>1317.3</ele>
        <time>2021-05-08T13:08:21Z</time>
      </trkpt>
      <trkpt lat="45.02773" lon="5.49878">
        <ele>1319.5</ele>
        <time>2021-05-08T13:08:26Z</time>
      </trkpt>
      <trkpt lat="45.02756" lon="5.49889">
        <ele>1318.6</ele>
        <time>2021-05-08T13:08:35Z</time>
      </trkpt>
      <trkpt lat="45.02736" lon="5.49895">
        <ele>1313.1</ele>
        <time>2021-05-08T13:08:41Z</time>
      </trkpt>
      <trkpt lat="45.02716" lon="5.49898">
        <ele>1312.3</ele>
        <time>2021-05-08T13:08:46Z</time>
      </trkpt>
      <trkpt lat="45.02694" lon="5.49915">
        <ele>1308.8</ele>
        <time>2021-05-08T13:08:51Z</time>
      </trkpt>
      <trkpt lat="45.02675" lon="5.49936">
        <ele>1307.8</ele>
        <time>2021-05-08T13:08:54Z</time>
      </trkpt>
      <trkpt lat="45.02651" lon="5.49939">
        <ele>1302.3</ele>
        <time>2021-05-08T13:08:57Z</time>
      </trkpt>
      <trkpt lat="45.0263" lon="5.49936">
        <ele>1300.3</ele>
        <time>2021-05-08T13:09:00Z</time>
      </trkpt>
      <trkpt lat="45.0261" lon="5.49944">
        <ele>1299.9</ele>
        <time>2021-05-08T13:09:04Z</time>
      </trkpt>
      <trkpt lat="45.02596" lon="5.49964">
        <ele>1297.9</ele>
        <time>2021-05-08T13:09:09Z</time>
      </trkpt>
      <trkpt lat="45.02584" lon="5.4999">
        <ele>1298.6</ele>
        <time>2021-05-08T13:09:13Z</time>
      </trkpt>
      <trkpt lat="45.02565" lon="5.5001">
        <ele>1295.4</ele>
        <time>2021-05-08T13:09:17Z</time>
      </trkpt>
      <trkpt lat="45.02554" lon="5.50035">
        <ele>1293.1</ele>
        <time>2021-05-08T13:09:21Z</time>
      </trkpt>
      <trkpt lat="45.02544" lon="5.50061">
        <ele>1290.9</ele>
        <time>2021-05-08T13:09:25Z</time>
      </trkpt>
      <trkpt lat="45.02534" lon="5.50087">
        <ele>1286.7</ele>
        <time>2021-05-08T13:09:30Z</time>
      </trkpt>
      <trkpt lat="45.02518" lon="5.50103">
        <ele>1284.2</ele>
        <time>2021-05-08T13:09:36Z</time>
      </trkpt>
      <trkpt lat="45.02507" lon="5.50127">
        <ele>1283.6</ele>
        <time>2021-05-08T13:09:43Z</time>
      </trkpt>
      <trkpt lat="45.02503" lon="5.50153">
        <ele>1283.2</ele>
        <time>2021-05-08T13:09:49Z</time>
      </trkpt>
      <trkpt lat="45.02503" lon="5.5018">
        <ele>1281.7</ele>
        <time>2021-05-08T13:09:54Z</time>
      </trkpt>
      <trkpt lat="45.02498" lon="5.50205">
        <ele>1279.9</ele>
        <time>2021-05-08T13:09:57Z</time>
      </trkpt>
      <trkpt lat="45.02495" lon="5.50233">
        <ele>1277.3</ele>
        <time>2021-05-08T13:10:02Z</time>
      </trkpt>
      <trkpt lat="45.0249" lon="5.50258">
        <ele>1276</ele>
        <time>2021-05-08T13:10:08Z</time>
      </trkpt>
      <trkpt lat="45.02488" lon="5.50283">
        <ele>1271.2</ele>
        <time>2021-05-08T13:10:27Z</time>
      </trkpt>
      <trkpt lat="45.02471" lon="5.503">
        <ele>1270.4</ele>
        <time>2021-05-08T13:10:47Z</time>
      </trkpt>
      <trkpt lat="45.0247" lon="5.50326">
        <ele>1268.9</ele>
        <time>2021-05-08T13:10:56Z</time>
      </trkpt>
      <trkpt lat="45.0247" lon="5.50355">
        <ele>1262.7</ele>
        <time>2021-05-08T13:11:02Z</time>
      </trkpt>
      <trkpt lat="45.02465" lon="5.50382">
        <ele>1260.1</ele>
        <time>2021-05-08T13:11:09Z</time>
      </trkpt>
      <trkpt lat="45.02458" lon="5.50406">
        <ele>1258.6</ele>
        <time>2021-05-08T13:11:14Z</time>
      </trkpt>
      <trkpt lat="45.02456" lon="5.50434">
        <ele>1255.9</ele>
        <time>2021-05-08T13:11:21Z</time>
      </trkpt>
      <trkpt lat="45.0245" lon="5.50463">
        <ele>1259.2</ele>
        <time>2021-05-08T13:11:28Z</time>
      </trkpt>
      <trkpt lat="45.02432" lon="5.50476">
        <ele>1258.6</ele>
        <time>2021-05-08T13:11:35Z</time>
      </trkpt>
      <trkpt lat="45.02416" lon="5.50489">
        <ele>1256.4</ele>
        <time>2021-05-08T13:11:41Z</time>
      </trkpt>
      <trkpt lat="45.02414" lon="5.50515">
        <ele>1258.9</ele>
        <time>2021-05-08T13:11:46Z</time>
      </trkpt>
      <trkpt lat="45.02418" lon="5.50541">
        <ele>1257.3</ele>
        <time>2021-05-08T13:11:52Z</time>
      </trkpt>
      <trkpt lat="45.02425" lon="5.50567">
        <ele>1251.8</ele>
        <time>2021-05-08T13:11:56Z</time>
      </trkpt>
      <trkpt lat="45.02431" lon="5.50595">
        <ele>1247.8</ele>
        <time>2021-05-08T13:12:00Z</time>
      </trkpt>
      <trkpt lat="45.02442" lon="5.50634">
        <ele>1247.7</ele>
        <time>2021-05-08T13:12:05Z</time>
      </trkpt>
      <trkpt lat="45.02447" lon="5.50668">
        <ele>1247.3</ele>
        <time>2021-05-08T13:12:09Z</time>
      </trkpt>
      <trkpt lat="45.02444" lon="5.50694">
        <ele>1238.1</ele>
        <time>2021-05-08T13:12:22Z</time>
      </trkpt>
      <trkpt lat="45.02437" lon="5.50719">
        <ele>1231.5</ele>
        <time>2021-05-08T13:12:45Z</time>
      </trkpt>
      <trkpt lat="45.02423" lon="5.50741">
        <ele>1228.1</ele>
        <time>2021-05-08T13:13:23Z</time>
      </trkpt>
      <trkpt lat="45.02412" lon="5.50768">
        <ele>1224.4</ele>
        <time>2021-05-08T13:13:27Z</time>
      </trkpt>
      <trkpt lat="45.024" lon="5.50793">
        <ele>1222.3</ele>
        <time>2021-05-08T13:13:33Z</time>
      </trkpt>
      <trkpt lat="45.02392" lon="5.50823">
        <ele>1217.2</ele>
        <time>2021-05-08T13:13:38Z</time>
      </trkpt>
      <trkpt lat="45.02376" lon="5.50844">
        <ele>1213.7</ele>
        <time>2021-05-08T13:13:41Z</time>
      </trkpt>
      <trkpt lat="45.02367" lon="5.50867">
        <ele>1214.2</ele>
        <time>2021-05-08T13:14:27Z</time>
      </trkpt>
      <trkpt lat="45.02349" lon="5.50868">
        <ele>1210.7</ele>
        <time>2021-05-08T13:14:39Z</time>
      </trkpt>
      <trkpt lat="45.02367" lon="5.50865">
        <ele>1210.7</ele>
        <time>2021-05-08T13:17:20Z</time>
      </trkpt>
      <trkpt lat="45.02386" lon="5.50866">
        <ele>1210.6</ele>
        <time>2021-05-08T13:17:29Z</time>
      </trkpt>
      <trkpt lat="45.02398" lon="5.50889">
        <ele>1207.6</ele>
        <time>2021-05-08T13:17:35Z</time>
      </trkpt>
      <trkpt lat="45.02412" lon="5.50914">
        <ele>1208.5</ele>
        <time>2021-05-08T13:17:41Z</time>
      </trkpt>
      <trkpt lat="45.02428" lon="5.50934">
        <ele>1201.8</ele>
        <time>2021-05-08T13:17:45Z</time>
      </trkpt>
      <trkpt lat="45.02445" lon="5.50946">
        <ele>1197.8</ele>
        <time>2021-05-08T13:17:51Z</time>
      </trkpt>
      <trkpt lat="45.02459" lon="5.50964">
        <ele>1199</ele>
        <time>2021-05-08T13:17:56Z</time>
      </trkpt>
      <trkpt lat="45.02474" lon="5.5098">
        <ele>1197.1</ele>
        <time>2021-05-08T13:17:59Z</time>
      </trkpt>
      <trkpt lat="45.02483" lon="5.51007">
        <ele>1192.6</ele>
        <time>2021-05-08T13:18:04Z</time>
      </trkpt>
      <trkpt lat="45.02482" lon="5.51033">
        <ele>1188.6</ele>
        <time>2021-05-08T13:18:07Z</time>
      </trkpt>
      <trkpt lat="45.02484" lon="5.51059">
        <ele>1187</ele>
        <time>2021-05-08T13:18:10Z</time>
      </trkpt>
      <trkpt lat="45.02484" lon="5.51086">
        <ele>1182.5</ele>
        <time>2021-05-08T13:18:15Z</time>
      </trkpt>
      <trkpt lat="45.02489" lon="5.51113">
        <ele>1182.2</ele>
        <time>2021-05-08T13:18:19Z</time>
      </trkpt>
      <trkpt lat="45.02479" lon="5.51135">
        <ele>1180.8</ele>
        <time>2021-05-08T13:18:25Z</time>
      </trkpt>
      <trkpt lat="45.02474" lon="5.5116">
        <ele>1178.6</ele>
        <time>2021-05-08T13:18:31Z</time>
      </trkpt>
      <trkpt lat="45.02472" lon="5.51193">
        <ele>1174.8</ele>
        <time>2021-05-08T13:18:37Z</time>
      </trkpt>
      <trkpt lat="45.0247" lon="5.51222">
        <ele>1173.3</ele>
        <time>2021-05-08T13:18:41Z</time>
      </trkpt>
      <trkpt lat="45.02476" lon="5.51253">
        <ele>1174.2</ele>
        <time>2021-05-08T13:18:45Z</time>
      </trkpt>
      <trkpt lat="45.02485" lon="5.51279">
        <ele>1173.7</ele>
        <time>2021-05-08T13:18:48Z</time>
      </trkpt>
      <trkpt lat="45.02488" lon="5.51304">
        <ele>1169.8</ele>
        <time>2021-05-08T13:18:52Z</time>
      </trkpt>
      <trkpt lat="45.02479" lon="5.51327">
        <ele>1172.3</ele>
        <time>2021-05-08T13:19:00Z</time>
      </trkpt>
      <trkpt lat="45.02471" lon="5.51354">
        <ele>1174.4</ele>
        <time>2021-05-08T13:19:06Z</time>
      </trkpt>
      <trkpt lat="45.02468" lon="5.51381">
        <ele>1176.1</ele>
        <time>2021-05-08T13:19:12Z</time>
      </trkpt>
      <trkpt lat="45.02466" lon="5.51413">
        <ele>1172.7</ele>
        <time>2021-05-08T13:19:16Z</time>
      </trkpt>
      <trkpt lat="45.02465" lon="5.51443">
        <ele>1171.1</ele>
        <time>2021-05-08T13:19:19Z</time>
      </trkpt>
      <trkpt lat="45.02468" lon="5.51472">
        <ele>1172.5</ele>
        <time>2021-05-08T13:19:24Z</time>
      </trkpt>
      <trkpt lat="45.02472" lon="5.51497">
        <ele>1172.3</ele>
        <time>2021-05-08T13:19:31Z</time>
      </trkpt>
      <trkpt lat="45.02481" lon="5.51521">
        <ele>1170.9</ele>
        <time>2021-05-08T13:19:39Z</time>
      </trkpt>
      <trkpt lat="45.02486" lon="5.51548">
        <ele>1170.6</ele>
        <time>2021-05-08T13:20:07Z</time>
      </trkpt>
      <trkpt lat="45.02469" lon="5.51564">
        <ele>1168.2</ele>
        <time>2021-05-08T13:20:11Z</time>
      </trkpt>
      <trkpt lat="45.02452" lon="5.51571">
        <ele>1166.6</ele>
        <time>2021-05-08T13:20:15Z</time>
      </trkpt>
      <trkpt lat="45.02434" lon="5.51579">
        <ele>1166.9</ele>
        <time>2021-05-08T13:20:20Z</time>
      </trkpt>
      <trkpt lat="45.02418" lon="5.51592">
        <ele>1167.8</ele>
        <time>2021-05-08T13:20:24Z</time>
      </trkpt>
      <trkpt lat="45.02397" lon="5.516">
        <ele>1169.1</ele>
        <time>2021-05-08T13:20:28Z</time>
      </trkpt>
      <trkpt lat="45.02389" lon="5.51631">
        <ele>1165.4</ele>
        <time>2021-05-08T13:20:33Z</time>
      </trkpt>
      <trkpt lat="45.02395" lon="5.51661">
        <ele>1160.8</ele>
        <time>2021-05-08T13:20:36Z</time>
      </trkpt>
      <trkpt lat="45.02408" lon="5.5169">
        <ele>1157.4</ele>
        <time>2021-05-08T13:20:39Z</time>
      </trkpt>
      <trkpt lat="45.02427" lon="5.51708">
        <ele>1154.9</ele>
        <time>2021-05-08T13:20:42Z</time>
      </trkpt>
      <trkpt lat="45.02446" lon="5.51729">
        <ele>1151</ele>
        <time>2021-05-08T13:20:45Z</time>
      </trkpt>
      <trkpt lat="45.02461" lon="5.51744">
        <ele>1147.2</ele>
        <time>2021-05-08T13:20:47Z</time>
      </trkpt>
      <trkpt lat="45.02476" lon="5.51761">
        <ele>1145.2</ele>
        <time>2021-05-08T13:20:50Z</time>
      </trkpt>
      <trkpt lat="45.02495" lon="5.51773">
        <ele>1142.5</ele>
        <time>2021-05-08T13:20:56Z</time>
      </trkpt>
      <trkpt lat="45.02513" lon="5.51785">
        <ele>1140.7</ele>
        <time>2021-05-08T13:21:00Z</time>
      </trkpt>
      <trkpt lat="45.02527" lon="5.5181">
        <ele>1138.1</ele>
        <time>2021-05-08T13:21:04Z</time>
      </trkpt>
      <trkpt lat="45.02542" lon="5.51835">
        <ele>1136</ele>
        <time>2021-05-08T13:21:07Z</time>
      </trkpt>
      <trkpt lat="45.02556" lon="5.51854">
        <ele>1133.7</ele>
        <time>2021-05-08T13:21:09Z</time>
      </trkpt>
      <trkpt lat="45.02569" lon="5.51874">
        <ele>1131.6</ele>
        <time>2021-05-08T13:21:11Z</time>
      </trkpt>
      <trkpt lat="45.02581" lon="5.51893">
        <ele>1129.2</ele>
        <time>2021-05-08T13:21:13Z</time>
      </trkpt>
      <trkpt lat="45.02597" lon="5.51923">
        <ele>1125.1</ele>
        <time>2021-05-08T13:21:16Z</time>
      </trkpt>
      <trkpt lat="45.02604" lon="5.51946">
        <ele>1124.3</ele>
        <time>2021-05-08T13:21:18Z</time>
      </trkpt>
      <trkpt lat="45.02611" lon="5.51978">
        <ele>1123.4</ele>
        <time>2021-05-08T13:21:21Z</time>
      </trkpt>
      <trkpt lat="45.02621" lon="5.52005">
        <ele>1121.9</ele>
        <time>2021-05-08T13:21:25Z</time>
      </trkpt>
      <trkpt lat="45.02632" lon="5.52027">
        <ele>1119.3</ele>
        <time>2021-05-08T13:21:28Z</time>
      </trkpt>
      <trkpt lat="45.02642" lon="5.52051">
        <ele>1121.4</ele>
        <time>2021-05-08T13:22:02Z</time>
      </trkpt>
      <trkpt lat="45.02657" lon="5.52071">
        <ele>1121.4</ele>
        <time>2021-05-08T13:22:08Z</time>
      </trkpt>
      <trkpt lat="45.02675" lon="5.52076">
        <ele>1120.9</ele>
        <time>2021-05-08T13:22:13Z</time>
      </trkpt>
      <trkpt lat="45.02697" lon="5.52085">
        <ele>1121.8</ele>
        <time>2021-05-08T13:22:18Z</time>
      </trkpt>
      <trkpt lat="45.02716" lon="5.52099">
        <ele>1120.6</ele>
        <time>2021-05-08T13:22:22Z</time>
      </trkpt>
      <trkpt lat="45.02732" lon="5.52111">
        <ele>1118.9</ele>
        <time>2021-05-08T13:22:25Z</time>
      </trkpt>
      <trkpt lat="45.02749" lon="5.52125">
        <ele>1117.3</ele>
        <time>2021-05-08T13:22:28Z</time>
      </trkpt>
      <trkpt lat="45.02767" lon="5.52143">
        <ele>1116.2</ele>
        <time>2021-05-08T13:22:31Z</time>
      </trkpt>
      <trkpt lat="45.02774" lon="5.52166">
        <ele>1112.7</ele>
        <time>2021-05-08T13:22:35Z</time>
      </trkpt>
      <trkpt lat="45.02793" lon="5.52185">
        <ele>1112</ele>
        <time>2021-05-08T13:22:38Z</time>
      </trkpt>
      <trkpt lat="45.02806" lon="5.52207">
        <ele>1110.1</ele>
        <time>2021-05-08T13:22:41Z</time>
      </trkpt>
      <trkpt lat="45.02818" lon="5.52234">
        <ele>1108.9</ele>
        <time>2021-05-08T13:22:45Z</time>
      </trkpt>
      <trkpt lat="45.02833" lon="5.52256">
        <ele>1110.5</ele>
        <time>2021-05-08T13:22:50Z</time>
      </trkpt>
      <trkpt lat="45.02847" lon="5.52278">
        <ele>1108.9</ele>
        <time>2021-05-08T13:22:56Z</time>
      </trkpt>
      <trkpt lat="45.02859" lon="5.52303">
        <ele>1113.3</ele>
        <time>2021-05-08T13:23:01Z</time>
      </trkpt>
      <trkpt lat="45.0287" lon="5.52329">
        <ele>1113</ele>
        <time>2021-05-08T13:23:06Z</time>
      </trkpt>
      <trkpt lat="45.02883" lon="5.52353">
        <ele>1111.5</ele>
        <time>2021-05-08T13:23:11Z</time>
      </trkpt>
      <trkpt lat="45.02892" lon="5.52377">
        <ele>1110.1</ele>
        <time>2021-05-08T13:23:16Z</time>
      </trkpt>
      <trkpt lat="45.02901" lon="5.524">
        <ele>1108.7</ele>
        <time>2021-05-08T13:23:21Z</time>
      </trkpt>
      <trkpt lat="45.02916" lon="5.52422">
        <ele>1110.6</ele>
        <time>2021-05-08T13:23:26Z</time>
      </trkpt>
      <trkpt lat="45.02929" lon="5.52445">
        <ele>1110.8</ele>
        <time>2021-05-08T13:23:30Z</time>
      </trkpt>
      <trkpt lat="45.02944" lon="5.5247">
        <ele>1110.6</ele>
        <time>2021-05-08T13:23:34Z</time>
      </trkpt>
      <trkpt lat="45.0296" lon="5.52494">
        <ele>1110.5</ele>
        <time>2021-05-08T13:23:38Z</time>
      </trkpt>
      <trkpt lat="45.02976" lon="5.5252">
        <ele>1108.1</ele>
        <time>2021-05-08T13:23:42Z</time>
      </trkpt>
      <trkpt lat="45.02991" lon="5.52546">
        <ele>1107.9</ele>
        <time>2021-05-08T13:23:46Z</time>
      </trkpt>
      <trkpt lat="45.03004" lon="5.52571">
        <ele>1107</ele>
        <time>2021-05-08T13:23:50Z</time>
      </trkpt>
      <trkpt lat="45.03017" lon="5.52593">
        <ele>1106.4</ele>
        <time>2021-05-08T13:23:55Z</time>
      </trkpt>
      <trkpt lat="45.03032" lon="5.52609">
        <ele>1106.5</ele>
        <time>2021-05-08T13:23:59Z</time>
      </trkpt>
      <trkpt lat="45.03051" lon="5.52624">
        <ele>1105.3</ele>
        <time>2021-05-08T13:24:04Z</time>
      </trkpt>
      <trkpt lat="45.03067" lon="5.5264">
        <ele>1103.7</ele>
        <time>2021-05-08T13:24:09Z</time>
      </trkpt>
      <trkpt lat="45.03084" lon="5.52648">
        <ele>1102.8</ele>
        <time>2021-05-08T13:24:13Z</time>
      </trkpt>
      <trkpt lat="45.03104" lon="5.52659">
        <ele>1103.5</ele>
        <time>2021-05-08T13:24:18Z</time>
      </trkpt>
      <trkpt lat="45.03125" lon="5.52668">
        <ele>1102.2</ele>
        <time>2021-05-08T13:24:23Z</time>
      </trkpt>
      <trkpt lat="45.03143" lon="5.52673">
        <ele>1100.5</ele>
        <time>2021-05-08T13:24:31Z</time>
      </trkpt>
      <trkpt lat="45.03133" lon="5.52648">
        <ele>1099.6</ele>
        <time>2021-05-08T13:24:40Z</time>
      </trkpt>
      <trkpt lat="45.03146" lon="5.52667">
        <ele>1099.5</ele>
        <time>2021-05-08T13:24:51Z</time>
      </trkpt>
      <trkpt lat="45.03162" lon="5.5268">
        <ele>1099.1</ele>
        <time>2021-05-08T13:24:58Z</time>
      </trkpt>
      <trkpt lat="45.03172" lon="5.52703">
        <ele>1100.6</ele>
        <time>2021-05-08T13:25:09Z</time>
      </trkpt>
      <trkpt lat="45.03186" lon="5.52721">
        <ele>1102.8</ele>
        <time>2021-05-08T13:25:21Z</time>
      </trkpt>
      <trkpt lat="45.03176" lon="5.52744">
        <ele>1104.1</ele>
        <time>2021-05-08T13:25:30Z</time>
      </trkpt>
      <trkpt lat="45.03176" lon="5.52771">
        <ele>1101.5</ele>
        <time>2021-05-08T13:25:39Z</time>
      </trkpt>
      <trkpt lat="45.03186" lon="5.52793">
        <ele>1107.4</ele>
        <time>2021-05-08T13:25:52Z</time>
      </trkpt>
      <trkpt lat="45.03168" lon="5.52786">
        <ele>1106.4</ele>
        <time>2021-05-08T13:27:06Z</time>
      </trkpt>
      <trkpt lat="45.03172" lon="5.52811">
        <ele>1105.8</ele>
        <time>2021-05-08T13:28:49Z</time>
      </trkpt>
      <trkpt lat="45.03165" lon="5.52787">
        <ele>1101.7</ele>
        <time>2021-05-08T13:29:24Z</time>
      </trkpt>
      <trkpt lat="45.03183" lon="5.52783">
        <ele>1107.9</ele>
        <time>2021-05-08T13:30:05Z</time>
      </trkpt>
      <trkpt lat="45.03172" lon="5.5276">
        <ele>1106.1</ele>
        <time>2021-05-08T13:31:33Z</time>
      </trkpt>
      <trkpt lat="45.0318" lon="5.52735">
        <ele>1104.8</ele>
        <time>2021-05-08T13:31:39Z</time>
      </trkpt>
      <trkpt lat="45.03172" lon="5.5271">
        <ele>1105.2</ele>
        <time>2021-05-08T13:31:51Z</time>
      </trkpt>
      <trkpt lat="45.03168" lon="5.52685">
        <ele>1104.7</ele>
        <time>2021-05-08T13:32:05Z</time>
      </trkpt>
      <trkpt lat="45.0318" lon="5.52661">
        <ele>1103.1</ele>
        <time>2021-05-08T13:32:14Z</time>
      </trkpt>
      <trkpt lat="45.03192" lon="5.52634">
        <ele>1101.4</ele>
        <time>2021-05-08T13:32:18Z</time>
      </trkpt>
      <trkpt lat="45.03201" lon="5.52611">
        <ele>1100.6</ele>
        <time>2021-05-08T13:32:21Z</time>
      </trkpt>
      <trkpt lat="45.03211" lon="5.52588">
        <ele>1100.1</ele>
        <time>2021-05-08T13:32:24Z</time>
      </trkpt>
      <trkpt lat="45.03221" lon="5.52566">
        <ele>1099.1</ele>
        <time>2021-05-08T13:32:27Z</time>
      </trkpt>
      <trkpt lat="45.03232" lon="5.52539">
        <ele>1098.6</ele>
        <time>2021-05-08T13:32:31Z</time>
      </trkpt>
      <trkpt lat="45.03242" lon="5.52516">
        <ele>1098.4</ele>
        <time>2021-05-08T13:32:35Z</time>
      </trkpt>
      <trkpt lat="45.03252" lon="5.52488">
        <ele>1098.4</ele>
        <time>2021-05-08T13:32:40Z</time>
      </trkpt>
      <trkpt lat="45.03262" lon="5.5246">
        <ele>1099.8</ele>
        <time>2021-05-08T13:32:45Z</time>
      </trkpt>
      <trkpt lat="45.03272" lon="5.52432">
        <ele>1100.4</ele>
        <time>2021-05-08T13:32:50Z</time>
      </trkpt>
      <trkpt lat="45.03281" lon="5.52406">
        <ele>1099</ele>
        <time>2021-05-08T13:32:55Z</time>
      </trkpt>
      <trkpt lat="45.03291" lon="5.52384">
        <ele>1099.1</ele>
        <time>2021-05-08T13:33:01Z</time>
      </trkpt>
      <trkpt lat="45.03303" lon="5.52361">
        <ele>1101.5</ele>
        <time>2021-05-08T13:33:09Z</time>
      </trkpt>
      <trkpt lat="45.03316" lon="5.52341">
        <ele>1102.7</ele>
        <time>2021-05-08T13:33:17Z</time>
      </trkpt>
      <trkpt lat="45.03329" lon="5.52322">
        <ele>1104</ele>
        <time>2021-05-08T13:33:26Z</time>
      </trkpt>
      <trkpt lat="45.03342" lon="5.52305">
        <ele>1104.4</ele>
        <time>2021-05-08T13:33:35Z</time>
      </trkpt>
      <trkpt lat="45.03362" lon="5.523">
        <ele>1104.9</ele>
        <time>2021-05-08T13:33:43Z</time>
      </trkpt>
      <trkpt lat="45.03381" lon="5.52309">
        <ele>1106.8</ele>
        <time>2021-05-08T13:33:50Z</time>
      </trkpt>
      <trkpt lat="45.03396" lon="5.52323">
        <ele>1107.6</ele>
        <time>2021-05-08T13:33:56Z</time>
      </trkpt>
      <trkpt lat="45.03414" lon="5.52337">
        <ele>1106.5</ele>
        <time>2021-05-08T13:34:02Z</time>
      </trkpt>
      <trkpt lat="45.03431" lon="5.52346">
        <ele>1105.5</ele>
        <time>2021-05-08T13:34:08Z</time>
      </trkpt>
      <trkpt lat="45.03449" lon="5.52355">
        <ele>1106</ele>
        <time>2021-05-08T13:34:14Z</time>
      </trkpt>
      <trkpt lat="45.03465" lon="5.52365">
        <ele>1105.7</ele>
        <time>2021-05-08T13:34:20Z</time>
      </trkpt>
      <trkpt lat="45.0348" lon="5.52381">
        <ele>1104.3</ele>
        <time>2021-05-08T13:36:16Z</time>
      </trkpt>
      <trkpt lat="45.03491" lon="5.52403">
        <ele>1104.6</ele>
        <time>2021-05-08T13:36:22Z</time>
      </trkpt>
      <trkpt lat="45.03494" lon="5.5243">
        <ele>1106.1</ele>
        <time>2021-05-08T13:36:29Z</time>
      </trkpt>
      <trkpt lat="45.03504" lon="5.52455">
        <ele>1105.2</ele>
        <time>2021-05-08T13:36:36Z</time>
      </trkpt>
      <trkpt lat="45.03519" lon="5.52475">
        <ele>1107.9</ele>
        <time>2021-05-08T13:36:44Z</time>
      </trkpt>
      <trkpt lat="45.03536" lon="5.5249">
        <ele>1105.9</ele>
        <time>2021-05-08T13:36:51Z</time>
      </trkpt>
      <trkpt lat="45.03551" lon="5.52512">
        <ele>1104</ele>
        <time>2021-05-08T13:36:56Z</time>
      </trkpt>
      <trkpt lat="45.03564" lon="5.52533">
        <ele>1101.7</ele>
        <time>2021-05-08T13:36:59Z</time>
      </trkpt>
      <trkpt lat="45.03575" lon="5.52556">
        <ele>1099.7</ele>
        <time>2021-05-08T13:37:02Z</time>
      </trkpt>
      <trkpt lat="45.03592" lon="5.52573">
        <ele>1097.7</ele>
        <time>2021-05-08T13:37:05Z</time>
      </trkpt>
      <trkpt lat="45.03611" lon="5.52576">
        <ele>1096.2</ele>
        <time>2021-05-08T13:37:08Z</time>
      </trkpt>
      <trkpt lat="45.03631" lon="5.52581">
        <ele>1096.7</ele>
        <time>2021-05-08T13:37:12Z</time>
      </trkpt>
      <trkpt lat="45.03647" lon="5.52594">
        <ele>1098.3</ele>
        <time>2021-05-08T13:37:17Z</time>
      </trkpt>
      <trkpt lat="45.03665" lon="5.5261">
        <ele>1099.8</ele>
        <time>2021-05-08T13:37:23Z</time>
      </trkpt>
      <trkpt lat="45.03685" lon="5.52618">
        <ele>1100.9</ele>
        <time>2021-05-08T13:37:29Z</time>
      </trkpt>
      <trkpt lat="45.03706" lon="5.52616">
        <ele>1102.2</ele>
        <time>2021-05-08T13:37:35Z</time>
      </trkpt>
      <trkpt lat="45.03725" lon="5.5261">
        <ele>1103.5</ele>
        <time>2021-05-08T13:37:41Z</time>
      </trkpt>
      <trkpt lat="45.03745" lon="5.52609">
        <ele>1104.2</ele>
        <time>2021-05-08T13:37:47Z</time>
      </trkpt>
      <trkpt lat="45.03765" lon="5.52613">
        <ele>1104.2</ele>
        <time>2021-05-08T13:37:53Z</time>
      </trkpt>
      <trkpt lat="45.03783" lon="5.52613">
        <ele>1105.7</ele>
        <time>2021-05-08T13:37:59Z</time>
      </trkpt>
      <trkpt lat="45.03803" lon="5.52608">
        <ele>1105.3</ele>
        <time>2021-05-08T13:38:05Z</time>
      </trkpt>
      <trkpt lat="45.0382" lon="5.52596">
        <ele>1106.7</ele>
        <time>2021-05-08T13:38:11Z</time>
      </trkpt>
      <trkpt lat="45.03837" lon="5.52582">
        <ele>1107.1</ele>
        <time>2021-05-08T13:38:17Z</time>
      </trkpt>
      <trkpt lat="45.03856" lon="5.52572">
        <ele>1108.5</ele>
        <time>2021-05-08T13:38:24Z</time>
      </trkpt>
      <trkpt lat="45.03875" lon="5.52567">
        <ele>1109.5</ele>
        <time>2021-05-08T13:38:31Z</time>
      </trkpt>
      <trkpt lat="45.03893" lon="5.5257">
        <ele>1103.5</ele>
        <time>2021-05-08T13:38:36Z</time>
      </trkpt>
      <trkpt lat="45.03913" lon="5.52568">
        <ele>1101.2</ele>
        <time>2021-05-08T13:38:43Z</time>
      </trkpt>
      <trkpt lat="45.0393" lon="5.52554">
        <ele>1113.3</ele>
        <time>2021-05-08T13:38:54Z</time>
      </trkpt>
      <trkpt lat="45.03948" lon="5.52544">
        <ele>1114.5</ele>
        <time>2021-05-08T13:39:03Z</time>
      </trkpt>
      <trkpt lat="45.03965" lon="5.52533">
        <ele>1116.7</ele>
        <time>2021-05-08T13:39:12Z</time>
      </trkpt>
      <trkpt lat="45.03982" lon="5.52521">
        <ele>1116.9</ele>
        <time>2021-05-08T13:39:21Z</time>
      </trkpt>
      <trkpt lat="45.04001" lon="5.52516">
        <ele>1120.6</ele>
        <time>2021-05-08T13:39:31Z</time>
      </trkpt>
      <trkpt lat="45.0402" lon="5.52513">
        <ele>1122.3</ele>
        <time>2021-05-08T13:39:40Z</time>
      </trkpt>
      <trkpt lat="45.0404" lon="5.52509">
        <ele>1126</ele>
        <time>2021-05-08T13:39:50Z</time>
      </trkpt>
      <trkpt lat="45.04058" lon="5.52507">
        <ele>1129.3</ele>
        <time>2021-05-08T13:39:59Z</time>
      </trkpt>
      <trkpt lat="45.04077" lon="5.52506">
        <ele>1129.8</ele>
        <time>2021-05-08T13:40:07Z</time>
      </trkpt>
      <trkpt lat="45.04096" lon="5.52504">
        <ele>1127.4</ele>
        <time>2021-05-08T13:40:16Z</time>
      </trkpt>
      <trkpt lat="45.04116" lon="5.52501">
        <ele>1129.8</ele>
        <time>2021-05-08T13:40:25Z</time>
      </trkpt>
      <trkpt lat="45.04136" lon="5.52497">
        <ele>1131.4</ele>
        <time>2021-05-08T13:40:34Z</time>
      </trkpt>
      <trkpt lat="45.04155" lon="5.52494">
        <ele>1131</ele>
        <time>2021-05-08T13:40:42Z</time>
      </trkpt>
      <trkpt lat="45.04173" lon="5.52493">
        <ele>1133.3</ele>
        <time>2021-05-08T13:40:50Z</time>
      </trkpt>
      <trkpt lat="45.04192" lon="5.52489">
        <ele>1134.5</ele>
        <time>2021-05-08T13:40:58Z</time>
      </trkpt>
      <trkpt lat="45.04211" lon="5.52486">
        <ele>1135.6</ele>
        <time>2021-05-08T13:41:06Z</time>
      </trkpt>
      <trkpt lat="45.04229" lon="5.52486">
        <ele>1137.5</ele>
        <time>2021-05-08T13:41:14Z</time>
      </trkpt>
      <trkpt lat="45.04248" lon="5.52486">
        <ele>1135.9</ele>
        <time>2021-05-08T13:41:22Z</time>
      </trkpt>
      <trkpt lat="45.04266" lon="5.52493">
        <ele>1136.1</ele>
        <time>2021-05-08T13:41:30Z</time>
      </trkpt>
      <trkpt lat="45.04285" lon="5.52497">
        <ele>1136.4</ele>
        <time>2021-05-08T13:41:38Z</time>
      </trkpt>
      <trkpt lat="45.04305" lon="5.52501">
        <ele>1137.4</ele>
        <time>2021-05-08T13:41:46Z</time>
      </trkpt>
      <trkpt lat="45.04323" lon="5.52507">
        <ele>1138</ele>
        <time>2021-05-08T13:41:54Z</time>
      </trkpt>
      <trkpt lat="45.04342" lon="5.52513">
        <ele>1138.6</ele>
        <time>2021-05-08T13:42:02Z</time>
      </trkpt>
      <trkpt lat="45.04361" lon="5.52518">
        <ele>1139.8</ele>
        <time>2021-05-08T13:42:10Z</time>
      </trkpt>
      <trkpt lat="45.04379" lon="5.52523">
        <ele>1140.1</ele>
        <time>2021-05-08T13:42:18Z</time>
      </trkpt>
      <trkpt lat="45.04397" lon="5.52527">
        <ele>1142</ele>
        <time>2021-05-08T13:42:26Z</time>
      </trkpt>
      <trkpt lat="45.04415" lon="5.52533">
        <ele>1143.6</ele>
        <time>2021-05-08T13:42:35Z</time>
      </trkpt>
      <trkpt lat="45.04434" lon="5.52542">
        <ele>1144</ele>
        <time>2021-05-08T13:42:45Z</time>
      </trkpt>
      <trkpt lat="45.04452" lon="5.5255">
        <ele>1145.3</ele>
        <time>2021-05-08T13:42:54Z</time>
      </trkpt>
      <trkpt lat="45.04471" lon="5.52557">
        <ele>1146</ele>
        <time>2021-05-08T13:43:04Z</time>
      </trkpt>
      <trkpt lat="45.0449" lon="5.52562">
        <ele>1147.3</ele>
        <time>2021-05-08T13:43:14Z</time>
      </trkpt>
      <trkpt lat="45.04508" lon="5.52567">
        <ele>1148.8</ele>
        <time>2021-05-08T13:43:25Z</time>
      </trkpt>
      <trkpt lat="45.04526" lon="5.52576">
        <ele>1151</ele>
        <time>2021-05-08T13:45:07Z</time>
      </trkpt>
      <trkpt lat="45.04544" lon="5.52577">
        <ele>1152.4</ele>
        <time>2021-05-08T13:45:17Z</time>
      </trkpt>
      <trkpt lat="45.04564" lon="5.52581">
        <ele>1153.9</ele>
        <time>2021-05-08T13:45:27Z</time>
      </trkpt>
      <trkpt lat="45.04582" lon="5.52585">
        <ele>1155.9</ele>
        <time>2021-05-08T13:45:37Z</time>
      </trkpt>
      <trkpt lat="45.04599" lon="5.52591">
        <ele>1158.7</ele>
        <time>2021-05-08T13:45:47Z</time>
      </trkpt>
      <trkpt lat="45.04618" lon="5.52594">
        <ele>1161.2</ele>
        <time>2021-05-08T13:45:59Z</time>
      </trkpt>
      <trkpt lat="45.04638" lon="5.52595">
        <ele>1160.6</ele>
        <time>2021-05-08T13:46:11Z</time>
      </trkpt>
      <trkpt lat="45.04657" lon="5.526">
        <ele>1161.1</ele>
        <time>2021-05-08T13:46:23Z</time>
      </trkpt>
      <trkpt lat="45.04674" lon="5.52604">
        <ele>1162.5</ele>
        <time>2021-05-08T13:46:34Z</time>
      </trkpt>
      <trkpt lat="45.04693" lon="5.52604">
        <ele>1165.1</ele>
        <time>2021-05-08T13:46:46Z</time>
      </trkpt>
      <trkpt lat="45.04711" lon="5.52603">
        <ele>1168.1</ele>
        <time>2021-05-08T13:46:58Z</time>
      </trkpt>
      <trkpt lat="45.04728" lon="5.5261">
        <ele>1169.5</ele>
        <time>2021-05-08T13:47:09Z</time>
      </trkpt>
      <trkpt lat="45.04747" lon="5.52614">
        <ele>1170.9</ele>
        <time>2021-05-08T13:47:21Z</time>
      </trkpt>
      <trkpt lat="45.04765" lon="5.5262">
        <ele>1173.6</ele>
        <time>2021-05-08T13:47:33Z</time>
      </trkpt>
      <trkpt lat="45.04784" lon="5.52626">
        <ele>1173.7</ele>
        <time>2021-05-08T13:47:44Z</time>
      </trkpt>
      <trkpt lat="45.04802" lon="5.52634">
        <ele>1169.4</ele>
        <time>2021-05-08T13:47:52Z</time>
      </trkpt>
      <trkpt lat="45.0482" lon="5.52637">
        <ele>1171.8</ele>
        <time>2021-05-08T13:48:04Z</time>
      </trkpt>
      <trkpt lat="45.04837" lon="5.5265">
        <ele>1173.5</ele>
        <time>2021-05-08T13:48:15Z</time>
      </trkpt>
      <trkpt lat="45.04853" lon="5.52663">
        <ele>1175.5</ele>
        <time>2021-05-08T13:48:26Z</time>
      </trkpt>
      <trkpt lat="45.04869" lon="5.52675">
        <ele>1177.1</ele>
        <time>2021-05-08T13:48:37Z</time>
      </trkpt>
      <trkpt lat="45.04886" lon="5.52685">
        <ele>1179.7</ele>
        <time>2021-05-08T13:48:48Z</time>
      </trkpt>
      <trkpt lat="45.04905" lon="5.52687">
        <ele>1181.8</ele>
        <time>2021-05-08T13:49:01Z</time>
      </trkpt>
      <trkpt lat="45.04924" lon="5.52688">
        <ele>1183.9</ele>
        <time>2021-05-08T13:49:14Z</time>
      </trkpt>
      <trkpt lat="45.04942" lon="5.52685">
        <ele>1186.9</ele>
        <time>2021-05-08T13:49:26Z</time>
      </trkpt>
      <trkpt lat="45.04958" lon="5.52674">
        <ele>1190.6</ele>
        <time>2021-05-08T13:49:40Z</time>
      </trkpt>
      <trkpt lat="45.04977" lon="5.52668">
        <ele>1196.6</ele>
        <time>2021-05-08T13:50:50Z</time>
      </trkpt>
      <trkpt lat="45.04996" lon="5.52669">
        <ele>1197.7</ele>
        <time>2021-05-08T13:51:02Z</time>
      </trkpt>
      <trkpt lat="45.05014" lon="5.52667">
        <ele>1197.3</ele>
        <time>2021-05-08T13:51:14Z</time>
      </trkpt>
      <trkpt lat="45.05033" lon="5.52663">
        <ele>1199.6</ele>
        <time>2021-05-08T13:51:28Z</time>
      </trkpt>
      <trkpt lat="45.05051" lon="5.52661">
        <ele>1202.3</ele>
        <time>2021-05-08T13:51:43Z</time>
      </trkpt>
      <trkpt lat="45.0507" lon="5.52658">
        <ele>1204.9</ele>
        <time>2021-05-08T13:51:59Z</time>
      </trkpt>
      <trkpt lat="45.05089" lon="5.52658">
        <ele>1204.9</ele>
        <time>2021-05-08T13:53:14Z</time>
      </trkpt>
      <trkpt lat="45.05108" lon="5.52658">
        <ele>1205.5</ele>
        <time>2021-05-08T13:53:24Z</time>
      </trkpt>
      <trkpt lat="45.05128" lon="5.52664">
        <ele>1203.7</ele>
        <time>2021-05-08T13:53:32Z</time>
      </trkpt>
      <trkpt lat="45.05146" lon="5.52659">
        <ele>1206.7</ele>
        <time>2021-05-08T13:53:44Z</time>
      </trkpt>
      <trkpt lat="45.05165" lon="5.52665">
        <ele>1204.2</ele>
        <time>2021-05-08T13:53:54Z</time>
      </trkpt>
      <trkpt lat="45.05184" lon="5.52668">
        <ele>1208.7</ele>
        <time>2021-05-08T13:54:07Z</time>
      </trkpt>
      <trkpt lat="45.05203" lon="5.52669">
        <ele>1218.1</ele>
        <time>2021-05-08T13:54:25Z</time>
      </trkpt>
      <trkpt lat="45.05222" lon="5.52674">
        <ele>1220.2</ele>
        <time>2021-05-08T13:54:38Z</time>
      </trkpt>
      <trkpt lat="45.05241" lon="5.52668">
        <ele>1231.5</ele>
        <time>2021-05-08T13:54:53Z</time>
      </trkpt>
      <trkpt lat="45.0526" lon="5.52663">
        <ele>1235.5</ele>
        <time>2021-05-08T13:55:06Z</time>
      </trkpt>
      <trkpt lat="45.05278" lon="5.52656">
        <ele>1236.5</ele>
        <time>2021-05-08T13:55:17Z</time>
      </trkpt>
      <trkpt lat="45.05294" lon="5.52644">
        <ele>1237.3</ele>
        <time>2021-05-08T13:55:28Z</time>
      </trkpt>
      <trkpt lat="45.05312" lon="5.5263">
        <ele>1239.6</ele>
        <time>2021-05-08T13:55:39Z</time>
      </trkpt>
      <trkpt lat="45.05325" lon="5.52612">
        <ele>1235.4</ele>
        <time>2021-05-08T13:55:46Z</time>
      </trkpt>
      <trkpt lat="45.05332" lon="5.52587">
        <ele>1234.8</ele>
        <time>2021-05-08T13:55:54Z</time>
      </trkpt>
      <trkpt lat="45.05317" lon="5.52569">
        <ele>1234.2</ele>
        <time>2021-05-08T13:56:04Z</time>
      </trkpt>
      <trkpt lat="45.05303" lon="5.5255">
        <ele>1234.5</ele>
        <time>2021-05-08T13:56:13Z</time>
      </trkpt>
      <trkpt lat="45.05289" lon="5.52532">
        <ele>1233.1</ele>
        <time>2021-05-08T13:56:21Z</time>
      </trkpt>
      <trkpt lat="45.05273" lon="5.52515">
        <ele>1233.3</ele>
        <time>2021-05-08T13:56:29Z</time>
      </trkpt>
      <trkpt lat="45.05259" lon="5.52498">
        <ele>1233.3</ele>
        <time>2021-05-08T13:56:36Z</time>
      </trkpt>
      <trkpt lat="45.05246" lon="5.5248">
        <ele>1234.5</ele>
        <time>2021-05-08T13:56:43Z</time>
      </trkpt>
      <trkpt lat="45.05232" lon="5.52461">
        <ele>1236.6</ele>
        <time>2021-05-08T13:56:51Z</time>
      </trkpt>
      <trkpt lat="45.05216" lon="5.52445">
        <ele>1238.4</ele>
        <time>2021-05-08T13:56:59Z</time>
      </trkpt>
      <trkpt lat="45.052" lon="5.52429">
        <ele>1241.4</ele>
        <time>2021-05-08T13:57:07Z</time>
      </trkpt>
      <trkpt lat="45.05184" lon="5.52418">
        <ele>1242.5</ele>
        <time>2021-05-08T13:57:14Z</time>
      </trkpt>
      <trkpt lat="45.05167" lon="5.52407">
        <ele>1242.8</ele>
        <time>2021-05-08T13:57:22Z</time>
      </trkpt>
      <trkpt lat="45.0515" lon="5.52397">
        <ele>1243</ele>
        <time>2021-05-08T13:57:31Z</time>
      </trkpt>
    </trkseg>
  </trk>
</gpx>